PWSweather.com
Personal Weather Stations
Station Observations
KCOFORTC64
Hanna Farm, Fort Collins, CO

Hanna FarmFort Collins, CO

Lat: 40.5937822, Lon: -105.099333

Elevation: 5022

Station Type: Acurite Pro 5-in-1

http://kcofortc64.dlinkddns.com/WD/wx.html

High Low Average
Temperature 36.1°F2.3°C 20.1°F-6.6°C 30.1°F-1.1°C
Dew Point 16.6°F-8.6°C 9.6°F-12.4°C 14.4°F-9.8°C
Winds 20.0 mph 32.2 kmh Calm Calm 6.0 mph S9.7 kmh S
Wind Gusts 20.0 mph32.2 kmh -- 9.0 mph14.5 kmh
Humidity 63% 41% 52%
Pressure 30.35 in1027.8 mb 29.81 in1009.5 mb -
Precipitation 0.17 in4.3 mm - -
Hour Temp Dew Point Humidity Winds Wind Gusts Pressure Precip Precip Rate Daily Precip Total
12:00 AM 28.7°F-1.8°C 16.6°F-8.6°C 60% 9.0 mph WNW14.5 kmh WNW 17.0 mph27.4 kmh 29.77 in1008.1 mb 0.00 in0.0 mm 0.00 in0.0 mm 0.11 in2.8 mm
12:01 AM 28.7°F-1.8°C 16.6°F-8.6°C 60% 6.0 mph WNW9.7 kmh WNW 17.0 mph27.4 kmh 29.77 in1008.1 mb 0.00 in0.0 mm 0.00 in0.0 mm 0.11 in2.8 mm
12:02 AM 28.7°F-1.8°C 16.6°F-8.6°C 60% 5.0 mph W8.0 kmh W 17.0 mph27.4 kmh 29.78 in1008.5 mb 0.00 in0.0 mm 0.00 in0.0 mm 0.11 in2.8 mm
12:03 AM 28.7°F-1.8°C 16.6°F-8.6°C 60% 9.0 mph NNW14.5 kmh NNW 17.0 mph27.4 kmh 29.78 in1008.5 mb 0.00 in0.0 mm 0.00 in0.0 mm 0.11 in2.8 mm
12:04 AM 28.7°F-1.8°C 16.6°F-8.6°C 60% 9.0 mph NNW14.5 kmh NNW 17.0 mph27.4 kmh 29.78 in1008.5 mb 0.00 in0.0 mm 0.00 in0.0 mm 0.11 in2.8 mm
12:05 AM 28.7°F-1.8°C 16.6°F-8.6°C 60% 10.0 mph NW16.1 kmh NW 17.0 mph27.4 kmh 29.78 in1008.5 mb 0.00 in0.0 mm 0.00 in0.0 mm 0.11 in2.8 mm
12:06 AM 28.7°F-1.8°C 16.6°F-8.6°C 60% 8.0 mph NNE12.9 kmh NNE 17.0 mph27.4 kmh 29.78 in1008.5 mb 0.00 in0.0 mm 0.00 in0.0 mm 0.11 in2.8 mm
12:07 AM 28.7°F-1.8°C 16.6°F-8.6°C 60% 9.0 mph WNW14.5 kmh WNW 17.0 mph27.4 kmh 29.78 in1008.5 mb 0.00 in0.0 mm 0.00 in0.0 mm 0.11 in2.8 mm
12:08 AM 28.7°F-1.8°C 16.6°F-8.6°C 60% 6.0 mph WNW9.7 kmh WNW 17.0 mph27.4 kmh 29.78 in1008.5 mb 0.00 in0.0 mm 0.00 in0.0 mm 0.11 in2.8 mm
12:09 AM 28.7°F-1.8°C 16.6°F-8.6°C 60% 6.0 mph WNW9.7 kmh WNW 17.0 mph27.4 kmh 29.78 in1008.5 mb 0.00 in0.0 mm 0.00 in0.0 mm 0.11 in2.8 mm
12:10 AM 28.7°F-1.8°C 16.6°F-8.6°C 60% 8.0 mph NNW12.9 kmh NNW 14.0 mph22.5 kmh 29.78 in1008.5 mb 0.00 in0.0 mm 0.00 in0.0 mm 0.11 in2.8 mm
12:11 AM 28.7°F-1.8°C 16.6°F-8.6°C 60% 7.0 mph W11.3 kmh W 14.0 mph22.5 kmh 29.78 in1008.5 mb 0.00 in0.0 mm 0.00 in0.0 mm 0.11 in2.8 mm
12:12 AM 28.7°F-1.8°C 16.6°F-8.6°C 60% 21.0 mph WNW33.8 kmh WNW 21.0 mph33.8 kmh 29.78 in1008.5 mb 0.00 in0.0 mm 0.00 in0.0 mm 0.11 in2.8 mm
12:13 AM 28.7°F-1.8°C 16.6°F-8.6°C 60% 13.0 mph W20.9 kmh W 21.0 mph33.8 kmh 29.78 in1008.5 mb 0.00 in0.0 mm 0.00 in0.0 mm 0.11 in2.8 mm
12:14 AM 28.7°F-1.8°C 16.6°F-8.6°C 60% 6.0 mph NW9.7 kmh NW 21.0 mph33.8 kmh 29.78 in1008.5 mb 0.00 in0.0 mm 0.00 in0.0 mm 0.11 in2.8 mm
12:15 AM 28.7°F-1.8°C 16.6°F-8.6°C 60% 6.0 mph NW9.7 kmh NW 21.0 mph33.8 kmh 29.78 in1008.5 mb 0.00 in0.0 mm 0.00 in0.0 mm 0.11 in2.8 mm
12:16 AM 28.5°F-1.9°C 16.4°F-8.7°C 60% 9.0 mph W14.5 kmh W 21.0 mph33.8 kmh 29.78 in1008.5 mb 0.00 in0.0 mm 0.00 in0.0 mm 0.11 in2.8 mm
12:17 AM 28.5°F-1.9°C 16.4°F-8.7°C 60% 5.0 mph E8.0 kmh E 21.0 mph33.8 kmh 29.79 in1008.8 mb 0.00 in0.0 mm 0.00 in0.0 mm 0.11 in2.8 mm
12:18 AM 28.5°F-1.9°C 16.4°F-8.7°C 60% 9.0 mph NW14.5 kmh NW 21.0 mph33.8 kmh 29.79 in1008.8 mb 0.00 in0.0 mm 0.00 in0.0 mm 0.11 in2.8 mm
12:19 AM 28.5°F-1.9°C 16.4°F-8.7°C 60% 4.0 mph SSW6.4 kmh SSW 21.0 mph33.8 kmh 29.79 in1008.8 mb 0.00 in0.0 mm 0.00 in0.0 mm 0.11 in2.8 mm
12:20 AM 28.5°F-1.9°C 16.4°F-8.7°C 60% 8.0 mph SSW12.9 kmh SSW 21.0 mph33.8 kmh 29.79 in1008.8 mb 0.00 in0.0 mm 0.00 in0.0 mm 0.11 in2.8 mm
12:21 AM 28.3°F-2.1°C 16.2°F-8.8°C 60% 10.0 mph NNE16.1 kmh NNE 21.0 mph33.8 kmh 29.79 in1008.8 mb 0.00 in0.0 mm 0.00 in0.0 mm 0.11 in2.8 mm
12:22 AM 28.3°F-2.1°C 16.2°F-8.8°C 60% 15.0 mph NW24.1 kmh NW 21.0 mph33.8 kmh 29.79 in1008.8 mb 0.00 in0.0 mm 0.00 in0.0 mm 0.11 in2.8 mm
12:23 AM 28.3°F-2.1°C 16.2°F-8.8°C 60% 9.0 mph NW14.5 kmh NW 19.0 mph30.6 kmh 29.79 in1008.8 mb 0.00 in0.0 mm 0.00 in0.0 mm 0.11 in2.8 mm
12:24 AM 28.3°F-2.1°C 16.2°F-8.8°C 60% 4.0 mph NNE6.4 kmh NNE 19.0 mph30.6 kmh 29.79 in1008.8 mb 0.00 in0.0 mm 0.00 in0.0 mm 0.11 in2.8 mm
12:25 AM 28.3°F-2.1°C 16.2°F-8.8°C 60% 7.0 mph NW11.3 kmh NW 19.0 mph30.6 kmh 29.79 in1008.8 mb 0.00 in0.0 mm 0.00 in0.0 mm 0.11 in2.8 mm
12:26 AM 28.3°F-2.1°C 16.2°F-8.8°C 60% 6.0 mph NW9.7 kmh NW 19.0 mph30.6 kmh 29.79 in1008.8 mb 0.00 in0.0 mm 0.00 in0.0 mm 0.11 in2.8 mm
12:27 AM 28.3°F-2.1°C 16.2°F-8.8°C 60% 11.0 mph W17.7 kmh W 15.0 mph24.1 kmh 29.79 in1008.8 mb 0.00 in0.0 mm 0.00 in0.0 mm 0.11 in2.8 mm
12:28 AM 28.3°F-2.1°C 16.2°F-8.8°C 60% 3.0 mph WNW4.8 kmh WNW 15.0 mph24.1 kmh 29.79 in1008.8 mb 0.00 in0.0 mm 0.00 in0.0 mm 0.11 in2.8 mm
12:29 AM 28.3°F-2.1°C 16.2°F-8.8°C 60% 6.0 mph W9.7 kmh W 15.0 mph24.1 kmh 29.79 in1008.8 mb 0.00 in0.0 mm 0.00 in0.0 mm 0.11 in2.8 mm
12:30 AM 28.3°F-2.1°C 16.2°F-8.8°C 60% 7.0 mph W11.3 kmh W 15.0 mph24.1 kmh 29.80 in1009.1 mb 0.00 in0.0 mm 0.00 in0.0 mm 0.11 in2.8 mm
12:31 AM 28.3°F-2.1°C 16.2°F-8.8°C 60% 8.0 mph WNW12.9 kmh WNW 15.0 mph24.1 kmh 29.80 in1009.1 mb 0.00 in0.0 mm 0.00 in0.0 mm 0.11 in2.8 mm
12:32 AM 28.3°F-2.1°C 16.2°F-8.8°C 60% 11.0 mph WNW17.7 kmh WNW 15.0 mph24.1 kmh 29.80 in1009.1 mb 0.00 in0.0 mm 0.00 in0.0 mm 0.11 in2.8 mm
12:33 AM 28.3°F-2.1°C 16.2°F-8.8°C 60% 3.0 mph NNE4.8 kmh NNE 11.0 mph17.7 kmh 29.80 in1009.1 mb 0.00 in0.0 mm 0.00 in0.0 mm 0.11 in2.8 mm
12:34 AM 28.3°F-2.1°C 16.2°F-8.8°C 60% 7.0 mph NW11.3 kmh NW 11.0 mph17.7 kmh 29.79 in1008.8 mb 0.00 in0.0 mm 0.00 in0.0 mm 0.11 in2.8 mm
12:35 AM 28.3°F-2.1°C 16.2°F-8.8°C 60% 5.0 mph WNW8.0 kmh WNW 11.0 mph17.7 kmh 29.79 in1008.8 mb 0.00 in0.0 mm 0.00 in0.0 mm 0.11 in2.8 mm
12:36 AM 28.3°F-2.1°C 16.2°F-8.8°C 60% 5.0 mph NNW8.0 kmh NNW 11.0 mph17.7 kmh 29.80 in1009.1 mb 0.00 in0.0 mm 0.00 in0.0 mm 0.11 in2.8 mm
12:37 AM 28.3°F-2.1°C 16.2°F-8.8°C 60% 5.0 mph NNW8.0 kmh NNW 11.0 mph17.7 kmh 29.80 in1009.1 mb 0.00 in0.0 mm 0.00 in0.0 mm 0.11 in2.8 mm
12:38 AM 28.3°F-2.1°C 16.2°F-8.8°C 60% 7.0 mph NW11.3 kmh NW 12.0 mph19.3 kmh 29.79 in1008.8 mb 0.00 in0.0 mm 0.00 in0.0 mm 0.11 in2.8 mm
12:39 AM 28.3°F-2.1°C 16.2°F-8.8°C 60% 8.0 mph SW12.9 kmh SW 12.0 mph19.3 kmh 29.79 in1008.8 mb 0.00 in0.0 mm 0.00 in0.0 mm 0.11 in2.8 mm
12:40 AM 28.3°F-2.1°C 16.2°F-8.8°C 60% 15.0 mph WNW24.1 kmh WNW 15.0 mph24.1 kmh 29.79 in1008.8 mb 0.00 in0.0 mm 0.00 in0.0 mm 0.11 in2.8 mm
12:41 AM 28.3°F-2.1°C 16.2°F-8.8°C 60% 11.0 mph NNE17.7 kmh NNE 15.0 mph24.1 kmh 29.80 in1009.1 mb 0.00 in0.0 mm 0.00 in0.0 mm 0.11 in2.8 mm
12:42 AM 28.3°F-2.1°C 16.2°F-8.8°C 60% 4.0 mph NNE6.4 kmh NNE 15.0 mph24.1 kmh 29.80 in1009.1 mb 0.00 in0.0 mm 0.00 in0.0 mm 0.11 in2.8 mm
12:43 AM 28.3°F-2.1°C 16.2°F-8.8°C 60% 5.0 mph NW8.0 kmh NW 15.0 mph24.1 kmh 29.80 in1009.1 mb 0.00 in0.0 mm 0.00 in0.0 mm 0.11 in2.8 mm
12:44 AM 28.3°F-2.1°C 16.2°F-8.8°C 60% 7.0 mph NNE11.3 kmh NNE 15.0 mph24.1 kmh 29.80 in1009.1 mb 0.00 in0.0 mm 0.00 in0.0 mm 0.11 in2.8 mm
12:45 AM 28.3°F-2.1°C 16.2°F-8.8°C 60% 7.0 mph NNE11.3 kmh NNE 15.0 mph24.1 kmh 29.80 in1009.1 mb 0.00 in0.0 mm 0.00 in0.0 mm 0.11 in2.8 mm
12:46 AM 28.3°F-2.1°C 16.2°F-8.8°C 60% 7.0 mph NNE11.3 kmh NNE 15.0 mph24.1 kmh 29.80 in1009.1 mb 0.00 in0.0 mm 0.00 in0.0 mm 0.11 in2.8 mm
12:47 AM 28.3°F-2.1°C 16.2°F-8.8°C 60% 7.0 mph NW11.3 kmh NW 15.0 mph24.1 kmh 29.80 in1009.1 mb 0.00 in0.0 mm 0.00 in0.0 mm 0.11 in2.8 mm
12:48 AM 28.3°F-2.1°C 16.2°F-8.8°C 60% 7.0 mph NW11.3 kmh NW 15.0 mph24.1 kmh 29.80 in1009.1 mb 0.00 in0.0 mm 0.00 in0.0 mm 0.11 in2.8 mm
12:49 AM 28.3°F-2.1°C 16.2°F-8.8°C 60% 8.0 mph NNW12.9 kmh NNW 15.0 mph24.1 kmh 29.80 in1009.1 mb 0.00 in0.0 mm 0.00 in0.0 mm 0.11 in2.8 mm
12:50 AM 28.3°F-2.1°C 16.2°F-8.8°C 60% 5.0 mph NNE8.0 kmh NNE 15.0 mph24.1 kmh 29.80 in1009.1 mb 0.00 in0.0 mm 0.00 in0.0 mm 0.11 in2.8 mm
12:51 AM 28.3°F-2.1°C 16.2°F-8.8°C 60% 5.0 mph NNE8.0 kmh NNE 15.0 mph24.1 kmh 29.80 in1009.1 mb 0.00 in0.0 mm 0.00 in0.0 mm 0.11 in2.8 mm
12:52 AM 28.3°F-2.1°C 16.2°F-8.8°C 60% 6.0 mph W9.7 kmh W 9.0 mph14.5 kmh 29.80 in1009.1 mb 0.00 in0.0 mm 0.00 in0.0 mm 0.11 in2.8 mm
12:53 AM 28.3°F-2.1°C 16.2°F-8.8°C 60% 6.0 mph WNW9.7 kmh WNW 11.0 mph17.7 kmh 29.80 in1009.1 mb 0.00 in0.0 mm 0.00 in0.0 mm 0.11 in2.8 mm
12:54 AM 28.3°F-2.1°C 16.2°F-8.8°C 60% 7.0 mph NW11.3 kmh NW 11.0 mph17.7 kmh 29.81 in1009.5 mb 0.00 in0.0 mm 0.00 in0.0 mm 0.11 in2.8 mm
12:55 AM 28.3°F-2.1°C 16.2°F-8.8°C 60% 8.0 mph NW12.9 kmh NW 11.0 mph17.7 kmh 29.81 in1009.5 mb 0.00 in0.0 mm 0.00 in0.0 mm 0.11 in2.8 mm
12:56 AM 28.3°F-2.1°C 16.2°F-8.8°C 60% 10.0 mph NNE16.1 kmh NNE 11.0 mph17.7 kmh 29.81 in1009.5 mb 0.00 in0.0 mm 0.00 in0.0 mm 0.11 in2.8 mm
12:57 AM 28.3°F-2.1°C 16.2°F-8.8°C 60% 11.0 mph W17.7 kmh W 11.0 mph17.7 kmh 29.81 in1009.5 mb 0.00 in0.0 mm 0.00 in0.0 mm 0.11 in2.8 mm
12:58 AM 28.3°F-2.1°C 16.2°F-8.8°C 60% 8.0 mph WNW12.9 kmh WNW 16.0 mph25.7 kmh 29.81 in1009.5 mb 0.00 in0.0 mm 0.00 in0.0 mm 0.11 in2.8 mm
12:59 AM 28.3°F-2.1°C 16.2°F-8.8°C 60% 4.0 mph W6.4 kmh W 16.0 mph25.7 kmh 29.81 in1009.5 mb 0.00 in0.0 mm 0.00 in0.0 mm 0.11 in2.8 mm
01:00 AM 28.3°F-2.1°C 16.2°F-8.8°C 60% 4.0 mph W6.4 kmh W 16.0 mph25.7 kmh 29.81 in1009.5 mb 0.00 in0.0 mm 0.00 in0.0 mm 0.11 in2.8 mm
01:01 AM 28.3°F-2.1°C 16.2°F-8.8°C 60% 6.0 mph NW9.7 kmh NW 16.0 mph25.7 kmh 29.81 in1009.5 mb 0.00 in0.0 mm 0.00 in0.0 mm 0.11 in2.8 mm
01:02 AM 28.3°F-2.1°C 16.2°F-8.8°C 60% 6.0 mph NW9.7 kmh NW 16.0 mph25.7 kmh 29.81 in1009.5 mb 0.00 in0.0 mm 0.00 in0.0 mm 0.11 in2.8 mm
01:03 AM 28.3°F-2.1°C 16.2°F-8.8°C 60% 10.0 mph WNW16.1 kmh WNW 16.0 mph25.7 kmh 29.81 in1009.5 mb 0.00 in0.0 mm 0.00 in0.0 mm 0.11 in2.8 mm
01:04 AM 28.3°F-2.1°C 16.2°F-8.8°C 60% 17.0 mph WNW27.4 kmh WNW 17.0 mph27.4 kmh 29.81 in1009.5 mb 0.00 in0.0 mm 0.00 in0.0 mm 0.11 in2.8 mm
01:05 AM 28.3°F-2.1°C 16.2°F-8.8°C 60% 7.0 mph WNW11.3 kmh WNW 17.0 mph27.4 kmh 29.81 in1009.5 mb 0.00 in0.0 mm 0.00 in0.0 mm 0.11 in2.8 mm
01:06 AM 28.3°F-2.1°C 16.2°F-8.8°C 60% 8.0 mph NNE12.9 kmh NNE 17.0 mph27.4 kmh 29.82 in1009.8 mb 0.00 in0.0 mm 0.00 in0.0 mm 0.11 in2.8 mm
01:07 AM 28.3°F-2.1°C 16.2°F-8.8°C 60% 8.0 mph NNE12.9 kmh NNE 17.0 mph27.4 kmh 29.82 in1009.8 mb 0.00 in0.0 mm 0.00 in0.0 mm 0.11 in2.8 mm
01:08 AM 28.3°F-2.1°C 16.2°F-8.8°C 60% 8.0 mph WNW12.9 kmh WNW 17.0 mph27.4 kmh 29.82 in1009.8 mb 0.00 in0.0 mm 0.00 in0.0 mm 0.11 in2.8 mm
01:09 AM 28.3°F-2.1°C 16.2°F-8.8°C 60% 13.0 mph 20.9 kmh 17.0 mph27.4 kmh 29.82 in1009.8 mb 0.00 in0.0 mm 0.00 in0.0 mm 0.11 in2.8 mm
01:10 AM 28.3°F-2.1°C 16.2°F-8.8°C 60% 7.0 mph NW11.3 kmh NW 17.0 mph27.4 kmh 29.82 in1009.8 mb 0.00 in0.0 mm 0.00 in0.0 mm 0.11 in2.8 mm
01:11 AM 28.3°F-2.1°C 16.2°F-8.8°C 60% 6.0 mph W9.7 kmh W 17.0 mph27.4 kmh 29.82 in1009.8 mb 0.00 in0.0 mm 0.00 in0.0 mm 0.11 in2.8 mm
01:12 AM 28.3°F-2.1°C 16.2°F-8.8°C 60% 6.0 mph W9.7 kmh W 17.0 mph27.4 kmh 29.82 in1009.8 mb 0.00 in0.0 mm 0.00 in0.0 mm 0.11 in2.8 mm
01:13 AM 28.3°F-2.1°C 16.2°F-8.8°C 60% 6.0 mph W9.7 kmh W 17.0 mph27.4 kmh 29.82 in1009.8 mb 0.00 in0.0 mm 0.00 in0.0 mm 0.11 in2.8 mm
01:14 AM 28.3°F-2.1°C 16.2°F-8.8°C 60% 5.0 mph NW8.0 kmh NW 13.0 mph20.9 kmh 29.82 in1009.8 mb 0.00 in0.0 mm 0.00 in0.0 mm 0.11 in2.8 mm
01:15 AM 28.3°F-2.1°C 16.2°F-8.8°C 60% 8.0 mph NW12.9 kmh NW 13.0 mph20.9 kmh 29.82 in1009.8 mb 0.00 in0.0 mm 0.00 in0.0 mm 0.11 in2.8 mm
01:16 AM 28.3°F-2.1°C 16.2°F-8.8°C 60% 11.0 mph NNW17.7 kmh NNW 15.0 mph24.1 kmh 29.82 in1009.8 mb 0.00 in0.0 mm 0.00 in0.0 mm 0.11 in2.8 mm
01:17 AM 28.3°F-2.1°C 16.2°F-8.8°C 60% 11.0 mph NNW17.7 kmh NNW 15.0 mph24.1 kmh 29.83 in1010.2 mb 0.00 in0.0 mm 0.00 in0.0 mm 0.11 in2.8 mm
01:18 AM 28.3°F-2.1°C 16.2°F-8.8°C 60% 6.0 mph WNW9.7 kmh WNW 15.0 mph24.1 kmh 29.82 in1009.8 mb 0.00 in0.0 mm 0.00 in0.0 mm 0.11 in2.8 mm
01:19 AM 28.3°F-2.1°C 16.2°F-8.8°C 60% 9.0 mph NW14.5 kmh NW 15.0 mph24.1 kmh 29.82 in1009.8 mb 0.00 in0.0 mm 0.00 in0.0 mm 0.11 in2.8 mm
01:20 AM 28.3°F-2.1°C 16.2°F-8.8°C 60% 18.0 mph NW29.0 kmh NW 18.0 mph29.0 kmh 29.82 in1009.8 mb 0.00 in0.0 mm 0.00 in0.0 mm 0.11 in2.8 mm
01:21 AM 28.3°F-2.1°C 16.2°F-8.8°C 60% 15.0 mph NNE24.1 kmh NNE 18.0 mph29.0 kmh 29.82 in1009.8 mb 0.00 in0.0 mm 0.00 in0.0 mm 0.11 in2.8 mm
01:22 AM 28.5°F-1.9°C 16.4°F-8.7°C 60% 9.0 mph NNE14.5 kmh NNE 18.0 mph29.0 kmh 29.83 in1010.2 mb 0.00 in0.0 mm 0.00 in0.0 mm 0.11 in2.8 mm
01:23 AM 28.5°F-1.9°C 16.4°F-8.7°C 60% 12.0 mph W19.3 kmh W 18.0 mph29.0 kmh 29.83 in1010.2 mb 0.00 in0.0 mm 0.00 in0.0 mm 0.11 in2.8 mm
01:24 AM 28.5°F-1.9°C 16.4°F-8.7°C 60% 7.0 mph WNW11.3 kmh WNW 18.0 mph29.0 kmh 29.83 in1010.2 mb 0.00 in0.0 mm 0.00 in0.0 mm 0.11 in2.8 mm
01:25 AM 28.5°F-1.9°C 16.4°F-8.7°C 60% 9.0 mph NNW14.5 kmh NNW 18.0 mph29.0 kmh 29.83 in1010.2 mb 0.00 in0.0 mm 0.00 in0.0 mm 0.11 in2.8 mm
01:26 AM 28.5°F-1.9°C 16.4°F-8.7°C 60% 4.0 mph NNW6.4 kmh NNW 18.0 mph29.0 kmh 29.83 in1010.2 mb 0.00 in0.0 mm 0.00 in0.0 mm 0.11 in2.8 mm
01:27 AM 28.3°F-2.1°C 16.2°F-8.8°C 60% 4.0 mph WNW6.4 kmh WNW 18.0 mph29.0 kmh 29.83 in1010.2 mb 0.00 in0.0 mm 0.00 in0.0 mm 0.11 in2.8 mm
01:28 AM 28.3°F-2.1°C 16.2°F-8.8°C 60% 5.0 mph WNW8.0 kmh WNW 18.0 mph29.0 kmh 29.83 in1010.2 mb 0.00 in0.0 mm 0.00 in0.0 mm 0.11 in2.8 mm
01:29 AM 28.3°F-2.1°C 16.2°F-8.8°C 60% 8.0 mph W12.9 kmh W 18.0 mph29.0 kmh 29.83 in1010.2 mb 0.00 in0.0 mm 0.00 in0.0 mm 0.11 in2.8 mm
01:30 AM 28.3°F-2.1°C 16.2°F-8.8°C 60% 9.0 mph NNW14.5 kmh NNW 15.0 mph24.1 kmh 29.83 in1010.2 mb 0.00 in0.0 mm 0.00 in0.0 mm 0.11 in2.8 mm
01:31 AM 28.3°F-2.1°C 16.2°F-8.8°C 60% 7.0 mph NNW11.3 kmh NNW 12.0 mph19.3 kmh 29.84 in1010.5 mb 0.00 in0.0 mm 0.00 in0.0 mm 0.11 in2.8 mm
01:32 AM 28.3°F-2.1°C 16.2°F-8.8°C 60% 13.0 mph NW20.9 kmh NW 13.0 mph20.9 kmh 29.84 in1010.5 mb 0.00 in0.0 mm 0.00 in0.0 mm 0.11 in2.8 mm
01:33 AM 28.3°F-2.1°C 16.2°F-8.8°C 60% 9.0 mph NW14.5 kmh NW 13.0 mph20.9 kmh 29.84 in1010.5 mb 0.00 in0.0 mm 0.00 in0.0 mm 0.11 in2.8 mm
01:34 AM 28.3°F-2.1°C 16.2°F-8.8°C 60% 4.0 mph NNW6.4 kmh NNW 13.0 mph20.9 kmh 29.84 in1010.5 mb 0.00 in0.0 mm 0.00 in0.0 mm 0.11 in2.8 mm
01:35 AM 28.3°F-2.1°C 16.2°F-8.8°C 60% 4.0 mph NW6.4 kmh NW 13.0 mph20.9 kmh 29.84 in1010.5 mb 0.00 in0.0 mm 0.00 in0.0 mm 0.11 in2.8 mm
01:36 AM 28.3°F-2.1°C 16.2°F-8.8°C 60% 7.0 mph NW11.3 kmh NW 13.0 mph20.9 kmh 29.84 in1010.5 mb 0.00 in0.0 mm 0.00 in0.0 mm 0.11 in2.8 mm
01:37 AM 28.5°F-1.9°C 16.4°F-8.7°C 60% 12.0 mph NW19.3 kmh NW 13.0 mph20.9 kmh 29.84 in1010.5 mb 0.00 in0.0 mm 0.00 in0.0 mm 0.11 in2.8 mm
01:38 AM 28.5°F-1.9°C 16.4°F-8.7°C 60% 6.0 mph NW9.7 kmh NW 13.0 mph20.9 kmh 29.84 in1010.5 mb 0.00 in0.0 mm 0.00 in0.0 mm 0.11 in2.8 mm
01:39 AM 28.5°F-1.9°C 16.4°F-8.7°C 60% 11.0 mph NW17.7 kmh NW 13.0 mph20.9 kmh 29.84 in1010.5 mb 0.00 in0.0 mm 0.00 in0.0 mm 0.11 in2.8 mm
01:40 AM 28.5°F-1.9°C 16.4°F-8.7°C 60% 4.0 mph NW6.4 kmh NW 13.0 mph20.9 kmh 29.85 in1010.8 mb 0.00 in0.0 mm 0.00 in0.0 mm 0.11 in2.8 mm
01:41 AM 28.5°F-1.9°C 16.4°F-8.7°C 60% 4.0 mph NW6.4 kmh NW 13.0 mph20.9 kmh 29.85 in1010.8 mb 0.00 in0.0 mm 0.00 in0.0 mm 0.11 in2.8 mm
01:42 AM 28.5°F-1.9°C 16.4°F-8.7°C 60% 13.0 mph NW20.9 kmh NW 13.0 mph20.9 kmh 29.85 in1010.8 mb 0.00 in0.0 mm 0.00 in0.0 mm 0.11 in2.8 mm
01:43 AM 28.5°F-1.9°C 16.0°F-8.9°C 59% 5.0 mph 8.0 kmh 13.0 mph20.9 kmh 29.85 in1010.8 mb 0.00 in0.0 mm 0.00 in0.0 mm 0.11 in2.8 mm
01:44 AM 28.5°F-1.9°C 16.0°F-8.9°C 59% 7.0 mph 11.3 kmh 13.0 mph20.9 kmh 29.85 in1010.8 mb 0.00 in0.0 mm 0.00 in0.0 mm 0.11 in2.8 mm
01:45 AM 28.5°F-1.9°C 16.4°F-8.7°C 60% 5.0 mph NNW8.0 kmh NNW 13.0 mph20.9 kmh 29.85 in1010.8 mb 0.00 in0.0 mm 0.00 in0.0 mm 0.11 in2.8 mm
01:46 AM 28.5°F-1.9°C 16.4°F-8.7°C 60% 5.0 mph NNW8.0 kmh NNW 13.0 mph20.9 kmh 29.85 in1010.8 mb 0.00 in0.0 mm 0.00 in0.0 mm 0.11 in2.8 mm
01:47 AM 28.5°F-1.9°C 16.4°F-8.7°C 60% 15.0 mph NNW24.1 kmh NNW 15.0 mph24.1 kmh 29.85 in1010.8 mb 0.00 in0.0 mm 0.00 in0.0 mm 0.11 in2.8 mm
01:48 AM 28.5°F-1.9°C 16.4°F-8.7°C 60% 8.0 mph WNW12.9 kmh WNW 15.0 mph24.1 kmh 29.85 in1010.8 mb 0.00 in0.0 mm 0.00 in0.0 mm 0.11 in2.8 mm
01:49 AM 28.5°F-1.9°C 16.4°F-8.7°C 60% 9.0 mph WNW14.5 kmh WNW 16.0 mph25.7 kmh 29.85 in1010.8 mb 0.00 in0.0 mm 0.00 in0.0 mm 0.11 in2.8 mm
01:50 AM 28.5°F-1.9°C 16.4°F-8.7°C 60% 8.0 mph WNW12.9 kmh WNW 16.0 mph25.7 kmh 29.85 in1010.8 mb 0.00 in0.0 mm 0.00 in0.0 mm 0.11 in2.8 mm
01:51 AM 28.5°F-1.9°C 16.4°F-8.7°C 60% 10.0 mph WNW16.1 kmh WNW 16.0 mph25.7 kmh 29.85 in1010.8 mb 0.00 in0.0 mm 0.00 in0.0 mm 0.11 in2.8 mm
01:52 AM 28.5°F-1.9°C 16.4°F-8.7°C 60% 4.0 mph WNW6.4 kmh WNW 16.0 mph25.7 kmh 29.85 in1010.8 mb 0.00 in0.0 mm 0.00 in0.0 mm 0.11 in2.8 mm
01:53 AM 28.5°F-1.9°C 16.4°F-8.7°C 60% 12.0 mph NW19.3 kmh NW 16.0 mph25.7 kmh 29.86 in1011.2 mb 0.00 in0.0 mm 0.00 in0.0 mm 0.11 in2.8 mm
01:54 AM 28.5°F-1.9°C 16.4°F-8.7°C 60% 15.0 mph NW24.1 kmh NW 16.0 mph25.7 kmh 29.86 in1011.2 mb 0.00 in0.0 mm 0.00 in0.0 mm 0.11 in2.8 mm
01:55 AM 28.5°F-1.9°C 16.4°F-8.7°C 60% 11.0 mph W17.7 kmh W 16.0 mph25.7 kmh 29.86 in1011.2 mb 0.00 in0.0 mm 0.00 in0.0 mm 0.11 in2.8 mm
01:56 AM 28.5°F-1.9°C 16.4°F-8.7°C 60% 9.0 mph W14.5 kmh W 16.0 mph25.7 kmh 29.86 in1011.2 mb 0.00 in0.0 mm 0.00 in0.0 mm 0.11 in2.8 mm
01:57 AM 28.5°F-1.9°C 16.4°F-8.7°C 60% 8.0 mph ENE12.9 kmh ENE 16.0 mph25.7 kmh 29.85 in1010.8 mb 0.00 in0.0 mm 0.00 in0.0 mm 0.11 in2.8 mm
01:58 AM 28.5°F-1.9°C 16.4°F-8.7°C 60% 6.0 mph W9.7 kmh W 16.0 mph25.7 kmh 29.85 in1010.8 mb 0.00 in0.0 mm 0.00 in0.0 mm 0.11 in2.8 mm
01:59 AM 28.5°F-1.9°C 16.0°F-8.9°C 59% 9.0 mph NW14.5 kmh NW 16.0 mph25.7 kmh 29.85 in1010.8 mb 0.00 in0.0 mm 0.00 in0.0 mm 0.11 in2.8 mm
02:00 AM 28.7°F-1.8°C 16.2°F-8.8°C 59% 17.0 mph NW27.4 kmh NW 17.0 mph27.4 kmh 29.86 in1011.2 mb 0.00 in0.0 mm 0.00 in0.0 mm 0.11 in2.8 mm
02:01 AM 28.7°F-1.8°C 16.2°F-8.8°C 59% 5.0 mph WNW8.0 kmh WNW 17.0 mph27.4 kmh 29.86 in1011.2 mb 0.00 in0.0 mm 0.00 in0.0 mm 0.11 in2.8 mm
02:02 AM 28.7°F-1.8°C 16.2°F-8.8°C 59% 13.0 mph WNW20.9 kmh WNW 17.0 mph27.4 kmh 29.86 in1011.2 mb 0.00 in0.0 mm 0.00 in0.0 mm 0.11 in2.8 mm
02:03 AM 28.7°F-1.8°C 16.6°F-8.6°C 60% 14.0 mph WNW22.5 kmh WNW 17.0 mph27.4 kmh 29.86 in1011.2 mb 0.00 in0.0 mm 0.00 in0.0 mm 0.11 in2.8 mm
02:04 AM 28.7°F-1.8°C 16.6°F-8.6°C 60% 14.0 mph WNW22.5 kmh WNW 17.0 mph27.4 kmh 29.86 in1011.2 mb 0.00 in0.0 mm 0.00 in0.0 mm 0.11 in2.8 mm
02:05 AM 28.5°F-1.9°C 16.4°F-8.7°C 60% 13.0 mph NW20.9 kmh NW 17.0 mph27.4 kmh 29.86 in1011.2 mb 0.00 in0.0 mm 0.00 in0.0 mm 0.11 in2.8 mm
02:06 AM 28.5°F-1.9°C 16.4°F-8.7°C 60% 13.0 mph NW20.9 kmh NW 17.0 mph27.4 kmh 29.86 in1011.2 mb 0.00 in0.0 mm 0.00 in0.0 mm 0.11 in2.8 mm
02:07 AM 28.5°F-1.9°C 16.4°F-8.7°C 60% 11.0 mph NW17.7 kmh NW 17.0 mph27.4 kmh 29.86 in1011.2 mb 0.00 in0.0 mm 0.00 in0.0 mm 0.11 in2.8 mm
02:08 AM 28.5°F-1.9°C 16.4°F-8.7°C 60% 6.0 mph NW9.7 kmh NW 17.0 mph27.4 kmh 29.86 in1011.2 mb 0.00 in0.0 mm 0.00 in0.0 mm 0.11 in2.8 mm
02:09 AM 28.5°F-1.9°C 16.4°F-8.7°C 60% 16.0 mph WNW25.7 kmh WNW 18.0 mph29.0 kmh 29.87 in1011.5 mb 0.00 in0.0 mm 0.00 in0.0 mm 0.11 in2.8 mm
02:10 AM 28.5°F-1.9°C 16.4°F-8.7°C 60% 8.0 mph WNW12.9 kmh WNW 18.0 mph29.0 kmh 29.87 in1011.5 mb 0.00 in0.0 mm 0.00 in0.0 mm 0.11 in2.8 mm
02:11 AM 28.5°F-1.9°C 16.4°F-8.7°C 60% 18.0 mph NNW29.0 kmh NNW 18.0 mph29.0 kmh 29.87 in1011.5 mb 0.00 in0.0 mm 0.00 in0.0 mm 0.11 in2.8 mm
02:12 AM 28.5°F-1.9°C 16.4°F-8.7°C 60% 9.0 mph 14.5 kmh 18.0 mph29.0 kmh 29.87 in1011.5 mb 0.00 in0.0 mm 0.00 in0.0 mm 0.11 in2.8 mm
02:13 AM 28.7°F-1.8°C 16.2°F-8.8°C 59% 6.0 mph NNW9.7 kmh NNW 18.0 mph29.0 kmh 29.87 in1011.5 mb 0.00 in0.0 mm 0.00 in0.0 mm 0.11 in2.8 mm
02:14 AM 28.7°F-1.8°C 16.2°F-8.8°C 59% 6.0 mph 9.7 kmh 18.0 mph29.0 kmh 29.87 in1011.5 mb 0.00 in0.0 mm 0.00 in0.0 mm 0.11 in2.8 mm
02:15 AM 28.7°F-1.8°C 16.2°F-8.8°C 59% 5.0 mph 8.0 kmh 18.0 mph29.0 kmh 29.87 in1011.5 mb 0.00 in0.0 mm 0.00 in0.0 mm 0.11 in2.8 mm
02:16 AM 28.7°F-1.8°C 16.2°F-8.8°C 59% 5.0 mph 8.0 kmh 18.0 mph29.0 kmh 29.86 in1011.2 mb 0.00 in0.0 mm 0.00 in0.0 mm 0.11 in2.8 mm
02:17 AM 28.7°F-1.8°C 16.2°F-8.8°C 59% 7.0 mph 11.3 kmh 18.0 mph29.0 kmh 29.87 in1011.5 mb 0.00 in0.0 mm 0.00 in0.0 mm 0.11 in2.8 mm
02:18 AM 28.7°F-1.8°C 16.2°F-8.8°C 59% 6.0 mph WNW9.7 kmh WNW 18.0 mph29.0 kmh 29.87 in1011.5 mb 0.00 in0.0 mm 0.00 in0.0 mm 0.11 in2.8 mm
02:19 AM 28.7°F-1.8°C 16.6°F-8.6°C 60% 9.0 mph WNW14.5 kmh WNW 18.0 mph29.0 kmh 29.87 in1011.5 mb 0.00 in0.0 mm 0.00 in0.0 mm 0.11 in2.8 mm
02:20 AM 28.7°F-1.8°C 16.2°F-8.8°C 59% 7.0 mph 11.3 kmh 18.0 mph29.0 kmh 29.87 in1011.5 mb 0.00 in0.0 mm 0.00 in0.0 mm 0.11 in2.8 mm
02:21 AM 28.7°F-1.8°C 16.2°F-8.8°C 59% 9.0 mph 14.5 kmh 18.0 mph29.0 kmh 29.87 in1011.5 mb 0.00 in0.0 mm 0.00 in0.0 mm 0.11 in2.8 mm
02:22 AM 28.7°F-1.8°C 16.2°F-8.8°C 59% 8.0 mph NW12.9 kmh NW 9.0 mph14.5 kmh 29.87 in1011.5 mb 0.00 in0.0 mm 0.00 in0.0 mm 0.11 in2.8 mm
02:23 AM 28.7°F-1.8°C 16.2°F-8.8°C 59% 7.0 mph NW11.3 kmh NW 9.0 mph14.5 kmh 29.87 in1011.5 mb 0.00 in0.0 mm 0.00 in0.0 mm 0.11 in2.8 mm
02:24 AM 28.7°F-1.8°C 16.2°F-8.8°C 59% 13.0 mph WNW20.9 kmh WNW 13.0 mph20.9 kmh 29.87 in1011.5 mb 0.00 in0.0 mm 0.00 in0.0 mm 0.11 in2.8 mm
02:25 AM 28.7°F-1.8°C 16.2°F-8.8°C 59% 10.0 mph WNW16.1 kmh WNW 13.0 mph20.9 kmh 29.87 in1011.5 mb 0.00 in0.0 mm 0.00 in0.0 mm 0.11 in2.8 mm
02:26 AM 28.9°F-1.7°C 16.0°F-8.9°C 58% 9.0 mph NW14.5 kmh NW 13.0 mph20.9 kmh 29.88 in1011.9 mb 0.00 in0.0 mm 0.00 in0.0 mm 0.11 in2.8 mm
02:27 AM 28.9°F-1.7°C 16.0°F-8.9°C 58% 11.0 mph W17.7 kmh W 13.0 mph20.9 kmh 29.87 in1011.5 mb 0.00 in0.0 mm 0.00 in0.0 mm 0.11 in2.8 mm
02:28 AM 28.9°F-1.7°C 16.4°F-8.7°C 59% 6.0 mph W9.7 kmh W 13.0 mph20.9 kmh 29.87 in1011.5 mb 0.00 in0.0 mm 0.00 in0.0 mm 0.11 in2.8 mm
02:29 AM 28.7°F-1.8°C 16.2°F-8.8°C 59% 6.0 mph W9.7 kmh W 13.0 mph20.9 kmh 29.87 in1011.5 mb 0.00 in0.0 mm 0.00 in0.0 mm 0.11 in2.8 mm
02:30 AM 28.7°F-1.8°C 16.6°F-8.6°C 60% 15.0 mph NNW24.1 kmh NNW 15.0 mph24.1 kmh 29.88 in1011.9 mb 0.00 in0.0 mm 0.00 in0.0 mm 0.11 in2.8 mm
02:31 AM 28.7°F-1.8°C 16.2°F-8.8°C 59% 9.0 mph WNW14.5 kmh WNW 15.0 mph24.1 kmh 29.88 in1011.9 mb 0.00 in0.0 mm 0.00 in0.0 mm 0.11 in2.8 mm
02:32 AM 28.7°F-1.8°C 16.2°F-8.8°C 59% 9.0 mph WNW14.5 kmh WNW 15.0 mph24.1 kmh 29.88 in1011.9 mb 0.00 in0.0 mm 0.00 in0.0 mm 0.11 in2.8 mm
02:33 AM 28.7°F-1.8°C 16.2°F-8.8°C 59% 11.0 mph NW17.7 kmh NW 15.0 mph24.1 kmh 29.88 in1011.9 mb 0.00 in0.0 mm 0.00 in0.0 mm 0.11 in2.8 mm
02:34 AM 28.7°F-1.8°C 16.2°F-8.8°C 59% 11.0 mph NW17.7 kmh NW 15.0 mph24.1 kmh 29.88 in1011.9 mb 0.00 in0.0 mm 0.00 in0.0 mm 0.11 in2.8 mm
02:35 AM 28.9°F-1.7°C 16.4°F-8.7°C 59% 7.0 mph NNW11.3 kmh NNW 15.0 mph24.1 kmh 29.88 in1011.9 mb 0.00 in0.0 mm 0.00 in0.0 mm 0.11 in2.8 mm
02:36 AM 28.9°F-1.7°C 16.4°F-8.7°C 59% 8.0 mph 12.9 kmh 15.0 mph24.1 kmh 29.88 in1011.9 mb 0.00 in0.0 mm 0.00 in0.0 mm 0.11 in2.8 mm
02:37 AM 28.9°F-1.7°C 16.0°F-8.9°C 58% 8.0 mph 12.9 kmh 15.0 mph24.1 kmh 29.88 in1011.9 mb 0.00 in0.0 mm 0.00 in0.0 mm 0.11 in2.8 mm
02:38 AM 28.9°F-1.7°C 16.0°F-8.9°C 58% 5.0 mph NW8.0 kmh NW 15.0 mph24.1 kmh 29.89 in1012.2 mb 0.00 in0.0 mm 0.00 in0.0 mm 0.11 in2.8 mm
02:39 AM 28.9°F-1.7°C 16.0°F-8.9°C 58% 5.0 mph NW8.0 kmh NW 15.0 mph24.1 kmh 29.88 in1011.9 mb 0.00 in0.0 mm 0.00 in0.0 mm 0.11 in2.8 mm
02:40 AM 28.9°F-1.7°C 16.4°F-8.7°C 59% 10.0 mph W16.1 kmh W 17.0 mph27.4 kmh 29.88 in1011.9 mb 0.00 in0.0 mm 0.00 in0.0 mm 0.11 in2.8 mm
02:41 AM 28.9°F-1.7°C 16.4°F-8.7°C 59% 9.0 mph W14.5 kmh W 17.0 mph27.4 kmh 29.88 in1011.9 mb 0.00 in0.0 mm 0.00 in0.0 mm 0.11 in2.8 mm
02:42 AM 28.9°F-1.7°C 16.4°F-8.7°C 59% 7.0 mph WNW11.3 kmh WNW 17.0 mph27.4 kmh 29.89 in1012.2 mb 0.00 in0.0 mm 0.00 in0.0 mm 0.11 in2.8 mm
02:43 AM 28.7°F-1.8°C 16.2°F-8.8°C 59% 9.0 mph NW14.5 kmh NW 17.0 mph27.4 kmh 29.88 in1011.9 mb 0.00 in0.0 mm 0.00 in0.0 mm 0.11 in2.8 mm
02:44 AM 28.7°F-1.8°C 16.2°F-8.8°C 59% 13.0 mph W20.9 kmh W 17.0 mph27.4 kmh 29.89 in1012.2 mb 0.00 in0.0 mm 0.00 in0.0 mm 0.11 in2.8 mm
02:45 AM 28.7°F-1.8°C 16.2°F-8.8°C 59% 9.0 mph NW14.5 kmh NW 17.0 mph27.4 kmh 29.89 in1012.2 mb 0.00 in0.0 mm 0.00 in0.0 mm 0.11 in2.8 mm
02:46 AM 28.7°F-1.8°C 16.2°F-8.8°C 59% 7.0 mph NW11.3 kmh NW 17.0 mph27.4 kmh 29.89 in1012.2 mb 0.00 in0.0 mm 0.00 in0.0 mm 0.11 in2.8 mm
02:47 AM 28.7°F-1.8°C 16.2°F-8.8°C 59% 9.0 mph WNW14.5 kmh WNW 17.0 mph27.4 kmh 29.89 in1012.2 mb 0.00 in0.0 mm 0.00 in0.0 mm 0.11 in2.8 mm
02:48 AM 28.7°F-1.8°C 16.2°F-8.8°C 59% 4.0 mph SW6.4 kmh SW 17.0 mph27.4 kmh 29.89 in1012.2 mb 0.00 in0.0 mm 0.00 in0.0 mm 0.11 in2.8 mm
02:49 AM 28.7°F-1.8°C 16.2°F-8.8°C 59% 6.0 mph 9.7 kmh 17.0 mph27.4 kmh 29.88 in1011.9 mb 0.00 in0.0 mm 0.00 in0.0 mm 0.11 in2.8 mm
02:50 AM 28.9°F-1.7°C 16.0°F-8.9°C 58% 6.0 mph W9.7 kmh W 13.0 mph20.9 kmh 29.89 in1012.2 mb 0.00 in0.0 mm 0.00 in0.0 mm 0.11 in2.8 mm
02:51 AM 28.9°F-1.7°C 16.4°F-8.7°C 59% 5.0 mph W8.0 kmh W 13.0 mph20.9 kmh 29.89 in1012.2 mb 0.00 in0.0 mm 0.00 in0.0 mm 0.11 in2.8 mm
02:52 AM 28.9°F-1.7°C 16.4°F-8.7°C 59% 3.0 mph WSW4.8 kmh WSW 13.0 mph20.9 kmh 29.89 in1012.2 mb 0.00 in0.0 mm 0.00 in0.0 mm 0.11 in2.8 mm
02:53 AM 28.9°F-1.7°C 16.4°F-8.7°C 59% 5.0 mph WNW8.0 kmh WNW 13.0 mph20.9 kmh 29.89 in1012.2 mb 0.00 in0.0 mm 0.00 in0.0 mm 0.11 in2.8 mm
02:54 AM 28.9°F-1.7°C 16.4°F-8.7°C 59% 6.0 mph WNW9.7 kmh WNW 13.0 mph20.9 kmh 29.89 in1012.2 mb 0.00 in0.0 mm 0.00 in0.0 mm 0.11 in2.8 mm
02:55 AM 28.7°F-1.8°C 16.2°F-8.8°C 59% 15.0 mph WNW24.1 kmh WNW 15.0 mph24.1 kmh 29.90 in1012.5 mb 0.00 in0.0 mm 0.00 in0.0 mm 0.11 in2.8 mm
02:56 AM 28.9°F-1.7°C 16.0°F-8.9°C 58% 8.0 mph NNW12.9 kmh NNW 15.0 mph24.1 kmh 29.89 in1012.2 mb 0.00 in0.0 mm 0.00 in0.0 mm 0.11 in2.8 mm
02:57 AM 28.9°F-1.7°C 16.0°F-8.9°C 58% 8.0 mph NNW12.9 kmh NNW 15.0 mph24.1 kmh 29.89 in1012.2 mb 0.00 in0.0 mm 0.00 in0.0 mm 0.11 in2.8 mm
02:58 AM 28.9°F-1.7°C 16.4°F-8.7°C 59% 17.0 mph W27.4 kmh W 17.0 mph27.4 kmh 29.89 in1012.2 mb 0.00 in0.0 mm 0.00 in0.0 mm 0.11 in2.8 mm
02:59 AM 28.9°F-1.7°C 16.4°F-8.7°C 59% 12.0 mph WNW19.3 kmh WNW 17.0 mph27.4 kmh 29.89 in1012.2 mb 0.00 in0.0 mm 0.00 in0.0 mm 0.11 in2.8 mm
03:00 AM 28.9°F-1.7°C 16.4°F-8.7°C 59% 7.0 mph WNW11.3 kmh WNW 17.0 mph27.4 kmh 29.89 in1012.2 mb 0.00 in0.0 mm 0.00 in0.0 mm 0.11 in2.8 mm
03:01 AM 28.9°F-1.7°C 16.4°F-8.7°C 59% 9.0 mph W14.5 kmh W 17.0 mph27.4 kmh 29.89 in1012.2 mb 0.00 in0.0 mm 0.00 in0.0 mm 0.11 in2.8 mm
03:02 AM 29.1°F-1.6°C 16.2°F-8.8°C 58% 13.0 mph 20.9 kmh 17.0 mph27.4 kmh 29.90 in1012.5 mb 0.00 in0.0 mm 0.00 in0.0 mm 0.11 in2.8 mm
03:03 AM 29.1°F-1.6°C 16.2°F-8.8°C 58% 10.0 mph NW16.1 kmh NW 17.0 mph27.4 kmh 29.90 in1012.5 mb 0.00 in0.0 mm 0.00 in0.0 mm 0.11 in2.8 mm
03:04 AM 29.1°F-1.6°C 16.2°F-8.8°C 58% 10.0 mph NW16.1 kmh NW 17.0 mph27.4 kmh 29.90 in1012.5 mb 0.00 in0.0 mm 0.00 in0.0 mm 0.11 in2.8 mm
03:05 AM 29.1°F-1.6°C 16.2°F-8.8°C 58% 8.0 mph NW12.9 kmh NW 17.0 mph27.4 kmh 29.90 in1012.5 mb 0.00 in0.0 mm 0.00 in0.0 mm 0.11 in2.8 mm
03:06 AM 29.1°F-1.6°C 15.4°F-9.2°C 56% 7.0 mph W11.3 kmh W 17.0 mph27.4 kmh 29.90 in1012.5 mb 0.00 in0.0 mm 0.00 in0.0 mm 0.11 in2.8 mm
03:07 AM 29.1°F-1.6°C 15.4°F-9.2°C 56% 8.0 mph W12.9 kmh W 17.0 mph27.4 kmh 29.90 in1012.5 mb 0.00 in0.0 mm 0.00 in0.0 mm 0.11 in2.8 mm
03:08 AM 29.2°F-1.6°C 15.5°F-9.2°C 56% 8.0 mph WNW12.9 kmh WNW 17.0 mph27.4 kmh 29.90 in1012.5 mb 0.00 in0.0 mm 0.00 in0.0 mm 0.11 in2.8 mm
03:09 AM 29.2°F-1.6°C 16.3°F-8.7°C 58% 8.0 mph WNW12.9 kmh WNW 17.0 mph27.4 kmh 29.90 in1012.5 mb 0.00 in0.0 mm 0.00 in0.0 mm 0.11 in2.8 mm
03:10 AM 29.2°F-1.6°C 15.5°F-9.2°C 56% 4.0 mph WNW6.4 kmh WNW 14.0 mph22.5 kmh 29.90 in1012.5 mb 0.00 in0.0 mm 0.00 in0.0 mm 0.11 in2.8 mm
03:11 AM 29.2°F-1.6°C 15.5°F-9.2°C 56% 10.0 mph WNW16.1 kmh WNW 14.0 mph22.5 kmh 29.90 in1012.5 mb 0.00 in0.0 mm 0.00 in0.0 mm 0.11 in2.8 mm
03:12 AM 29.2°F-1.6°C 15.5°F-9.2°C 56% 14.0 mph NE22.5 kmh NE 14.0 mph22.5 kmh 29.90 in1012.5 mb 0.00 in0.0 mm 0.00 in0.0 mm 0.11 in2.8 mm
03:13 AM 29.2°F-1.6°C 15.5°F-9.2°C 56% 7.0 mph NW11.3 kmh NW 14.0 mph22.5 kmh 29.90 in1012.5 mb 0.00 in0.0 mm 0.00 in0.0 mm 0.11 in2.8 mm
03:14 AM 29.2°F-1.6°C 15.5°F-9.2°C 56% 8.0 mph NE12.9 kmh NE 14.0 mph22.5 kmh 29.90 in1012.5 mb 0.00 in0.0 mm 0.00 in0.0 mm 0.11 in2.8 mm
03:15 AM 29.2°F-1.6°C 15.5°F-9.2°C 56% 9.0 mph SW14.5 kmh SW 14.0 mph22.5 kmh 29.89 in1012.2 mb 0.00 in0.0 mm 0.00 in0.0 mm 0.11 in2.8 mm
03:16 AM 29.2°F-1.6°C 15.5°F-9.2°C 56% 9.0 mph NNE14.5 kmh NNE 14.0 mph22.5 kmh 29.90 in1012.5 mb 0.00 in0.0 mm 0.00 in0.0 mm 0.11 in2.8 mm
03:17 AM 29.4°F-1.4°C 15.6°F-9.1°C 56% 12.0 mph WNW19.3 kmh WNW 14.0 mph22.5 kmh 29.90 in1012.5 mb 0.00 in0.0 mm 0.00 in0.0 mm 0.11 in2.8 mm
03:18 AM 29.4°F-1.4°C 15.6°F-9.1°C 56% 6.0 mph NW9.7 kmh NW 14.0 mph22.5 kmh 29.90 in1012.5 mb 0.00 in0.0 mm 0.00 in0.0 mm 0.11 in2.8 mm
03:19 AM 29.4°F-1.4°C 15.6°F-9.1°C 56% 11.0 mph WNW17.7 kmh WNW 14.0 mph22.5 kmh 29.90 in1012.5 mb 0.00 in0.0 mm 0.00 in0.0 mm 0.11 in2.8 mm
03:20 AM 29.4°F-1.4°C 15.6°F-9.1°C 56% 11.0 mph WNW17.7 kmh WNW 14.0 mph22.5 kmh 29.91 in1012.9 mb 0.00 in0.0 mm 0.00 in0.0 mm 0.11 in2.8 mm
03:21 AM 29.4°F-1.4°C 15.6°F-9.1°C 56% 7.0 mph 11.3 kmh 14.0 mph22.5 kmh 29.91 in1012.9 mb 0.00 in0.0 mm 0.00 in0.0 mm 0.11 in2.8 mm
03:22 AM 29.4°F-1.4°C 15.6°F-9.1°C 56% 4.0 mph 6.4 kmh 14.0 mph22.5 kmh 29.90 in1012.5 mb 0.00 in0.0 mm 0.00 in0.0 mm 0.11 in2.8 mm
03:23 AM 29.2°F-1.6°C 15.5°F-9.2°C 56% 10.0 mph NW16.1 kmh NW 12.0 mph19.3 kmh 29.90 in1012.5 mb 0.00 in0.0 mm 0.00 in0.0 mm 0.11 in2.8 mm
03:24 AM 29.2°F-1.6°C 15.5°F-9.2°C 56% 4.0 mph NW6.4 kmh NW 12.0 mph19.3 kmh 29.90 in1012.5 mb 0.00 in0.0 mm 0.00 in0.0 mm 0.11 in2.8 mm
03:25 AM 29.2°F-1.6°C 15.5°F-9.2°C 56% 6.0 mph W9.7 kmh W 13.0 mph20.9 kmh 29.90 in1012.5 mb 0.00 in0.0 mm 0.00 in0.0 mm 0.11 in2.8 mm
03:26 AM 29.4°F-1.4°C 15.6°F-9.1°C 56% 8.0 mph W12.9 kmh W 13.0 mph20.9 kmh 29.90 in1012.5 mb 0.00 in0.0 mm 0.00 in0.0 mm 0.11 in2.8 mm
03:27 AM 29.4°F-1.4°C 15.6°F-9.1°C 56% 5.0 mph W8.0 kmh W 13.0 mph20.9 kmh 29.90 in1012.5 mb 0.00 in0.0 mm 0.00 in0.0 mm 0.11 in2.8 mm
03:28 AM 29.4°F-1.4°C 15.6°F-9.1°C 56% 6.0 mph 9.7 kmh 13.0 mph20.9 kmh 29.90 in1012.5 mb 0.00 in0.0 mm 0.00 in0.0 mm 0.11 in2.8 mm
03:29 AM 29.2°F-1.6°C 15.5°F-9.2°C 56% 11.0 mph NNW17.7 kmh NNW 13.0 mph20.9 kmh 29.91 in1012.9 mb 0.00 in0.0 mm 0.00 in0.0 mm 0.11 in2.8 mm
03:30 AM 29.2°F-1.6°C 15.5°F-9.2°C 56% 11.0 mph NNW17.7 kmh NNW 13.0 mph20.9 kmh 29.91 in1012.9 mb 0.00 in0.0 mm 0.00 in0.0 mm 0.11 in2.8 mm
03:31 AM 29.2°F-1.6°C 15.5°F-9.2°C 56% 8.0 mph WNW12.9 kmh WNW 13.0 mph20.9 kmh 29.91 in1012.9 mb 0.00 in0.0 mm 0.00 in0.0 mm 0.11 in2.8 mm
03:32 AM 29.2°F-1.6°C 15.5°F-9.2°C 56% 6.0 mph NNW9.7 kmh NNW 13.0 mph20.9 kmh 29.91 in1012.9 mb 0.00 in0.0 mm 0.00 in0.0 mm 0.11 in2.8 mm
03:33 AM 29.2°F-1.6°C 15.5°F-9.2°C 56% 9.0 mph NNW14.5 kmh NNW 13.0 mph20.9 kmh 29.91 in1012.9 mb 0.00 in0.0 mm 0.00 in0.0 mm 0.11 in2.8 mm
03:34 AM 29.2°F-1.6°C 15.5°F-9.2°C 56% 20.0 mph NNW32.2 kmh NNW 20.0 mph32.2 kmh 29.91 in1012.9 mb 0.00 in0.0 mm 0.00 in0.0 mm 0.11 in2.8 mm
03:35 AM 29.2°F-1.6°C 15.5°F-9.2°C 56% 7.0 mph NNW11.3 kmh NNW 20.0 mph32.2 kmh 29.91 in1012.9 mb 0.00 in0.0 mm 0.00 in0.0 mm 0.11 in2.8 mm
03:36 AM 29.2°F-1.6°C 15.5°F-9.2°C 56% 8.0 mph NNE12.9 kmh NNE 20.0 mph32.2 kmh 29.91 in1012.9 mb 0.00 in0.0 mm 0.00 in0.0 mm 0.11 in2.8 mm
03:37 AM 29.2°F-1.6°C 15.5°F-9.2°C 56% 9.0 mph NNW14.5 kmh NNW 20.0 mph32.2 kmh 29.91 in1012.9 mb 0.00 in0.0 mm 0.00 in0.0 mm 0.11 in2.8 mm
03:38 AM 29.2°F-1.6°C 15.5°F-9.2°C 56% 12.0 mph NNE19.3 kmh NNE 20.0 mph32.2 kmh 29.91 in1012.9 mb 0.00 in0.0 mm 0.00 in0.0 mm 0.11 in2.8 mm
03:39 AM 29.2°F-1.6°C 15.5°F-9.2°C 56% 6.0 mph 9.7 kmh 20.0 mph32.2 kmh 29.91 in1012.9 mb 0.00 in0.0 mm 0.00 in0.0 mm 0.11 in2.8 mm
03:40 AM 29.2°F-1.6°C 15.5°F-9.2°C 56% 19.0 mph WNW30.6 kmh WNW 20.0 mph32.2 kmh 29.91 in1012.9 mb 0.00 in0.0 mm 0.00 in0.0 mm 0.11 in2.8 mm
03:41 AM 29.2°F-1.6°C 15.5°F-9.2°C 56% 12.0 mph WNW19.3 kmh WNW 20.0 mph32.2 kmh 29.91 in1012.9 mb 0.00 in0.0 mm 0.00 in0.0 mm 0.11 in2.8 mm
03:42 AM 29.2°F-1.6°C 15.5°F-9.2°C 56% 12.0 mph WNW19.3 kmh WNW 20.0 mph32.2 kmh 29.91 in1012.9 mb 0.00 in0.0 mm 0.00 in0.0 mm 0.11 in2.8 mm
03:43 AM 29.2°F-1.6°C 15.5°F-9.2°C 56% 13.0 mph WNW20.9 kmh WNW 20.0 mph32.2 kmh 29.91 in1012.9 mb 0.00 in0.0 mm 0.00 in0.0 mm 0.11 in2.8 mm
03:44 AM 29.2°F-1.6°C 15.5°F-9.2°C 56% 8.0 mph NNW12.9 kmh NNW 20.0 mph32.2 kmh 29.91 in1012.9 mb 0.00 in0.0 mm 0.00 in0.0 mm 0.11 in2.8 mm
03:45 AM 29.2°F-1.6°C 15.5°F-9.2°C 56% 8.0 mph NNW12.9 kmh NNW 19.0 mph30.6 kmh 29.91 in1012.9 mb 0.00 in0.0 mm 0.00 in0.0 mm 0.11 in2.8 mm
03:46 AM 29.2°F-1.6°C 15.5°F-9.2°C 56% 10.0 mph WNW16.1 kmh WNW 19.0 mph30.6 kmh 29.91 in1012.9 mb 0.00 in0.0 mm 0.00 in0.0 mm 0.11 in2.8 mm
03:47 AM 29.2°F-1.6°C 15.0°F-9.4°C 55% 5.0 mph WNW8.0 kmh WNW 19.0 mph30.6 kmh 29.91 in1012.9 mb 0.00 in0.0 mm 0.00 in0.0 mm 0.11 in2.8 mm
03:48 AM 29.2°F-1.6°C 15.0°F-9.4°C 55% 8.0 mph ENE12.9 kmh ENE 19.0 mph30.6 kmh 29.91 in1012.9 mb 0.00 in0.0 mm 0.00 in0.0 mm 0.11 in2.8 mm
03:49 AM 29.4°F-1.4°C 15.2°F-9.3°C 55% 8.0 mph NNE12.9 kmh NNE 19.0 mph30.6 kmh 29.91 in1012.9 mb 0.00 in0.0 mm 0.00 in0.0 mm 0.11 in2.8 mm
03:50 AM 29.4°F-1.4°C 15.2°F-9.3°C 55% 6.0 mph NNE9.7 kmh NNE 19.0 mph30.6 kmh 29.91 in1012.9 mb 0.00 in0.0 mm 0.00 in0.0 mm 0.11 in2.8 mm
03:51 AM 29.4°F-1.4°C 15.2°F-9.3°C 55% 9.0 mph NNE14.5 kmh NNE 13.0 mph20.9 kmh 29.91 in1012.9 mb 0.00 in0.0 mm 0.00 in0.0 mm 0.11 in2.8 mm
03:52 AM 29.4°F-1.4°C 15.2°F-9.3°C 55% 10.0 mph WNW16.1 kmh WNW 13.0 mph20.9 kmh 29.91 in1012.9 mb 0.00 in0.0 mm 0.00 in0.0 mm 0.11 in2.8 mm
03:53 AM 29.4°F-1.4°C 15.2°F-9.3°C 55% 11.0 mph WNW17.7 kmh WNW 11.0 mph17.7 kmh 29.91 in1012.9 mb 0.00 in0.0 mm 0.00 in0.0 mm 0.11 in2.8 mm
03:54 AM 29.4°F-1.4°C 15.2°F-9.3°C 55% 10.0 mph NNW16.1 kmh NNW 11.0 mph17.7 kmh 29.91 in1012.9 mb 0.00 in0.0 mm 0.00 in0.0 mm 0.11 in2.8 mm
03:55 AM 29.4°F-1.4°C 15.2°F-9.3°C 55% 12.0 mph NNW19.3 kmh NNW 12.0 mph19.3 kmh 29.91 in1012.9 mb 0.00 in0.0 mm 0.00 in0.0 mm 0.11 in2.8 mm
03:56 AM 29.4°F-1.4°C 15.2°F-9.3°C 55% 12.0 mph NNW19.3 kmh NNW 12.0 mph19.3 kmh 29.91 in1012.9 mb 0.00 in0.0 mm 0.00 in0.0 mm 0.11 in2.8 mm
03:57 AM 29.6°F-1.3°C 15.4°F-9.2°C 55% 4.0 mph 6.4 kmh 12.0 mph19.3 kmh 29.92 in1013.2 mb 0.00 in0.0 mm 0.00 in0.0 mm 0.11 in2.8 mm
03:58 AM 29.6°F-1.3°C 15.4°F-9.2°C 55% 3.0 mph NNW4.8 kmh NNW 12.0 mph19.3 kmh 29.92 in1013.2 mb 0.00 in0.0 mm 0.00 in0.0 mm 0.11 in2.8 mm
03:59 AM 29.6°F-1.3°C 15.4°F-9.2°C 55% 9.0 mph NNW14.5 kmh NNW 12.0 mph19.3 kmh 29.92 in1013.2 mb 0.00 in0.0 mm 0.00 in0.0 mm 0.11 in2.8 mm
04:00 AM 29.6°F-1.3°C 15.4°F-9.2°C 55% 5.0 mph NNW8.0 kmh NNW 12.0 mph19.3 kmh 29.92 in1013.2 mb 0.00 in0.0 mm 0.00 in0.0 mm 0.11 in2.8 mm
04:01 AM 29.6°F-1.3°C 15.4°F-9.2°C 55% 5.0 mph NNW8.0 kmh NNW 12.0 mph19.3 kmh 29.92 in1013.2 mb 0.00 in0.0 mm 0.00 in0.0 mm 0.11 in2.8 mm
04:02 AM 29.6°F-1.3°C 15.4°F-9.2°C 55% 4.0 mph NNW6.4 kmh NNW 12.0 mph19.3 kmh 29.92 in1013.2 mb 0.00 in0.0 mm 0.00 in0.0 mm 0.11 in2.8 mm
04:03 AM 29.6°F-1.3°C 15.4°F-9.2°C 55% 4.0 mph NW6.4 kmh NW 12.0 mph19.3 kmh 29.92 in1013.2 mb 0.00 in0.0 mm 0.00 in0.0 mm 0.11 in2.8 mm
04:04 AM 29.6°F-1.3°C 15.4°F-9.2°C 55% 7.0 mph W11.3 kmh W 12.0 mph19.3 kmh 29.92 in1013.2 mb 0.00 in0.0 mm 0.00 in0.0 mm 0.11 in2.8 mm
04:05 AM 29.6°F-1.3°C 15.4°F-9.2°C 55% 8.0 mph NNW12.9 kmh NNW 9.0 mph14.5 kmh 29.92 in1013.2 mb 0.00 in0.0 mm 0.00 in0.0 mm 0.11 in2.8 mm
04:06 AM 29.8°F-1.2°C 15.6°F-9.1°C 55% 8.0 mph NW12.9 kmh NW 9.0 mph14.5 kmh 29.92 in1013.2 mb 0.00 in0.0 mm 0.00 in0.0 mm 0.11 in2.8 mm
04:07 AM 29.8°F-1.2°C 15.6°F-9.1°C 55% 5.0 mph W8.0 kmh W 10.0 mph16.1 kmh 29.92 in1013.2 mb 0.00 in0.0 mm 0.00 in0.0 mm 0.11 in2.8 mm
04:08 AM 29.8°F-1.2°C 15.6°F-9.1°C 55% 12.0 mph WNW19.3 kmh WNW 12.0 mph19.3 kmh 29.92 in1013.2 mb 0.00 in0.0 mm 0.00 in0.0 mm 0.11 in2.8 mm
04:09 AM 29.8°F-1.2°C 15.6°F-9.1°C 55% 4.0 mph W6.4 kmh W 12.0 mph19.3 kmh 29.92 in1013.2 mb 0.00 in0.0 mm 0.00 in0.0 mm 0.11 in2.8 mm
04:10 AM 29.8°F-1.2°C 15.6°F-9.1°C 55% 10.0 mph WNW16.1 kmh WNW 12.0 mph19.3 kmh 29.93 in1013.5 mb 0.00 in0.0 mm 0.00 in0.0 mm 0.11 in2.8 mm
04:11 AM 29.8°F-1.2°C 15.6°F-9.1°C 55% 16.0 mph W25.7 kmh W 16.0 mph25.7 kmh 29.93 in1013.5 mb 0.00 in0.0 mm 0.00 in0.0 mm 0.11 in2.8 mm
04:12 AM 29.8°F-1.2°C 15.2°F-9.3°C 54% 6.0 mph NW9.7 kmh NW 16.0 mph25.7 kmh 29.92 in1013.2 mb 0.00 in0.0 mm 0.00 in0.0 mm 0.11 in2.8 mm
04:13 AM 29.8°F-1.2°C 15.6°F-9.1°C 55% 10.0 mph NW16.1 kmh NW 16.0 mph25.7 kmh 29.92 in1013.2 mb 0.00 in0.0 mm 0.00 in0.0 mm 0.11 in2.8 mm
04:14 AM 29.8°F-1.2°C 15.2°F-9.3°C 54% 4.0 mph NNW6.4 kmh NNW 16.0 mph25.7 kmh 29.92 in1013.2 mb 0.00 in0.0 mm 0.00 in0.0 mm 0.11 in2.8 mm
04:15 AM 29.8°F-1.2°C 15.2°F-9.3°C 54% 4.0 mph NNE6.4 kmh NNE 16.0 mph25.7 kmh 29.93 in1013.5 mb 0.00 in0.0 mm 0.00 in0.0 mm 0.11 in2.8 mm
04:16 AM 29.8°F-1.2°C 15.6°F-9.1°C 55% 8.0 mph W12.9 kmh W 16.0 mph25.7 kmh 29.93 in1013.5 mb 0.00 in0.0 mm 0.00 in0.0 mm 0.11 in2.8 mm
04:17 AM 29.8°F-1.2°C 15.6°F-9.1°C 55% 13.0 mph NW20.9 kmh NW 16.0 mph25.7 kmh 29.92 in1013.2 mb 0.00 in0.0 mm 0.00 in0.0 mm 0.11 in2.8 mm
04:18 AM 29.8°F-1.2°C 15.6°F-9.1°C 55% 12.0 mph WNW19.3 kmh WNW 16.0 mph25.7 kmh 29.93 in1013.5 mb 0.00 in0.0 mm 0.00 in0.0 mm 0.11 in2.8 mm
04:19 AM 29.8°F-1.2°C 15.6°F-9.1°C 55% 4.0 mph WNW6.4 kmh WNW 16.0 mph25.7 kmh 29.93 in1013.5 mb 0.00 in0.0 mm 0.00 in0.0 mm 0.11 in2.8 mm
04:20 AM 29.6°F-1.3°C 15.4°F-9.2°C 55% 4.0 mph NW6.4 kmh NW 16.0 mph25.7 kmh 29.93 in1013.5 mb 0.00 in0.0 mm 0.00 in0.0 mm 0.11 in2.8 mm
04:21 AM 29.6°F-1.3°C 15.4°F-9.2°C 55% 13.0 mph WNW20.9 kmh WNW 16.0 mph25.7 kmh 29.93 in1013.5 mb 0.00 in0.0 mm 0.00 in0.0 mm 0.11 in2.8 mm
04:22 AM 29.8°F-1.2°C 15.2°F-9.3°C 54% 6.0 mph NW9.7 kmh NW 13.0 mph20.9 kmh 29.93 in1013.5 mb 0.00 in0.0 mm 0.00 in0.0 mm 0.11 in2.8 mm
04:23 AM 29.8°F-1.2°C 15.2°F-9.3°C 54% 7.0 mph WSW11.3 kmh WSW 13.0 mph20.9 kmh 29.93 in1013.5 mb 0.00 in0.0 mm 0.00 in0.0 mm 0.11 in2.8 mm
04:24 AM 29.8°F-1.2°C 15.2°F-9.3°C 54% 6.0 mph WSW9.7 kmh WSW 13.0 mph20.9 kmh 29.94 in1013.9 mb 0.00 in0.0 mm 0.00 in0.0 mm 0.11 in2.8 mm
04:25 AM 29.8°F-1.2°C 15.2°F-9.3°C 54% 7.0 mph WNW11.3 kmh WNW 13.0 mph20.9 kmh 29.93 in1013.5 mb 0.00 in0.0 mm 0.00 in0.0 mm 0.11 in2.8 mm
04:26 AM 30.0°F-1.1°C 15.3°F-9.3°C 54% 15.0 mph NW24.1 kmh NW 15.0 mph24.1 kmh 29.93 in1013.5 mb 0.00 in0.0 mm 0.00 in0.0 mm 0.11 in2.8 mm
04:27 AM 30.0°F-1.1°C 15.3°F-9.3°C 54% 5.0 mph SW8.0 kmh SW 15.0 mph24.1 kmh 29.94 in1013.9 mb 0.00 in0.0 mm 0.00 in0.0 mm 0.11 in2.8 mm
04:28 AM 30.0°F-1.1°C 14.9°F-9.5°C 53% 9.0 mph SW14.5 kmh SW 15.0 mph24.1 kmh 29.94 in1013.9 mb 0.00 in0.0 mm 0.00 in0.0 mm 0.11 in2.8 mm
04:29 AM 30.0°F-1.1°C 14.9°F-9.5°C 53% 12.0 mph NNE19.3 kmh NNE 15.0 mph24.1 kmh 29.94 in1013.9 mb 0.00 in0.0 mm 0.00 in0.0 mm 0.11 in2.8 mm
04:30 AM 30.0°F-1.1°C 14.9°F-9.5°C 53% 9.0 mph NNW14.5 kmh NNW 15.0 mph24.1 kmh 29.94 in1013.9 mb 0.00 in0.0 mm 0.00 in0.0 mm 0.11 in2.8 mm
04:31 AM 30.0°F-1.1°C 14.9°F-9.5°C 53% 9.0 mph NE14.5 kmh NE 15.0 mph24.1 kmh 29.94 in1013.9 mb 0.00 in0.0 mm 0.00 in0.0 mm 0.11 in2.8 mm
04:32 AM 30.0°F-1.1°C 15.3°F-9.3°C 54% 8.0 mph NW12.9 kmh NW 15.0 mph24.1 kmh 29.94 in1013.9 mb 0.00 in0.0 mm 0.00 in0.0 mm 0.11 in2.8 mm
04:33 AM 30.0°F-1.1°C 15.3°F-9.3°C 54% 8.0 mph WNW12.9 kmh WNW 15.0 mph24.1 kmh 29.94 in1013.9 mb 0.00 in0.0 mm 0.00 in0.0 mm 0.11 in2.8 mm
04:34 AM 30.0°F-1.1°C 14.9°F-9.5°C 53% 16.0 mph W25.7 kmh W 16.0 mph25.7 kmh 29.95 in1014.2 mb 0.00 in0.0 mm 0.00 in0.0 mm 0.11 in2.8 mm
04:35 AM 30.0°F-1.1°C 14.9°F-9.5°C 53% 10.0 mph NNE16.1 kmh NNE 16.0 mph25.7 kmh 29.95 in1014.2 mb 0.00 in0.0 mm 0.00 in0.0 mm 0.11 in2.8 mm
04:36 AM 30.0°F-1.1°C 15.3°F-9.3°C 54% 6.0 mph W9.7 kmh W 16.0 mph25.7 kmh 29.95 in1014.2 mb 0.00 in0.0 mm 0.00 in0.0 mm 0.11 in2.8 mm
04:37 AM 30.0°F-1.1°C 15.3°F-9.3°C 54% 10.0 mph SSE16.1 kmh SSE 16.0 mph25.7 kmh 29.94 in1013.9 mb 0.00 in0.0 mm 0.00 in0.0 mm 0.11 in2.8 mm
04:38 AM 29.8°F-1.2°C 15.2°F-9.3°C 54% 6.0 mph WNW9.7 kmh WNW 16.0 mph25.7 kmh 29.94 in1013.9 mb 0.00 in0.0 mm 0.00 in0.0 mm 0.11 in2.8 mm
04:39 AM 29.8°F-1.2°C 15.2°F-9.3°C 54% 12.0 mph NW19.3 kmh NW 16.0 mph25.7 kmh 29.94 in1013.9 mb 0.00 in0.0 mm 0.00 in0.0 mm 0.11 in2.8 mm
04:40 AM 29.8°F-1.2°C 15.2°F-9.3°C 54% 12.0 mph NW19.3 kmh NW 16.0 mph25.7 kmh 29.95 in1014.2 mb 0.00 in0.0 mm 0.00 in0.0 mm 0.11 in2.8 mm
04:41 AM 29.8°F-1.2°C 15.2°F-9.3°C 54% 12.0 mph NW19.3 kmh NW 16.0 mph25.7 kmh 29.95 in1014.2 mb 0.00 in0.0 mm 0.00 in0.0 mm 0.11 in2.8 mm
04:42 AM 29.8°F-1.2°C 15.2°F-9.3°C 54% 5.0 mph NW8.0 kmh NW 16.0 mph25.7 kmh 29.95 in1014.2 mb 0.00 in0.0 mm 0.00 in0.0 mm 0.11 in2.8 mm
04:43 AM 29.6°F-1.3°C 15.0°F-9.4°C 54% 8.0 mph NNW12.9 kmh NNW 16.0 mph25.7 kmh 29.96 in1014.6 mb 0.00 in0.0 mm 0.00 in0.0 mm 0.11 in2.8 mm
04:44 AM 29.6°F-1.3°C 15.0°F-9.4°C 54% 10.0 mph NNW16.1 kmh NNW 16.0 mph25.7 kmh 29.95 in1014.2 mb 0.00 in0.0 mm 0.00 in0.0 mm 0.11 in2.8 mm
04:45 AM 29.6°F-1.3°C 15.0°F-9.4°C 54% 12.0 mph W19.3 kmh W 14.0 mph22.5 kmh 29.95 in1014.2 mb 0.00 in0.0 mm 0.00 in0.0 mm 0.11 in2.8 mm
04:46 AM 29.6°F-1.3°C 15.0°F-9.4°C 54% 10.0 mph NNE16.1 kmh NNE 14.0 mph22.5 kmh 29.95 in1014.2 mb 0.00 in0.0 mm 0.00 in0.0 mm 0.11 in2.8 mm
04:47 AM 29.8°F-1.2°C 14.7°F-9.6°C 53% 6.0 mph NNE9.7 kmh NNE 14.0 mph22.5 kmh 29.95 in1014.2 mb 0.00 in0.0 mm 0.00 in0.0 mm 0.11 in2.8 mm
04:48 AM 29.8°F-1.2°C 15.2°F-9.3°C 54% 10.0 mph NNW16.1 kmh NNW 12.0 mph19.3 kmh 29.95 in1014.2 mb 0.00 in0.0 mm 0.00 in0.0 mm 0.11 in2.8 mm
04:49 AM 29.6°F-1.3°C 15.0°F-9.4°C 54% 10.0 mph NNE16.1 kmh NNE 12.0 mph19.3 kmh 29.96 in1014.6 mb 0.00 in0.0 mm 0.00 in0.0 mm 0.11 in2.8 mm
04:50 AM 29.6°F-1.3°C 15.0°F-9.4°C 54% 6.0 mph NNW9.7 kmh NNW 12.0 mph19.3 kmh 29.95 in1014.2 mb 0.00 in0.0 mm 0.00 in0.0 mm 0.11 in2.8 mm
04:51 AM 29.6°F-1.3°C 15.0°F-9.4°C 54% 6.0 mph NNW9.7 kmh NNW 12.0 mph19.3 kmh 29.96 in1014.6 mb 0.00 in0.0 mm 0.00 in0.0 mm 0.11 in2.8 mm
04:52 AM 29.8°F-1.2°C 14.7°F-9.6°C 53% 7.0 mph NNW11.3 kmh NNW 12.0 mph19.3 kmh 29.96 in1014.6 mb 0.00 in0.0 mm 0.00 in0.0 mm 0.11 in2.8 mm
04:53 AM 29.8°F-1.2°C 14.7°F-9.6°C 53% 9.0 mph WNW14.5 kmh WNW 12.0 mph19.3 kmh 29.96 in1014.6 mb 0.00 in0.0 mm 0.00 in0.0 mm 0.11 in2.8 mm
04:54 AM 29.8°F-1.2°C 14.7°F-9.6°C 53% 11.0 mph WNW17.7 kmh WNW 12.0 mph19.3 kmh 29.96 in1014.6 mb 0.00 in0.0 mm 0.00 in0.0 mm 0.11 in2.8 mm
04:55 AM 29.8°F-1.2°C 14.7°F-9.6°C 53% 13.0 mph NW20.9 kmh NW 13.0 mph20.9 kmh 29.96 in1014.6 mb 0.00 in0.0 mm 0.00 in0.0 mm 0.11 in2.8 mm
04:56 AM 29.8°F-1.2°C 14.7°F-9.6°C 53% 13.0 mph NW20.9 kmh NW 13.0 mph20.9 kmh 29.96 in1014.6 mb 0.00 in0.0 mm 0.00 in0.0 mm 0.11 in2.8 mm
04:57 AM 29.8°F-1.2°C 14.7°F-9.6°C 53% 13.0 mph NW20.9 kmh NW 13.0 mph20.9 kmh 29.96 in1014.6 mb 0.00 in0.0 mm 0.00 in0.0 mm 0.11 in2.8 mm
04:58 AM 29.8°F-1.2°C 14.7°F-9.6°C 53% 11.0 mph WNW17.7 kmh WNW 13.0 mph20.9 kmh 29.97 in1014.9 mb 0.00 in0.0 mm 0.00 in0.0 mm 0.11 in2.8 mm
04:59 AM 29.8°F-1.2°C 14.7°F-9.6°C 53% 5.0 mph NNW8.0 kmh NNW 13.0 mph20.9 kmh 29.97 in1014.9 mb 0.00 in0.0 mm 0.00 in0.0 mm 0.11 in2.8 mm
05:00 AM 29.8°F-1.2°C 14.7°F-9.6°C 53% 10.0 mph NW16.1 kmh NW 13.0 mph20.9 kmh 29.96 in1014.6 mb 0.00 in0.0 mm 0.00 in0.0 mm 0.11 in2.8 mm
05:01 AM 29.8°F-1.2°C 14.7°F-9.6°C 53% 11.0 mph W17.7 kmh W 13.0 mph20.9 kmh 29.96 in1014.6 mb 0.00 in0.0 mm 0.00 in0.0 mm 0.11 in2.8 mm
05:02 AM 29.8°F-1.2°C 14.7°F-9.6°C 53% 11.0 mph W17.7 kmh W 13.0 mph20.9 kmh 29.96 in1014.6 mb 0.00 in0.0 mm 0.00 in0.0 mm 0.11 in2.8 mm
05:03 AM 29.8°F-1.2°C 14.7°F-9.6°C 53% 5.0 mph WNW8.0 kmh WNW 13.0 mph20.9 kmh 29.96 in1014.6 mb 0.00 in0.0 mm 0.00 in0.0 mm 0.11 in2.8 mm
05:04 AM 29.8°F-1.2°C 14.7°F-9.6°C 53% 4.0 mph NNE6.4 kmh NNE 13.0 mph20.9 kmh 29.97 in1014.9 mb 0.00 in0.0 mm 0.00 in0.0 mm 0.11 in2.8 mm
05:05 AM 29.8°F-1.2°C 14.7°F-9.6°C 53% 10.0 mph WNW16.1 kmh WNW 11.0 mph17.7 kmh 29.96 in1014.6 mb 0.00 in0.0 mm 0.00 in0.0 mm 0.11 in2.8 mm
05:06 AM 29.8°F-1.2°C 14.7°F-9.6°C 53% 6.0 mph NW9.7 kmh NW 11.0 mph17.7 kmh 29.96 in1014.6 mb 0.00 in0.0 mm 0.00 in0.0 mm 0.11 in2.8 mm
05:07 AM 29.8°F-1.2°C 14.7°F-9.6°C 53% 10.0 mph NW16.1 kmh NW 11.0 mph17.7 kmh 29.96 in1014.6 mb 0.00 in0.0 mm 0.00 in0.0 mm 0.11 in2.8 mm
05:08 AM 29.8°F-1.2°C 14.7°F-9.6°C 53% 5.0 mph NNE8.0 kmh NNE 11.0 mph17.7 kmh 29.96 in1014.6 mb 0.00 in0.0 mm 0.00 in0.0 mm 0.11 in2.8 mm
05:09 AM 29.8°F-1.2°C 14.7°F-9.6°C 53% 5.0 mph NNE8.0 kmh NNE 11.0 mph17.7 kmh 29.97 in1014.9 mb 0.00 in0.0 mm 0.00 in0.0 mm 0.11 in2.8 mm
05:10 AM 29.8°F-1.2°C 14.7°F-9.6°C 53% 5.0 mph NE8.0 kmh NE 11.0 mph17.7 kmh 29.97 in1014.9 mb 0.00 in0.0 mm 0.00 in0.0 mm 0.11 in2.8 mm
05:11 AM 29.8°F-1.2°C 14.7°F-9.6°C 53% 7.0 mph NW11.3 kmh NW 11.0 mph17.7 kmh 29.97 in1014.9 mb 0.00 in0.0 mm 0.00 in0.0 mm 0.11 in2.8 mm
05:12 AM 29.8°F-1.2°C 14.7°F-9.6°C 53% 7.0 mph NW11.3 kmh NW 10.0 mph16.1 kmh 29.97 in1014.9 mb 0.00 in0.0 mm 0.00 in0.0 mm 0.11 in2.8 mm
05:13 AM 29.8°F-1.2°C 14.7°F-9.6°C 53% 8.0 mph WNW12.9 kmh WNW 10.0 mph16.1 kmh 29.97 in1014.9 mb 0.00 in0.0 mm 0.00 in0.0 mm 0.11 in2.8 mm
05:14 AM 29.8°F-1.2°C 14.7°F-9.6°C 53% 8.0 mph WNW12.9 kmh WNW 10.0 mph16.1 kmh 29.96 in1014.6 mb 0.00 in0.0 mm 0.00 in0.0 mm 0.11 in2.8 mm
05:15 AM 29.8°F-1.2°C 13.8°F-10.1°C 51% 8.0 mph WNW12.9 kmh WNW 10.0 mph16.1 kmh 29.96 in1014.6 mb 0.00 in0.0 mm 0.00 in0.0 mm 0.11 in2.8 mm
05:16 AM 29.8°F-1.2°C 14.7°F-9.6°C 53% 8.0 mph WNW12.9 kmh WNW 10.0 mph16.1 kmh 29.97 in1014.9 mb 0.00 in0.0 mm 0.00 in0.0 mm 0.11 in2.8 mm
05:17 AM 29.8°F-1.2°C 14.7°F-9.6°C 53% 7.0 mph NW11.3 kmh NW 10.0 mph16.1 kmh 29.97 in1014.9 mb 0.00 in0.0 mm 0.00 in0.0 mm 0.11 in2.8 mm
05:18 AM 29.8°F-1.2°C 14.7°F-9.6°C 53% 7.0 mph NW11.3 kmh NW 15.0 mph24.1 kmh 29.97 in1014.9 mb 0.00 in0.0 mm 0.00 in0.0 mm 0.11 in2.8 mm
05:19 AM 29.8°F-1.2°C 14.7°F-9.6°C 53% 3.0 mph NW4.8 kmh NW 15.0 mph24.1 kmh 29.97 in1014.9 mb 0.00 in0.0 mm 0.00 in0.0 mm 0.11 in2.8 mm
05:20 AM 29.8°F-1.2°C 14.7°F-9.6°C 53% 3.0 mph NW4.8 kmh NW 15.0 mph24.1 kmh 29.97 in1014.9 mb 0.00 in0.0 mm 0.00 in0.0 mm 0.11 in2.8 mm
05:21 AM 29.6°F-1.3°C 14.5°F-9.7°C 53% 6.0 mph NW9.7 kmh NW 15.0 mph24.1 kmh 29.97 in1014.9 mb 0.00 in0.0 mm 0.00 in0.0 mm 0.11 in2.8 mm
05:22 AM 29.6°F-1.3°C 14.5°F-9.7°C 53% 6.0 mph NW9.7 kmh NW 15.0 mph24.1 kmh 29.97 in1014.9 mb 0.00 in0.0 mm 0.00 in0.0 mm 0.11 in2.8 mm
05:23 AM 29.6°F-1.3°C 14.5°F-9.7°C 53% 6.0 mph NW9.7 kmh NW 15.0 mph24.1 kmh 29.97 in1014.9 mb 0.00 in0.0 mm 0.00 in0.0 mm 0.11 in2.8 mm
05:24 AM 29.6°F-1.3°C 14.5°F-9.7°C 53% 7.0 mph 11.3 kmh 15.0 mph24.1 kmh 29.98 in1015.2 mb 0.00 in0.0 mm 0.00 in0.0 mm 0.11 in2.8 mm
05:25 AM 29.8°F-1.2°C 14.7°F-9.6°C 53% 11.0 mph 17.7 kmh 15.0 mph24.1 kmh 29.98 in1015.2 mb 0.00 in0.0 mm 0.00 in0.0 mm 0.11 in2.8 mm
05:26 AM 29.8°F-1.2°C 13.8°F-10.1°C 51% 11.0 mph NNE17.7 kmh NNE 15.0 mph24.1 kmh 29.97 in1014.9 mb 0.00 in0.0 mm 0.00 in0.0 mm 0.11 in2.8 mm
05:27 AM 29.8°F-1.2°C 13.8°F-10.1°C 51% 9.0 mph NNW14.5 kmh NNW 15.0 mph24.1 kmh 29.97 in1014.9 mb 0.00 in0.0 mm 0.00 in0.0 mm 0.11 in2.8 mm
05:28 AM 30.0°F-1.1°C 14.0°F-10.0°C 51% 9.0 mph WNW14.5 kmh WNW 13.0 mph20.9 kmh 29.97 in1014.9 mb 0.00 in0.0 mm 0.00 in0.0 mm 0.11 in2.8 mm
05:29 AM 30.0°F-1.1°C 14.0°F-10.0°C 51% 9.0 mph NNE14.5 kmh NNE 13.0 mph20.9 kmh 29.98 in1015.2 mb 0.00 in0.0 mm 0.00 in0.0 mm 0.11 in2.8 mm
05:30 AM 30.0°F-1.1°C 14.0°F-10.0°C 51% 6.0 mph WNW9.7 kmh WNW 13.0 mph20.9 kmh 29.98 in1015.2 mb 0.00 in0.0 mm 0.00 in0.0 mm 0.11 in2.8 mm
05:31 AM 30.0°F-1.1°C 14.0°F-10.0°C 51% 7.0 mph WNW11.3 kmh WNW 13.0 mph20.9 kmh 29.98 in1015.2 mb 0.00 in0.0 mm 0.00 in0.0 mm 0.11 in2.8 mm
05:32 AM 30.0°F-1.1°C 14.0°F-10.0°C 51% 4.0 mph NNW6.4 kmh NNW 13.0 mph20.9 kmh 29.98 in1015.2 mb 0.00 in0.0 mm 0.00 in0.0 mm 0.11 in2.8 mm
05:33 AM 30.0°F-1.1°C 14.0°F-10.0°C 51% 7.0 mph NNW11.3 kmh NNW 13.0 mph20.9 kmh 29.98 in1015.2 mb 0.00 in0.0 mm 0.00 in0.0 mm 0.11 in2.8 mm
05:34 AM 30.0°F-1.1°C 14.0°F-10.0°C 51% 11.0 mph NNW17.7 kmh NNW 13.0 mph20.9 kmh 29.98 in1015.2 mb 0.00 in0.0 mm 0.00 in0.0 mm 0.11 in2.8 mm
05:35 AM 30.0°F-1.1°C 14.0°F-10.0°C 51% 9.0 mph WNW14.5 kmh WNW 13.0 mph20.9 kmh 29.97 in1014.9 mb 0.00 in0.0 mm 0.00 in0.0 mm 0.11 in2.8 mm
05:36 AM 30.0°F-1.1°C 14.0°F-10.0°C 51% 6.0 mph NW9.7 kmh NW 12.0 mph19.3 kmh 29.98 in1015.2 mb 0.00 in0.0 mm 0.00 in0.0 mm 0.11 in2.8 mm
05:37 AM 30.0°F-1.1°C 14.0°F-10.0°C 51% 10.0 mph NW16.1 kmh NW 12.0 mph19.3 kmh 29.98 in1015.2 mb 0.00 in0.0 mm 0.00 in0.0 mm 0.11 in2.8 mm
05:38 AM 30.0°F-1.1°C 14.0°F-10.0°C 51% 4.0 mph W6.4 kmh W 12.0 mph19.3 kmh 29.98 in1015.2 mb 0.00 in0.0 mm 0.00 in0.0 mm 0.11 in2.8 mm
05:39 AM 30.0°F-1.1°C 14.0°F-10.0°C 51% 8.0 mph W12.9 kmh W 12.0 mph19.3 kmh 29.99 in1015.6 mb 0.00 in0.0 mm 0.00 in0.0 mm 0.11 in2.8 mm
05:40 AM 30.0°F-1.1°C 14.0°F-10.0°C 51% 8.0 mph NNW12.9 kmh NNW 12.0 mph19.3 kmh 29.99 in1015.6 mb 0.00 in0.0 mm 0.00 in0.0 mm 0.11 in2.8 mm
05:41 AM 30.0°F-1.1°C 14.0°F-10.0°C 51% 7.0 mph NNW11.3 kmh NNW 11.0 mph17.7 kmh 29.99 in1015.6 mb 0.00 in0.0 mm 0.00 in0.0 mm 0.11 in2.8 mm
05:42 AM 30.0°F-1.1°C 14.0°F-10.0°C 51% 11.0 mph NW17.7 kmh NW 11.0 mph17.7 kmh 29.98 in1015.2 mb 0.00 in0.0 mm 0.00 in0.0 mm 0.11 in2.8 mm
05:43 AM 30.0°F-1.1°C 14.0°F-10.0°C 51% 10.0 mph WNW16.1 kmh WNW 12.0 mph19.3 kmh 29.99 in1015.6 mb 0.00 in0.0 mm 0.00 in0.0 mm 0.11 in2.8 mm
05:44 AM 30.1°F-1.1°C 13.6°F-10.2°C 50% 8.0 mph WNW12.9 kmh WNW 12.0 mph19.3 kmh 29.99 in1015.6 mb 0.00 in0.0 mm 0.00 in0.0 mm 0.11 in2.8 mm
05:45 AM 30.1°F-1.1°C 13.6°F-10.2°C 50% 5.0 mph NE8.0 kmh NE 12.0 mph19.3 kmh 29.99 in1015.6 mb 0.00 in0.0 mm 0.00 in0.0 mm 0.11 in2.8 mm
05:46 AM 30.1°F-1.1°C 13.6°F-10.2°C 50% 6.0 mph WNW9.7 kmh WNW 12.0 mph19.3 kmh 29.99 in1015.6 mb 0.00 in0.0 mm 0.00 in0.0 mm 0.11 in2.8 mm
05:47 AM 30.1°F-1.1°C 13.6°F-10.2°C 50% 6.0 mph NE9.7 kmh NE 12.0 mph19.3 kmh 30.00 in1015.9 mb 0.00 in0.0 mm 0.00 in0.0 mm 0.11 in2.8 mm
05:48 AM 30.1°F-1.1°C 13.6°F-10.2°C 50% 5.0 mph NW8.0 kmh NW 12.0 mph19.3 kmh 29.98 in1015.2 mb 0.00 in0.0 mm 0.00 in0.0 mm 0.11 in2.8 mm
05:49 AM 30.1°F-1.1°C 13.6°F-10.2°C 50% 5.0 mph NNW8.0 kmh NNW 12.0 mph19.3 kmh 29.99 in1015.6 mb 0.00 in0.0 mm 0.00 in0.0 mm 0.11 in2.8 mm
05:50 AM 30.1°F-1.1°C 13.6°F-10.2°C 50% 13.0 mph NNW20.9 kmh NNW 13.0 mph20.9 kmh 29.99 in1015.6 mb 0.00 in0.0 mm 0.00 in0.0 mm 0.11 in2.8 mm
05:51 AM 30.0°F-1.1°C 14.0°F-10.0°C 51% 8.0 mph NNW12.9 kmh NNW 13.0 mph20.9 kmh 29.99 in1015.6 mb 0.00 in0.0 mm 0.00 in0.0 mm 0.11 in2.8 mm
05:52 AM 30.0°F-1.1°C 14.0°F-10.0°C 51% 5.0 mph NNW8.0 kmh NNW 13.0 mph20.9 kmh 29.98 in1015.2 mb 0.00 in0.0 mm 0.00 in0.0 mm 0.11 in2.8 mm
05:53 AM 30.0°F-1.1°C 14.0°F-10.0°C 51% 11.0 mph WNW17.7 kmh WNW 13.0 mph20.9 kmh 29.99 in1015.6 mb 0.00 in0.0 mm 0.00 in0.0 mm 0.11 in2.8 mm
05:54 AM 30.0°F-1.1°C 14.0°F-10.0°C 51% 8.0 mph WNW12.9 kmh WNW 13.0 mph20.9 kmh 29.98 in1015.2 mb 0.00 in0.0 mm 0.00 in0.0 mm 0.11 in2.8 mm
05:55 AM 30.0°F-1.1°C 14.0°F-10.0°C 51% 4.0 mph WNW6.4 kmh WNW 13.0 mph20.9 kmh 29.99 in1015.6 mb 0.00 in0.0 mm 0.00 in0.0 mm 0.11 in2.8 mm
05:56 AM 30.1°F-1.1°C 13.6°F-10.2°C 50% 10.0 mph NNE16.1 kmh NNE 13.0 mph20.9 kmh 29.98 in1015.2 mb 0.00 in0.0 mm 0.00 in0.0 mm 0.11 in2.8 mm
05:57 AM 30.1°F-1.1°C 13.6°F-10.2°C 50% 5.0 mph NNE8.0 kmh NNE 13.0 mph20.9 kmh 29.98 in1015.2 mb 0.00 in0.0 mm 0.00 in0.0 mm 0.11 in2.8 mm
05:58 AM 30.1°F-1.1°C 13.6°F-10.2°C 50% 4.0 mph NNW6.4 kmh NNW 13.0 mph20.9 kmh 29.99 in1015.6 mb 0.00 in0.0 mm 0.00 in0.0 mm 0.11 in2.8 mm
05:59 AM 30.1°F-1.1°C 13.6°F-10.2°C 50% 5.0 mph W8.0 kmh W 13.0 mph20.9 kmh 30.00 in1015.9 mb 0.00 in0.0 mm 0.00 in0.0 mm 0.11 in2.8 mm
06:00 AM 30.0°F-1.1°C 14.0°F-10.0°C 51% 5.0 mph W8.0 kmh W 13.0 mph20.9 kmh 30.00 in1015.9 mb 0.00 in0.0 mm 0.00 in0.0 mm 0.11 in2.8 mm
06:01 AM 30.0°F-1.1°C 14.0°F-10.0°C 51% 7.0 mph NNE11.3 kmh NNE 11.0 mph17.7 kmh 29.99 in1015.6 mb 0.00 in0.0 mm 0.00 in0.0 mm 0.11 in2.8 mm
06:02 AM 30.0°F-1.1°C 14.9°F-9.5°C 53% 11.0 mph WNW17.7 kmh WNW 11.0 mph17.7 kmh 29.98 in1015.2 mb 0.00 in0.0 mm 0.00 in0.0 mm 0.11 in2.8 mm
06:03 AM 30.0°F-1.1°C 14.0°F-10.0°C 51% 5.0 mph SW8.0 kmh SW 11.0 mph17.7 kmh 29.98 in1015.2 mb 0.00 in0.0 mm 0.00 in0.0 mm 0.11 in2.8 mm
06:04 AM 30.0°F-1.1°C 14.0°F-10.0°C 51% 7.0 mph NW11.3 kmh NW 11.0 mph17.7 kmh 29.98 in1015.2 mb 0.00 in0.0 mm 0.00 in0.0 mm 0.11 in2.8 mm
06:05 AM 30.0°F-1.1°C 14.0°F-10.0°C 51% 13.0 mph NW20.9 kmh NW 13.0 mph20.9 kmh 29.99 in1015.6 mb 0.00 in0.0 mm 0.00 in0.0 mm 0.11 in2.8 mm
06:06 AM 30.1°F-1.1°C 13.6°F-10.2°C 50% 11.0 mph NNE17.7 kmh NNE 13.0 mph20.9 kmh 29.99 in1015.6 mb 0.00 in0.0 mm 0.00 in0.0 mm 0.11 in2.8 mm
06:07 AM 30.1°F-1.1°C 13.6°F-10.2°C 50% 10.0 mph NNE16.1 kmh NNE 13.0 mph20.9 kmh 29.99 in1015.6 mb 0.00 in0.0 mm 0.00 in0.0 mm 0.11 in2.8 mm
06:08 AM 30.1°F-1.1°C 13.6°F-10.2°C 50% 8.0 mph NNE12.9 kmh NNE 13.0 mph20.9 kmh 29.99 in1015.6 mb 0.00 in0.0 mm 0.00 in0.0 mm 0.11 in2.8 mm
06:09 AM 30.1°F-1.1°C 13.6°F-10.2°C 50% 9.0 mph WNW14.5 kmh WNW 14.0 mph22.5 kmh 29.99 in1015.6 mb 0.00 in0.0 mm 0.00 in0.0 mm 0.11 in2.8 mm
06:10 AM 30.1°F-1.1°C 13.6°F-10.2°C 50% 9.0 mph WNW14.5 kmh WNW 14.0 mph22.5 kmh 29.98 in1015.2 mb 0.00 in0.0 mm 0.00 in0.0 mm 0.11 in2.8 mm
06:11 AM 30.1°F-1.1°C 13.6°F-10.2°C 50% 3.0 mph W4.8 kmh W 14.0 mph22.5 kmh 29.99 in1015.6 mb 0.00 in0.0 mm 0.00 in0.0 mm 0.11 in2.8 mm
06:12 AM 30.1°F-1.1°C 13.6°F-10.2°C 50% 5.0 mph WNW8.0 kmh WNW 14.0 mph22.5 kmh 29.99 in1015.6 mb 0.00 in0.0 mm 0.00 in0.0 mm 0.11 in2.8 mm
06:13 AM 30.1°F-1.1°C 13.6°F-10.2°C 50% 13.0 mph WNW20.9 kmh WNW 14.0 mph22.5 kmh 29.99 in1015.6 mb 0.00 in0.0 mm 0.00 in0.0 mm 0.11 in2.8 mm
06:14 AM 30.1°F-1.1°C 13.6°F-10.2°C 50% 8.0 mph 12.9 kmh 14.0 mph22.5 kmh 29.99 in1015.6 mb 0.00 in0.0 mm 0.00 in0.0 mm 0.11 in2.8 mm
06:15 AM 30.1°F-1.1°C 13.6°F-10.2°C 50% 10.0 mph 16.1 kmh 14.0 mph22.5 kmh 29.99 in1015.6 mb 0.00 in0.0 mm 0.00 in0.0 mm 0.11 in2.8 mm
06:16 AM 30.1°F-1.1°C 13.6°F-10.2°C 50% 14.0 mph 22.5 kmh 14.0 mph22.5 kmh 29.99 in1015.6 mb 0.00 in0.0 mm 0.00 in0.0 mm 0.11 in2.8 mm
06:17 AM 30.1°F-1.1°C 13.6°F-10.2°C 50% 8.0 mph WNW12.9 kmh WNW 14.0 mph22.5 kmh 30.00 in1015.9 mb 0.00 in0.0 mm 0.00 in0.0 mm 0.11 in2.8 mm
06:18 AM 30.1°F-1.1°C 13.6°F-10.2°C 50% 8.0 mph NNW12.9 kmh NNW 14.0 mph22.5 kmh 29.99 in1015.6 mb 0.00 in0.0 mm 0.00 in0.0 mm 0.11 in2.8 mm
06:19 AM 30.1°F-1.1°C 13.6°F-10.2°C 50% 8.0 mph NNE12.9 kmh NNE 14.0 mph22.5 kmh 29.99 in1015.6 mb 0.00 in0.0 mm 0.00 in0.0 mm 0.11 in2.8 mm
06:20 AM 30.1°F-1.1°C 13.6°F-10.2°C 50% 5.0 mph 8.0 kmh 14.0 mph22.5 kmh 30.00 in1015.9 mb 0.00 in0.0 mm 0.00 in0.0 mm 0.11 in2.8 mm
06:21 AM 30.1°F-1.1°C 13.6°F-10.2°C 50% 7.0 mph 11.3 kmh 14.0 mph22.5 kmh 30.00 in1015.9 mb 0.00 in0.0 mm 0.00 in0.0 mm 0.11 in2.8 mm
06:22 AM 30.1°F-1.1°C 13.6°F-10.2°C 50% 8.0 mph NW12.9 kmh NW 14.0 mph22.5 kmh 30.00 in1015.9 mb 0.00 in0.0 mm 0.00 in0.0 mm 0.11 in2.8 mm
06:23 AM 30.1°F-1.1°C 13.6°F-10.2°C 50% 8.0 mph NW12.9 kmh NW 14.0 mph22.5 kmh 29.99 in1015.6 mb 0.00 in0.0 mm 0.00 in0.0 mm 0.11 in2.8 mm
06:24 AM 30.0°F-1.1°C 14.0°F-10.0°C 51% 4.0 mph NW6.4 kmh NW 14.0 mph22.5 kmh 30.00 in1015.9 mb 0.00 in0.0 mm 0.00 in0.0 mm 0.11 in2.8 mm
06:25 AM 30.0°F-1.1°C 14.0°F-10.0°C 51% 7.0 mph NW11.3 kmh NW 14.0 mph22.5 kmh 30.00 in1015.9 mb 0.00 in0.0 mm 0.00 in0.0 mm 0.11 in2.8 mm
06:26 AM 30.1°F-1.1°C 13.6°F-10.2°C 50% 11.0 mph 17.7 kmh 14.0 mph22.5 kmh 30.00 in1015.9 mb 0.00 in0.0 mm 0.00 in0.0 mm 0.11 in2.8 mm
06:27 AM 30.1°F-1.1°C 13.6°F-10.2°C 50% 7.0 mph WNW11.3 kmh WNW 11.0 mph17.7 kmh 30.00 in1015.9 mb 0.00 in0.0 mm 0.00 in0.0 mm 0.11 in2.8 mm
06:28 AM 30.1°F-1.1°C 13.6°F-10.2°C 50% 5.0 mph WNW8.0 kmh WNW 11.0 mph17.7 kmh 30.00 in1015.9 mb 0.00 in0.0 mm 0.00 in0.0 mm 0.11 in2.8 mm
06:29 AM 30.1°F-1.1°C 13.6°F-10.2°C 50% 4.0 mph WNW6.4 kmh WNW 11.0 mph17.7 kmh 30.00 in1015.9 mb 0.00 in0.0 mm 0.00 in0.0 mm 0.11 in2.8 mm
06:30 AM 30.1°F-1.1°C 13.6°F-10.2°C 50% 8.0 mph WNW12.9 kmh WNW 11.0 mph17.7 kmh 30.00 in1015.9 mb 0.00 in0.0 mm 0.00 in0.0 mm 0.11 in2.8 mm
06:31 AM 30.1°F-1.1°C 13.6°F-10.2°C 50% 8.0 mph WNW12.9 kmh WNW 11.0 mph17.7 kmh 30.00 in1015.9 mb 0.00 in0.0 mm 0.00 in0.0 mm 0.11 in2.8 mm
06:32 AM 30.0°F-1.1°C 14.0°F-10.0°C 51% 4.0 mph NNE6.4 kmh NNE 11.0 mph17.7 kmh 30.00 in1015.9 mb 0.00 in0.0 mm 0.00 in0.0 mm 0.11 in2.8 mm
06:33 AM 30.0°F-1.1°C 14.0°F-10.0°C 51% 4.0 mph NNE6.4 kmh NNE 11.0 mph17.7 kmh 30.00 in1015.9 mb 0.00 in0.0 mm 0.00 in0.0 mm 0.11 in2.8 mm
06:34 AM 30.0°F-1.1°C 14.9°F-9.5°C 53% 6.0 mph NNE9.7 kmh NNE 11.0 mph17.7 kmh 30.00 in1015.9 mb 0.00 in0.0 mm 0.00 in0.0 mm 0.11 in2.8 mm
06:35 AM 30.0°F-1.1°C 14.9°F-9.5°C 53% 5.0 mph SSW8.0 kmh SSW 11.0 mph17.7 kmh 30.00 in1015.9 mb 0.00 in0.0 mm 0.00 in0.0 mm 0.11 in2.8 mm
06:36 AM 30.0°F-1.1°C 14.0°F-10.0°C 51% 7.0 mph NW11.3 kmh NW 11.0 mph17.7 kmh 30.00 in1015.9 mb 0.00 in0.0 mm 0.00 in0.0 mm 0.11 in2.8 mm
06:37 AM 30.0°F-1.1°C 14.0°F-10.0°C 51% 10.0 mph 16.1 kmh 11.0 mph17.7 kmh 30.00 in1015.9 mb 0.00 in0.0 mm 0.00 in0.0 mm 0.11 in2.8 mm
06:38 AM 30.0°F-1.1°C 14.0°F-10.0°C 51% 5.0 mph WNW8.0 kmh WNW 11.0 mph17.7 kmh 30.00 in1015.9 mb 0.00 in0.0 mm 0.00 in0.0 mm 0.11 in2.8 mm
06:39 AM 30.0°F-1.1°C 14.0°F-10.0°C 51% 4.0 mph NNW6.4 kmh NNW 11.0 mph17.7 kmh 30.00 in1015.9 mb 0.00 in0.0 mm 0.00 in0.0 mm 0.11 in2.8 mm
06:40 AM 30.0°F-1.1°C 14.0°F-10.0°C 51% 11.0 mph NNW17.7 kmh NNW 11.0 mph17.7 kmh 30.00 in1015.9 mb 0.00 in0.0 mm 0.00 in0.0 mm 0.11 in2.8 mm
06:41 AM 30.0°F-1.1°C 14.0°F-10.0°C 51% 11.0 mph NNW17.7 kmh NNW 11.0 mph17.7 kmh 30.00 in1015.9 mb 0.00 in0.0 mm 0.00 in0.0 mm 0.11 in2.8 mm
06:42 AM 30.0°F-1.1°C 14.0°F-10.0°C 51% 9.0 mph NNE14.5 kmh NNE 11.0 mph17.7 kmh 30.01 in1016.3 mb 0.00 in0.0 mm 0.00 in0.0 mm 0.11 in2.8 mm
06:43 AM 30.0°F-1.1°C 14.0°F-10.0°C 51% 9.0 mph NNE14.5 kmh NNE 11.0 mph17.7 kmh 30.00 in1015.9 mb 0.00 in0.0 mm 0.00 in0.0 mm 0.11 in2.8 mm
06:44 AM 30.0°F-1.1°C 14.0°F-10.0°C 51% 11.0 mph NNE17.7 kmh NNE 11.0 mph17.7 kmh 30.00 in1015.9 mb 0.00 in0.0 mm 0.00 in0.0 mm 0.11 in2.8 mm
06:45 AM 30.0°F-1.1°C 14.0°F-10.0°C 51% 9.0 mph WNW14.5 kmh WNW 11.0 mph17.7 kmh 30.00 in1015.9 mb 0.00 in0.0 mm 0.00 in0.0 mm 0.11 in2.8 mm
06:46 AM 30.1°F-1.1°C 13.6°F-10.2°C 50% 13.0 mph W20.9 kmh W 13.0 mph20.9 kmh 30.01 in1016.3 mb 0.00 in0.0 mm 0.00 in0.0 mm 0.11 in2.8 mm
06:47 AM 30.1°F-1.1°C 13.6°F-10.2°C 50% 6.0 mph WNW9.7 kmh WNW 13.0 mph20.9 kmh 30.01 in1016.3 mb 0.00 in0.0 mm 0.00 in0.0 mm 0.11 in2.8 mm
06:48 AM 30.0°F-1.1°C 14.0°F-10.0°C 51% 6.0 mph WNW9.7 kmh WNW 13.0 mph20.9 kmh 30.01 in1016.3 mb 0.00 in0.0 mm 0.00 in0.0 mm 0.11 in2.8 mm
06:49 AM 30.0°F-1.1°C 14.0°F-10.0°C 51% 6.0 mph NNE9.7 kmh NNE 13.0 mph20.9 kmh 30.01 in1016.3 mb 0.00 in0.0 mm 0.00 in0.0 mm 0.11 in2.8 mm
06:50 AM 30.0°F-1.1°C 13.5°F-10.3°C 50% 9.0 mph NNE14.5 kmh NNE 13.0 mph20.9 kmh 30.01 in1016.3 mb 0.00 in0.0 mm 0.00 in0.0 mm 0.11 in2.8 mm
06:51 AM 30.1°F-1.1°C 13.6°F-10.2°C 50% 5.0 mph SW8.0 kmh SW 13.0 mph20.9 kmh 30.01 in1016.3 mb 0.00 in0.0 mm 0.00 in0.0 mm 0.11 in2.8 mm
06:52 AM 30.1°F-1.1°C 13.6°F-10.2°C 50% 10.0 mph WNW16.1 kmh WNW 13.0 mph20.9 kmh 30.01 in1016.3 mb 0.00 in0.0 mm 0.00 in0.0 mm 0.11 in2.8 mm
06:53 AM 30.1°F-1.1°C 13.6°F-10.2°C 50% 5.0 mph NW8.0 kmh NW 13.0 mph20.9 kmh 30.01 in1016.3 mb 0.00 in0.0 mm 0.00 in0.0 mm 0.11 in2.8 mm
06:54 AM 30.1°F-1.1°C 13.6°F-10.2°C 50% 5.0 mph W8.0 kmh W 13.0 mph20.9 kmh 30.00 in1015.9 mb 0.00 in0.0 mm 0.00 in0.0 mm 0.11 in2.8 mm
06:55 AM 30.0°F-1.1°C 14.0°F-10.0°C 51% 10.0 mph NNE16.1 kmh NNE 13.0 mph20.9 kmh 30.01 in1016.3 mb 0.00 in0.0 mm 0.00 in0.0 mm 0.11 in2.8 mm
06:56 AM 30.0°F-1.1°C 13.5°F-10.3°C 50% 7.0 mph NNE11.3 kmh NNE 13.0 mph20.9 kmh 30.00 in1015.9 mb 0.00 in0.0 mm 0.00 in0.0 mm 0.11 in2.8 mm
06:57 AM 30.0°F-1.1°C 13.5°F-10.3°C 50% 7.0 mph NNW11.3 kmh NNW 10.0 mph16.1 kmh 30.00 in1015.9 mb 0.00 in0.0 mm 0.00 in0.0 mm 0.11 in2.8 mm
06:58 AM 30.1°F-1.1°C 13.6°F-10.2°C 50% 11.0 mph W17.7 kmh W 11.0 mph17.7 kmh 30.00 in1015.9 mb 0.00 in0.0 mm 0.00 in0.0 mm 0.11 in2.8 mm
06:59 AM 30.1°F-1.1°C 13.6°F-10.2°C 50% 9.0 mph 14.5 kmh 11.0 mph17.7 kmh 30.00 in1015.9 mb 0.00 in0.0 mm 0.00 in0.0 mm 0.11 in2.8 mm
07:00 AM 30.1°F-1.1°C 13.6°F-10.2°C 50% 3.0 mph WNW4.8 kmh WNW 11.0 mph17.7 kmh 30.00 in1015.9 mb 0.00 in0.0 mm 0.00 in0.0 mm 0.11 in2.8 mm
07:01 AM 30.1°F-1.1°C 13.6°F-10.2°C 50% 5.0 mph W8.0 kmh W 11.0 mph17.7 kmh 30.01 in1016.3 mb 0.00 in0.0 mm 0.00 in0.0 mm 0.11 in2.8 mm
07:02 AM 30.1°F-1.1°C 13.6°F-10.2°C 50% 5.0 mph NW8.0 kmh NW 11.0 mph17.7 kmh 30.01 in1016.3 mb 0.00 in0.0 mm 0.00 in0.0 mm 0.11 in2.8 mm
07:03 AM 30.1°F-1.1°C 13.6°F-10.2°C 50% 11.0 mph WNW17.7 kmh WNW 11.0 mph17.7 kmh 30.01 in1016.3 mb 0.00 in0.0 mm 0.00 in0.0 mm 0.11 in2.8 mm
07:04 AM 30.1°F-1.1°C 13.6°F-10.2°C 50% 9.0 mph E14.5 kmh E 11.0 mph17.7 kmh 30.01 in1016.3 mb 0.00 in0.0 mm 0.00 in0.0 mm 0.11 in2.8 mm
07:05 AM 30.1°F-1.1°C 13.6°F-10.2°C 50% 11.0 mph NNW17.7 kmh NNW 11.0 mph17.7 kmh 30.00 in1015.9 mb 0.00 in0.0 mm 0.00 in0.0 mm 0.11 in2.8 mm
07:06 AM 30.1°F-1.1°C 13.6°F-10.2°C 50% 8.0 mph NNE12.9 kmh NNE 11.0 mph17.7 kmh 30.01 in1016.3 mb 0.00 in0.0 mm 0.00 in0.0 mm 0.11 in2.8 mm
07:07 AM 30.1°F-1.1°C 13.6°F-10.2°C 50% 10.0 mph NW16.1 kmh NW 11.0 mph17.7 kmh 30.01 in1016.3 mb 0.00 in0.0 mm 0.00 in0.0 mm 0.11 in2.8 mm
07:08 AM 30.1°F-1.1°C 13.6°F-10.2°C 50% 6.0 mph NNW9.7 kmh NNW 11.0 mph17.7 kmh 30.01 in1016.3 mb 0.00 in0.0 mm 0.00 in0.0 mm 0.11 in2.8 mm
07:09 AM 30.1°F-1.1°C 13.6°F-10.2°C 50% 8.0 mph NNW12.9 kmh NNW 11.0 mph17.7 kmh 30.02 in1016.6 mb 0.00 in0.0 mm 0.00 in0.0 mm 0.11 in2.8 mm
07:10 AM 30.1°F-1.1°C 13.6°F-10.2°C 50% 8.0 mph NW12.9 kmh NW 11.0 mph17.7 kmh 30.01 in1016.3 mb 0.00 in0.0 mm 0.00 in0.0 mm 0.11 in2.8 mm
07:11 AM 30.1°F-1.1°C 13.6°F-10.2°C 50% 8.0 mph NW12.9 kmh NW 11.0 mph17.7 kmh 30.02 in1016.6 mb 0.00 in0.0 mm 0.00 in0.0 mm 0.11 in2.8 mm
07:12 AM 30.1°F-1.1°C 13.6°F-10.2°C 50% 8.0 mph NNW12.9 kmh NNW 11.0 mph17.7 kmh 30.01 in1016.3 mb 0.00 in0.0 mm 0.00 in0.0 mm 0.11 in2.8 mm
07:13 AM 30.1°F-1.1°C 13.6°F-10.2°C 50% 7.0 mph W11.3 kmh W 11.0 mph17.7 kmh 30.01 in1016.3 mb 0.00 in0.0 mm 0.00 in0.0 mm 0.11 in2.8 mm
07:14 AM 30.1°F-1.1°C 13.6°F-10.2°C 50% 11.0 mph WNW17.7 kmh WNW 11.0 mph17.7 kmh 30.01 in1016.3 mb 0.00 in0.0 mm 0.00 in0.0 mm 0.11 in2.8 mm
07:15 AM 30.1°F-1.1°C 13.6°F-10.2°C 50% 9.0 mph WNW14.5 kmh WNW 11.0 mph17.7 kmh 30.01 in1016.3 mb 0.00 in0.0 mm 0.00 in0.0 mm 0.11 in2.8 mm
07:16 AM 30.1°F-1.1°C 13.6°F-10.2°C 50% 12.0 mph 19.3 kmh 12.0 mph19.3 kmh 30.01 in1016.3 mb 0.00 in0.0 mm 0.00 in0.0 mm 0.11 in2.8 mm
07:17 AM 30.1°F-1.1°C 13.6°F-10.2°C 50% 10.0 mph ESE16.1 kmh ESE 12.0 mph19.3 kmh 30.01 in1016.3 mb 0.00 in0.0 mm 0.00 in0.0 mm 0.11 in2.8 mm
07:18 AM 30.1°F-1.1°C 13.6°F-10.2°C 50% 10.0 mph ESE16.1 kmh ESE 12.0 mph19.3 kmh 30.01 in1016.3 mb 0.00 in0.0 mm 0.00 in0.0 mm 0.11 in2.8 mm
07:19 AM 30.1°F-1.1°C 13.6°F-10.2°C 50% 6.0 mph NE9.7 kmh NE 12.0 mph19.3 kmh 30.01 in1016.3 mb 0.00 in0.0 mm 0.00 in0.0 mm 0.11 in2.8 mm
07:20 AM 30.1°F-1.1°C 13.6°F-10.2°C 50% 11.0 mph NE17.7 kmh NE 12.0 mph19.3 kmh 30.02 in1016.6 mb 0.00 in0.0 mm 0.00 in0.0 mm 0.11 in2.8 mm
07:21 AM 30.1°F-1.1°C 13.6°F-10.2°C 50% 6.0 mph NNE9.7 kmh NNE 12.0 mph19.3 kmh 30.01 in1016.3 mb 0.00 in0.0 mm 0.00 in0.0 mm 0.11 in2.8 mm
07:22 AM 30.1°F-1.1°C 13.6°F-10.2°C 50% 6.0 mph NW9.7 kmh NW 12.0 mph19.3 kmh 30.01 in1016.3 mb 0.00 in0.0 mm 0.00 in0.0 mm 0.11 in2.8 mm
07:23 AM 30.1°F-1.1°C 13.6°F-10.2°C 50% 7.0 mph 11.3 kmh 12.0 mph19.3 kmh 30.01 in1016.3 mb 0.00 in0.0 mm 0.00 in0.0 mm 0.11 in2.8 mm
07:24 AM 30.1°F-1.1°C 13.6°F-10.2°C 50% 7.0 mph NW11.3 kmh NW 12.0 mph19.3 kmh 30.02 in1016.6 mb 0.00 in0.0 mm 0.00 in0.0 mm 0.11 in2.8 mm
07:25 AM 30.1°F-1.1°C 13.6°F-10.2°C 50% 6.0 mph NW9.7 kmh NW 12.0 mph19.3 kmh 30.02 in1016.6 mb 0.00 in0.0 mm 0.00 in0.0 mm 0.11 in2.8 mm
07:26 AM 30.1°F-1.1°C 13.6°F-10.2°C 50% 4.0 mph W6.4 kmh W 12.0 mph19.3 kmh 30.02 in1016.6 mb 0.00 in0.0 mm 0.00 in0.0 mm 0.11 in2.8 mm
07:27 AM 30.1°F-1.1°C 13.6°F-10.2°C 50% 4.0 mph W6.4 kmh W 12.0 mph19.3 kmh 30.02 in1016.6 mb 0.00 in0.0 mm 0.00 in0.0 mm 0.11 in2.8 mm
07:28 AM 30.1°F-1.1°C 13.6°F-10.2°C 50% 10.0 mph NNE16.1 kmh NNE 11.0 mph17.7 kmh 30.02 in1016.6 mb 0.00 in0.0 mm 0.00 in0.0 mm 0.11 in2.8 mm
07:29 AM 30.1°F-1.1°C 13.6°F-10.2°C 50% 8.0 mph 12.9 kmh 11.0 mph17.7 kmh 30.02 in1016.6 mb 0.00 in0.0 mm 0.00 in0.0 mm 0.11 in2.8 mm
07:30 AM 30.1°F-1.1°C 13.6°F-10.2°C 50% 3.0 mph 4.8 kmh 11.0 mph17.7 kmh 30.02 in1016.6 mb 0.00 in0.0 mm 0.00 in0.0 mm 0.11 in2.8 mm
07:31 AM 30.1°F-1.1°C 13.6°F-10.2°C 50% 5.0 mph WNW8.0 kmh WNW 10.0 mph16.1 kmh 30.02 in1016.6 mb 0.00 in0.0 mm 0.00 in0.0 mm 0.11 in2.8 mm
07:32 AM 30.1°F-1.1°C 13.6°F-10.2°C 50% 9.0 mph NW14.5 kmh NW 10.0 mph16.1 kmh 30.02 in1016.6 mb 0.00 in0.0 mm 0.00 in0.0 mm 0.11 in2.8 mm
07:33 AM 30.1°F-1.1°C 13.6°F-10.2°C 50% 13.0 mph NNE20.9 kmh NNE 13.0 mph20.9 kmh 30.02 in1016.6 mb 0.00 in0.0 mm 0.00 in0.0 mm 0.11 in2.8 mm
07:34 AM 30.1°F-1.1°C 13.6°F-10.2°C 50% 8.0 mph W12.9 kmh W 13.0 mph20.9 kmh 30.02 in1016.6 mb 0.00 in0.0 mm 0.00 in0.0 mm 0.11 in2.8 mm
07:35 AM 30.1°F-1.1°C 13.6°F-10.2°C 50% 8.0 mph NNE12.9 kmh NNE 13.0 mph20.9 kmh 30.02 in1016.6 mb 0.00 in0.0 mm 0.00 in0.0 mm 0.11 in2.8 mm
07:36 AM 30.1°F-1.1°C 13.6°F-10.2°C 50% 5.0 mph W8.0 kmh W 13.0 mph20.9 kmh 30.02 in1016.6 mb 0.00 in0.0 mm 0.00 in0.0 mm 0.11 in2.8 mm
07:37 AM 30.1°F-1.1°C 13.6°F-10.2°C 50% 5.0 mph 8.0 kmh 13.0 mph20.9 kmh 30.02 in1016.6 mb 0.00 in0.0 mm 0.00 in0.0 mm 0.11 in2.8 mm
07:38 AM 30.1°F-1.1°C 13.6°F-10.2°C 50% 5.0 mph 8.0 kmh 13.0 mph20.9 kmh 30.02 in1016.6 mb 0.00 in0.0 mm 0.00 in0.0 mm 0.11 in2.8 mm
07:39 AM 30.1°F-1.1°C 13.6°F-10.2°C 50% 13.0 mph 20.9 kmh 13.0 mph20.9 kmh 30.02 in1016.6 mb 0.00 in0.0 mm 0.00 in0.0 mm 0.11 in2.8 mm
07:40 AM 30.1°F-1.1°C 13.6°F-10.2°C 50% 5.0 mph NW8.0 kmh NW 13.0 mph20.9 kmh 30.02 in1016.6 mb 0.00 in0.0 mm 0.00 in0.0 mm 0.11 in2.8 mm
07:41 AM 30.1°F-1.1°C 13.6°F-10.2°C 50% 6.0 mph 9.7 kmh 13.0 mph20.9 kmh 30.03 in1016.9 mb 0.00 in0.0 mm 0.00 in0.0 mm 0.11 in2.8 mm
07:42 AM 30.1°F-1.1°C 13.6°F-10.2°C 50% 5.0 mph 8.0 kmh 13.0 mph20.9 kmh 30.03 in1016.9 mb 0.00 in0.0 mm 0.00 in0.0 mm 0.11 in2.8 mm
07:43 AM 30.1°F-1.1°C 13.6°F-10.2°C 50% 6.0 mph NNW9.7 kmh NNW 13.0 mph20.9 kmh 30.03 in1016.9 mb 0.00 in0.0 mm 0.00 in0.0 mm 0.11 in2.8 mm
07:44 AM 30.1°F-1.1°C 13.6°F-10.2°C 50% 13.0 mph W20.9 kmh W 13.0 mph20.9 kmh 30.03 in1016.9 mb 0.00 in0.0 mm 0.00 in0.0 mm 0.11 in2.8 mm
07:45 AM 30.1°F-1.1°C 13.6°F-10.2°C 50% 13.0 mph W20.9 kmh W 13.0 mph20.9 kmh 30.03 in1016.9 mb 0.00 in0.0 mm 0.00 in0.0 mm 0.11 in2.8 mm
07:46 AM 30.1°F-1.1°C 13.6°F-10.2°C 50% 6.0 mph ENE9.7 kmh ENE 13.0 mph20.9 kmh 30.03 in1016.9 mb 0.00 in0.0 mm 0.00 in0.0 mm 0.11 in2.8 mm
07:47 AM 30.1°F-1.1°C 13.6°F-10.2°C 50% 6.0 mph ENE9.7 kmh ENE 13.0 mph20.9 kmh 30.03 in1016.9 mb 0.00 in0.0 mm 0.00 in0.0 mm 0.11 in2.8 mm
07:48 AM 30.1°F-1.1°C 13.6°F-10.2°C 50% 8.0 mph NW12.9 kmh NW 13.0 mph20.9 kmh 30.03 in1016.9 mb 0.00 in0.0 mm 0.00 in0.0 mm 0.11 in2.8 mm
07:49 AM 30.1°F-1.1°C 13.6°F-10.2°C 50% 9.0 mph NNW14.5 kmh NNW 13.0 mph20.9 kmh 30.03 in1016.9 mb 0.00 in0.0 mm 0.00 in0.0 mm 0.11 in2.8 mm
07:50 AM 30.1°F-1.1°C 13.6°F-10.2°C 50% 7.0 mph NNW11.3 kmh NNW 13.0 mph20.9 kmh 30.03 in1016.9 mb 0.00 in0.0 mm 0.00 in0.0 mm 0.11 in2.8 mm
07:51 AM 30.1°F-1.1°C 13.6°F-10.2°C 50% 7.0 mph NNW11.3 kmh NNW 13.0 mph20.9 kmh 30.03 in1016.9 mb 0.00 in0.0 mm 0.00 in0.0 mm 0.11 in2.8 mm
07:52 AM 30.1°F-1.1°C 13.6°F-10.2°C 50% 6.0 mph NNW9.7 kmh NNW 13.0 mph20.9 kmh 30.03 in1016.9 mb 0.00 in0.0 mm 0.00 in0.0 mm 0.11 in2.8 mm
07:53 AM 30.1°F-1.1°C 13.6°F-10.2°C 50% 6.0 mph NNW9.7 kmh NNW 13.0 mph20.9 kmh 30.03 in1016.9 mb 0.00 in0.0 mm 0.00 in0.0 mm 0.11 in2.8 mm
07:54 AM 30.1°F-1.1°C 13.6°F-10.2°C 50% 6.0 mph WNW9.7 kmh WNW 9.0 mph14.5 kmh 30.03 in1016.9 mb 0.00 in0.0 mm 0.00 in0.0 mm 0.11 in2.8 mm
07:55 AM 30.1°F-1.1°C 13.6°F-10.2°C 50% 7.0 mph NNE11.3 kmh NNE 9.0 mph14.5 kmh 30.03 in1016.9 mb 0.00 in0.0 mm 0.00 in0.0 mm 0.11 in2.8 mm
07:56 AM 30.1°F-1.1°C 13.6°F-10.2°C 50% 10.0 mph NNE16.1 kmh NNE 10.0 mph16.1 kmh 30.03 in1016.9 mb 0.00 in0.0 mm 0.00 in0.0 mm 0.11 in2.8 mm
07:57 AM 30.1°F-1.1°C 13.6°F-10.2°C 50% 10.0 mph NNE16.1 kmh NNE 10.0 mph16.1 kmh 30.04 in1017.3 mb 0.00 in0.0 mm 0.00 in0.0 mm 0.11 in2.8 mm
07:58 AM 30.1°F-1.1°C 13.6°F-10.2°C 50% 4.0 mph WSW6.4 kmh WSW 10.0 mph16.1 kmh 30.04 in1017.3 mb 0.00 in0.0 mm 0.00 in0.0 mm 0.11 in2.8 mm
07:59 AM 30.1°F-1.1°C 13.6°F-10.2°C 50% 6.0 mph NW9.7 kmh NW 10.0 mph16.1 kmh 30.04 in1017.3 mb 0.00 in0.0 mm 0.00 in0.0 mm 0.11 in2.8 mm
08:00 AM 30.1°F-1.1°C 13.6°F-10.2°C 50% 4.0 mph NW6.4 kmh NW 10.0 mph16.1 kmh 30.04 in1017.3 mb 0.00 in0.0 mm 0.00 in0.0 mm 0.11 in2.8 mm
08:01 AM 30.1°F-1.1°C 13.6°F-10.2°C 50% 4.0 mph NW6.4 kmh NW 10.0 mph16.1 kmh 30.05 in1017.6 mb 0.00 in0.0 mm 0.00 in0.0 mm 0.11 in2.8 mm
08:02 AM 30.1°F-1.1°C 13.6°F-10.2°C 50% 4.0 mph WNW6.4 kmh WNW 10.0 mph16.1 kmh 30.04 in1017.3 mb 0.00 in0.0 mm 0.00 in0.0 mm 0.11 in2.8 mm
08:03 AM 30.1°F-1.1°C 13.6°F-10.2°C 50% 5.0 mph 8.0 kmh 10.0 mph16.1 kmh 30.04 in1017.3 mb 0.00 in0.0 mm 0.00 in0.0 mm 0.11 in2.8 mm
08:04 AM 30.1°F-1.1°C 13.6°F-10.2°C 50% 4.0 mph 6.4 kmh 10.0 mph16.1 kmh 30.04 in1017.3 mb 0.00 in0.0 mm 0.00 in0.0 mm 0.11 in2.8 mm
08:05 AM 30.0°F-1.1°C 14.0°F-10.0°C 51% 6.0 mph 9.7 kmh 10.0 mph16.1 kmh 30.04 in1017.3 mb 0.00 in0.0 mm 0.00 in0.0 mm 0.11 in2.8 mm
08:06 AM 30.0°F-1.1°C 14.0°F-10.0°C 51% 6.0 mph W9.7 kmh W 7.0 mph11.3 kmh 30.04 in1017.3 mb 0.00 in0.0 mm 0.00 in0.0 mm 0.11 in2.8 mm
08:07 AM 30.0°F-1.1°C 14.0°F-10.0°C 51% 5.0 mph NNE8.0 kmh NNE 7.0 mph11.3 kmh 30.04 in1017.3 mb 0.00 in0.0 mm 0.00 in0.0 mm 0.11 in2.8 mm
08:08 AM 30.0°F-1.1°C 14.0°F-10.0°C 51% 5.0 mph NNW8.0 kmh NNW 8.0 mph12.9 kmh 30.05 in1017.6 mb 0.00 in0.0 mm 0.00 in0.0 mm 0.11 in2.8 mm
08:09 AM 30.0°F-1.1°C 14.0°F-10.0°C 51% 10.0 mph NNW16.1 kmh NNW 10.0 mph16.1 kmh 30.04 in1017.3 mb 0.00 in0.0 mm 0.00 in0.0 mm 0.11 in2.8 mm
08:10 AM 30.0°F-1.1°C 14.0°F-10.0°C 51% 7.0 mph W11.3 kmh W 10.0 mph16.1 kmh 30.04 in1017.3 mb 0.00 in0.0 mm 0.00 in0.0 mm 0.11 in2.8 mm
08:11 AM 30.0°F-1.1°C 14.0°F-10.0°C 51% 7.0 mph W11.3 kmh W 10.0 mph16.1 kmh 30.04 in1017.3 mb 0.00 in0.0 mm 0.00 in0.0 mm 0.11 in2.8 mm
08:12 AM 30.0°F-1.1°C 14.0°F-10.0°C 51% 5.0 mph NNW8.0 kmh NNW 10.0 mph16.1 kmh 30.05 in1017.6 mb 0.00 in0.0 mm 0.00 in0.0 mm 0.11 in2.8 mm
08:13 AM 30.0°F-1.1°C 14.0°F-10.0°C 51% 6.0 mph NW9.7 kmh NW 10.0 mph16.1 kmh 30.05 in1017.6 mb 0.00 in0.0 mm 0.00 in0.0 mm 0.11 in2.8 mm
08:14 AM 30.0°F-1.1°C 14.0°F-10.0°C 51% 2.0 mph NW3.2 kmh NW 10.0 mph16.1 kmh 30.05 in1017.6 mb 0.00 in0.0 mm 0.00 in0.0 mm 0.11 in2.8 mm
08:15 AM 30.0°F-1.1°C 14.0°F-10.0°C 51% 4.0 mph NW6.4 kmh NW 10.0 mph16.1 kmh 30.05 in1017.6 mb 0.00 in0.0 mm 0.00 in0.0 mm 0.11 in2.8 mm
08:16 AM 30.0°F-1.1°C 14.0°F-10.0°C 51% 9.0 mph NNE14.5 kmh NNE 10.0 mph16.1 kmh 30.05 in1017.6 mb 0.00 in0.0 mm 0.00 in0.0 mm 0.11 in2.8 mm
08:17 AM 30.0°F-1.1°C 14.0°F-10.0°C 51% 9.0 mph NNW14.5 kmh NNW 10.0 mph16.1 kmh 30.05 in1017.6 mb 0.00 in0.0 mm 0.00 in0.0 mm 0.11 in2.8 mm
08:18 AM 30.0°F-1.1°C 14.0°F-10.0°C 51% 4.0 mph WNW6.4 kmh WNW 10.0 mph16.1 kmh 30.05 in1017.6 mb 0.00 in0.0 mm 0.00 in0.0 mm 0.11 in2.8 mm
08:19 AM 30.0°F-1.1°C 14.0°F-10.0°C 51% 9.0 mph WNW14.5 kmh WNW 10.0 mph16.1 kmh 30.05 in1017.6 mb 0.00 in0.0 mm 0.00 in0.0 mm 0.11 in2.8 mm
08:20 AM 30.0°F-1.1°C 14.0°F-10.0°C 51% 6.0 mph NNW9.7 kmh NNW 9.0 mph14.5 kmh 30.05 in1017.6 mb 0.00 in0.0 mm 0.00 in0.0 mm 0.11 in2.8 mm
08:21 AM 30.0°F-1.1°C 14.0°F-10.0°C 51% 6.0 mph WSW9.7 kmh WSW 9.0 mph14.5 kmh 30.05 in1017.6 mb 0.00 in0.0 mm 0.00 in0.0 mm 0.11 in2.8 mm
08:22 AM 30.0°F-1.1°C 14.0°F-10.0°C 51% 8.0 mph WSW12.9 kmh WSW 9.0 mph14.5 kmh 30.05 in1017.6 mb 0.00 in0.0 mm 0.00 in0.0 mm 0.11 in2.8 mm
08:23 AM 30.0°F-1.1°C 14.0°F-10.0°C 51% 6.0 mph 9.7 kmh 9.0 mph14.5 kmh 30.05 in1017.6 mb 0.00 in0.0 mm 0.00 in0.0 mm 0.11 in2.8 mm
08:24 AM 30.0°F-1.1°C 14.0°F-10.0°C 51% 6.0 mph 9.7 kmh 9.0 mph14.5 kmh 30.06 in1017.9 mb 0.00 in0.0 mm 0.00 in0.0 mm 0.11 in2.8 mm
08:25 AM 30.0°F-1.1°C 14.0°F-10.0°C 51% 3.0 mph NNE4.8 kmh NNE 9.0 mph14.5 kmh 30.06 in1017.9 mb 0.00 in0.0 mm 0.00 in0.0 mm 0.11 in2.8 mm
08:26 AM 30.0°F-1.1°C 14.0°F-10.0°C 51% 4.0 mph WNW6.4 kmh WNW 9.0 mph14.5 kmh 30.06 in1017.9 mb 0.00 in0.0 mm 0.00 in0.0 mm 0.11 in2.8 mm
08:27 AM 30.0°F-1.1°C 14.0°F-10.0°C 51% 7.0 mph 11.3 kmh 10.0 mph16.1 kmh 30.06 in1017.9 mb 0.00 in0.0 mm 0.00 in0.0 mm 0.11 in2.8 mm
08:28 AM 30.0°F-1.1°C 14.0°F-10.0°C 51% 4.0 mph NNW6.4 kmh NNW 10.0 mph16.1 kmh 30.06 in1017.9 mb 0.00 in0.0 mm 0.00 in0.0 mm 0.11 in2.8 mm
08:29 AM 30.0°F-1.1°C 14.0°F-10.0°C 51% 6.0 mph NNW9.7 kmh NNW 10.0 mph16.1 kmh 30.06 in1017.9 mb 0.00 in0.0 mm 0.00 in0.0 mm 0.11 in2.8 mm
08:30 AM 30.0°F-1.1°C 14.0°F-10.0°C 51% 7.0 mph 11.3 kmh 10.0 mph16.1 kmh 30.06 in1017.9 mb 0.00 in0.0 mm 0.00 in0.0 mm 0.11 in2.8 mm
08:31 AM 30.0°F-1.1°C 14.0°F-10.0°C 51% 5.0 mph NNW8.0 kmh NNW 10.0 mph16.1 kmh 30.06 in1017.9 mb 0.00 in0.0 mm 0.00 in0.0 mm 0.11 in2.8 mm
08:32 AM 30.0°F-1.1°C 14.0°F-10.0°C 51% 6.0 mph NW9.7 kmh NW 10.0 mph16.1 kmh 30.06 in1017.9 mb 0.00 in0.0 mm 0.00 in0.0 mm 0.11 in2.8 mm
08:33 AM 29.8°F-1.2°C 14.7°F-9.6°C 53% 5.0 mph NW8.0 kmh NW 10.0 mph16.1 kmh 30.07 in1018.3 mb 0.00 in0.0 mm 0.00 in0.0 mm 0.11 in2.8 mm
08:34 AM 29.8°F-1.2°C 14.7°F-9.6°C 53% 10.0 mph NNE16.1 kmh NNE 10.0 mph16.1 kmh 30.07 in1018.3 mb 0.00 in0.0 mm 0.00 in0.0 mm 0.11 in2.8 mm
08:35 AM 29.8°F-1.2°C 14.7°F-9.6°C 53% 10.0 mph NNE16.1 kmh NNE 10.0 mph16.1 kmh 30.07 in1018.3 mb 0.00 in0.0 mm 0.00 in0.0 mm 0.11 in2.8 mm
08:36 AM 29.8°F-1.2°C 13.8°F-10.1°C 51% 7.0 mph 11.3 kmh 10.0 mph16.1 kmh 30.07 in1018.3 mb 0.00 in0.0 mm 0.00 in0.0 mm 0.11 in2.8 mm
08:37 AM 29.8°F-1.2°C 13.8°F-10.1°C 51% 7.0 mph NNE11.3 kmh NNE 10.0 mph16.1 kmh 30.07 in1018.3 mb 0.00 in0.0 mm 0.00 in0.0 mm 0.11 in2.8 mm
08:38 AM 29.8°F-1.2°C 13.8°F-10.1°C 51% 7.0 mph NNE11.3 kmh NNE 10.0 mph16.1 kmh 30.07 in1018.3 mb 0.00 in0.0 mm 0.00 in0.0 mm 0.11 in2.8 mm
08:39 AM 29.8°F-1.2°C 13.8°F-10.1°C 51% 6.0 mph NNW9.7 kmh NNW 10.0 mph16.1 kmh 30.08 in1018.6 mb 0.00 in0.0 mm 0.00 in0.0 mm 0.11 in2.8 mm
08:40 AM 29.8°F-1.2°C 13.8°F-10.1°C 51% 8.0 mph WNW12.9 kmh WNW 10.0 mph16.1 kmh 30.07 in1018.3 mb 0.00 in0.0 mm 0.00 in0.0 mm 0.11 in2.8 mm
08:41 AM 29.8°F-1.2°C 13.8°F-10.1°C 51% 7.0 mph NW11.3 kmh NW 14.0 mph22.5 kmh 30.08 in1018.6 mb 0.00 in0.0 mm 0.00 in0.0 mm 0.11 in2.8 mm
08:42 AM 29.8°F-1.2°C 14.7°F-9.6°C 53% 5.0 mph NW8.0 kmh NW 14.0 mph22.5 kmh 30.07 in1018.3 mb 0.00 in0.0 mm 0.00 in0.0 mm 0.11 in2.8 mm
08:43 AM 29.8°F-1.2°C 14.7°F-9.6°C 53% 6.0 mph NNW9.7 kmh NNW 14.0 mph22.5 kmh 30.07 in1018.3 mb 0.00 in0.0 mm 0.00 in0.0 mm 0.11 in2.8 mm
08:44 AM 29.8°F-1.2°C 14.7°F-9.6°C 53% 6.0 mph NNW9.7 kmh NNW 14.0 mph22.5 kmh 30.07 in1018.3 mb 0.00 in0.0 mm 0.00 in0.0 mm 0.11 in2.8 mm
08:45 AM 29.8°F-1.2°C 14.7°F-9.6°C 53% 6.0 mph NNW9.7 kmh NNW 14.0 mph22.5 kmh 30.07 in1018.3 mb 0.00 in0.0 mm 0.00 in0.0 mm 0.11 in2.8 mm
08:46 AM 29.6°F-1.3°C 14.5°F-9.7°C 53% 7.0 mph NNW11.3 kmh NNW 14.0 mph22.5 kmh 30.07 in1018.3 mb 0.00 in0.0 mm 0.00 in0.0 mm 0.11 in2.8 mm
08:47 AM 29.6°F-1.3°C 14.5°F-9.7°C 53% 7.0 mph NW11.3 kmh NW 14.0 mph22.5 kmh 30.08 in1018.6 mb 0.00 in0.0 mm 0.00 in0.0 mm 0.11 in2.8 mm
08:48 AM 29.6°F-1.3°C 14.5°F-9.7°C 53% 6.0 mph NE9.7 kmh NE 14.0 mph22.5 kmh 30.08 in1018.6 mb 0.00 in0.0 mm 0.00 in0.0 mm 0.11 in2.8 mm
08:49 AM 29.6°F-1.3°C 14.5°F-9.7°C 53% 5.0 mph NNE8.0 kmh NNE 14.0 mph22.5 kmh 30.08 in1018.6 mb 0.00 in0.0 mm 0.00 in0.0 mm 0.11 in2.8 mm
08:50 AM 29.6°F-1.3°C 14.5°F-9.7°C 53% 5.0 mph NW8.0 kmh NW 14.0 mph22.5 kmh 30.08 in1018.6 mb 0.00 in0.0 mm 0.00 in0.0 mm 0.11 in2.8 mm
08:51 AM 29.8°F-1.2°C 14.7°F-9.6°C 53% 10.0 mph NNE16.1 kmh NNE 10.0 mph16.1 kmh 30.08 in1018.6 mb 0.00 in0.0 mm 0.00 in0.0 mm 0.11 in2.8 mm
08:52 AM 29.8°F-1.2°C 14.7°F-9.6°C 53% 8.0 mph NNW12.9 kmh NNW 10.0 mph16.1 kmh 30.08 in1018.6 mb 0.00 in0.0 mm 0.00 in0.0 mm 0.11 in2.8 mm
08:53 AM 29.8°F-1.2°C 14.7°F-9.6°C 53% 6.0 mph 9.7 kmh 10.0 mph16.1 kmh 30.08 in1018.6 mb 0.00 in0.0 mm 0.00 in0.0 mm 0.11 in2.8 mm
08:54 AM 29.8°F-1.2°C 14.7°F-9.6°C 53% 9.0 mph 14.5 kmh 10.0 mph16.1 kmh 30.08 in1018.6 mb 0.00 in0.0 mm 0.00 in0.0 mm 0.11 in2.8 mm
08:55 AM 29.8°F-1.2°C 14.7°F-9.6°C 53% 6.0 mph NNW9.7 kmh NNW 10.0 mph16.1 kmh 30.08 in1018.6 mb 0.00 in0.0 mm 0.00 in0.0 mm 0.11 in2.8 mm
08:56 AM 29.8°F-1.2°C 14.7°F-9.6°C 53% 7.0 mph NE11.3 kmh NE 10.0 mph16.1 kmh 30.08 in1018.6 mb 0.00 in0.0 mm 0.00 in0.0 mm 0.11 in2.8 mm
08:57 AM 29.8°F-1.2°C 14.7°F-9.6°C 53% 6.0 mph NNW9.7 kmh NNW 10.0 mph16.1 kmh 30.08 in1018.6 mb 0.00 in0.0 mm 0.00 in0.0 mm 0.11 in2.8 mm
08:58 AM 29.8°F-1.2°C 13.8°F-10.1°C 51% 4.0 mph NNW6.4 kmh NNW 10.0 mph16.1 kmh 30.09 in1019.0 mb 0.00 in0.0 mm 0.00 in0.0 mm 0.11 in2.8 mm
08:59 AM 29.8°F-1.2°C 13.8°F-10.1°C 51% 3.0 mph NNE4.8 kmh NNE 10.0 mph16.1 kmh 30.09 in1019.0 mb 0.00 in0.0 mm 0.00 in0.0 mm 0.11 in2.8 mm
09:00 AM 29.8°F-1.2°C 14.7°F-9.6°C 53% 9.0 mph NNW14.5 kmh NNW 10.0 mph16.1 kmh 30.09 in1019.0 mb 0.00 in0.0 mm 0.00 in0.0 mm 0.11 in2.8 mm
09:01 AM 29.8°F-1.2°C 14.7°F-9.6°C 53% 6.0 mph NNW9.7 kmh NNW 10.0 mph16.1 kmh 30.09 in1019.0 mb 0.00 in0.0 mm 0.00 in0.0 mm 0.11 in2.8 mm
09:02 AM 29.8°F-1.2°C 14.7°F-9.6°C 53% 6.0 mph 9.7 kmh 9.0 mph14.5 kmh 30.09 in1019.0 mb 0.00 in0.0 mm 0.00 in0.0 mm 0.11 in2.8 mm
09:03 AM 29.8°F-1.2°C 13.8°F-10.1°C 51% 8.0 mph 12.9 kmh 9.0 mph14.5 kmh 30.09 in1019.0 mb 0.00 in0.0 mm 0.00 in0.0 mm 0.11 in2.8 mm
09:04 AM 29.8°F-1.2°C 13.8°F-10.1°C 51% 10.0 mph NW16.1 kmh NW 10.0 mph16.1 kmh 30.09 in1019.0 mb 0.00 in0.0 mm 0.00 in0.0 mm 0.11 in2.8 mm
09:05 AM 29.8°F-1.2°C 13.8°F-10.1°C 51% 6.0 mph NNE9.7 kmh NNE 10.0 mph16.1 kmh 30.09 in1019.0 mb 0.00 in0.0 mm 0.00 in0.0 mm 0.11 in2.8 mm
09:06 AM 29.8°F-1.2°C 13.8°F-10.1°C 51% 6.0 mph NNE9.7 kmh NNE 10.0 mph16.1 kmh 30.09 in1019.0 mb 0.00 in0.0 mm 0.00 in0.0 mm 0.11 in2.8 mm
09:07 AM 29.8°F-1.2°C 13.8°F-10.1°C 51% 6.0 mph NNE9.7 kmh NNE 10.0 mph16.1 kmh 30.09 in1019.0 mb 0.00 in0.0 mm 0.00 in0.0 mm 0.11 in2.8 mm
09:08 AM 29.8°F-1.2°C 13.8°F-10.1°C 51% 6.0 mph NNE9.7 kmh NNE 10.0 mph16.1 kmh 30.10 in1019.3 mb 0.00 in0.0 mm 0.00 in0.0 mm 0.11 in2.8 mm
09:09 AM 29.8°F-1.2°C 13.8°F-10.1°C 51% 4.0 mph 6.4 kmh 10.0 mph16.1 kmh 30.10 in1019.3 mb 0.00 in0.0 mm 0.00 in0.0 mm 0.11 in2.8 mm
09:10 AM 29.8°F-1.2°C 13.8°F-10.1°C 51% 3.0 mph NNW4.8 kmh NNW 10.0 mph16.1 kmh 30.09 in1019.0 mb 0.00 in0.0 mm 0.00 in0.0 mm 0.11 in2.8 mm
09:11 AM 29.8°F-1.2°C 14.7°F-9.6°C 53% 5.0 mph NNW8.0 kmh NNW 10.0 mph16.1 kmh 30.10 in1019.3 mb 0.00 in0.0 mm 0.00 in0.0 mm 0.11 in2.8 mm
09:12 AM 29.8°F-1.2°C 14.7°F-9.6°C 53% 7.0 mph NNE11.3 kmh NNE 10.0 mph16.1 kmh 30.10 in1019.3 mb 0.00 in0.0 mm 0.00 in0.0 mm 0.11 in2.8 mm
09:13 AM 29.8°F-1.2°C 14.7°F-9.6°C 53% 7.0 mph NNE11.3 kmh NNE 10.0 mph16.1 kmh 30.09 in1019.0 mb 0.00 in0.0 mm 0.00 in0.0 mm 0.11 in2.8 mm
09:14 AM 29.8°F-1.2°C 14.7°F-9.6°C 53% 6.0 mph WNW9.7 kmh WNW 8.0 mph12.9 kmh 30.09 in1019.0 mb 0.00 in0.0 mm 0.00 in0.0 mm 0.11 in2.8 mm
09:15 AM 29.8°F-1.2°C 14.7°F-9.6°C 53% 6.0 mph WNW9.7 kmh WNW 8.0 mph12.9 kmh 30.10 in1019.3 mb 0.00 in0.0 mm 0.00 in0.0 mm 0.11 in2.8 mm
09:16 AM 29.8°F-1.2°C 14.7°F-9.6°C 53% 7.0 mph 11.3 kmh 8.0 mph12.9 kmh 30.09 in1019.0 mb 0.00 in0.0 mm 0.00 in0.0 mm 0.11 in2.8 mm
09:17 AM 29.8°F-1.2°C 14.7°F-9.6°C 53% 10.0 mph 16.1 kmh 10.0 mph16.1 kmh 30.09 in1019.0 mb 0.00 in0.0 mm 0.00 in0.0 mm 0.11 in2.8 mm
09:18 AM 30.0°F-1.1°C 14.0°F-10.0°C 51% 6.0 mph 9.7 kmh 10.0 mph16.1 kmh 30.10 in1019.3 mb 0.00 in0.0 mm 0.00 in0.0 mm 0.11 in2.8 mm
09:19 AM 30.0°F-1.1°C 14.0°F-10.0°C 51% 6.0 mph 9.7 kmh 10.0 mph16.1 kmh 30.11 in1019.6 mb 0.00 in0.0 mm 0.00 in0.0 mm 0.11 in2.8 mm
09:20 AM 30.0°F-1.1°C 14.9°F-9.5°C 53% 3.0 mph NNW4.8 kmh NNW 10.0 mph16.1 kmh 30.10 in1019.3 mb 0.00 in0.0 mm 0.00 in0.0 mm 0.11 in2.8 mm
09:21 AM 30.0°F-1.1°C 14.9°F-9.5°C 53% 6.0 mph WNW9.7 kmh WNW 11.0 mph17.7 kmh 30.10 in1019.3 mb 0.00 in0.0 mm 0.00 in0.0 mm 0.11 in2.8 mm
09:22 AM 30.0°F-1.1°C 14.0°F-10.0°C 51% 7.0 mph NW11.3 kmh NW 11.0 mph17.7 kmh 30.10 in1019.3 mb 0.00 in0.0 mm 0.00 in0.0 mm 0.11 in2.8 mm
09:23 AM 30.0°F-1.1°C 14.0°F-10.0°C 51% 7.0 mph NW11.3 kmh NW 11.0 mph17.7 kmh 30.10 in1019.3 mb 0.00 in0.0 mm 0.00 in0.0 mm 0.11 in2.8 mm
09:24 AM 30.0°F-1.1°C 14.0°F-10.0°C 51% 13.0 mph NW20.9 kmh NW 13.0 mph20.9 kmh 30.11 in1019.6 mb 0.00 in0.0 mm 0.00 in0.0 mm 0.11 in2.8 mm
09:25 AM 30.0°F-1.1°C 14.0°F-10.0°C 51% 6.0 mph WNW9.7 kmh WNW 13.0 mph20.9 kmh 30.10 in1019.3 mb 0.00 in0.0 mm 0.00 in0.0 mm 0.11 in2.8 mm
09:26 AM 30.0°F-1.1°C 14.0°F-10.0°C 51% 7.0 mph 11.3 kmh 13.0 mph20.9 kmh 30.10 in1019.3 mb 0.00 in0.0 mm 0.00 in0.0 mm 0.11 in2.8 mm
09:27 AM 30.0°F-1.1°C 14.0°F-10.0°C 51% 7.0 mph NE11.3 kmh NE 13.0 mph20.9 kmh 30.10 in1019.3 mb 0.00 in0.0 mm 0.00 in0.0 mm 0.11 in2.8 mm
09:28 AM 30.0°F-1.1°C 14.0°F-10.0°C 51% 7.0 mph NE11.3 kmh NE 13.0 mph20.9 kmh 30.11 in1019.6 mb 0.00 in0.0 mm 0.00 in0.0 mm 0.11 in2.8 mm
09:29 AM 30.0°F-1.1°C 14.0°F-10.0°C 51% 9.0 mph NNE14.5 kmh NNE 13.0 mph20.9 kmh 30.11 in1019.6 mb 0.00 in0.0 mm 0.00 in0.0 mm 0.11 in2.8 mm
09:30 AM 30.0°F-1.1°C 14.0°F-10.0°C 51% 8.0 mph 12.9 kmh 13.0 mph20.9 kmh 30.11 in1019.6 mb 0.00 in0.0 mm 0.00 in0.0 mm 0.11 in2.8 mm
09:31 AM 30.0°F-1.1°C 14.9°F-9.5°C 53% 7.0 mph NNE11.3 kmh NNE 13.0 mph20.9 kmh 30.11 in1019.6 mb 0.00 in0.0 mm 0.00 in0.0 mm 0.11 in2.8 mm
09:32 AM 30.0°F-1.1°C 14.9°F-9.5°C 53% 6.0 mph W9.7 kmh W 13.0 mph20.9 kmh 30.11 in1019.6 mb 0.00 in0.0 mm 0.00 in0.0 mm 0.11 in2.8 mm
09:33 AM 30.0°F-1.1°C 14.9°F-9.5°C 53% 5.0 mph W8.0 kmh W 13.0 mph20.9 kmh 30.11 in1019.6 mb 0.00 in0.0 mm 0.00 in0.0 mm 0.11 in2.8 mm
09:34 AM 30.0°F-1.1°C 14.9°F-9.5°C 53% 8.0 mph 12.9 kmh 9.0 mph14.5 kmh 30.11 in1019.6 mb 0.00 in0.0 mm 0.00 in0.0 mm 0.11 in2.8 mm
09:35 AM 30.0°F-1.1°C 14.0°F-10.0°C 51% 10.0 mph 16.1 kmh 10.0 mph16.1 kmh 30.11 in1019.6 mb 0.00 in0.0 mm 0.00 in0.0 mm 0.11 in2.8 mm
09:36 AM 30.0°F-1.1°C 14.0°F-10.0°C 51% 5.0 mph NNE8.0 kmh NNE 10.0 mph16.1 kmh 30.10 in1019.3 mb 0.00 in0.0 mm 0.00 in0.0 mm 0.11 in2.8 mm
09:37 AM 30.0°F-1.1°C 14.0°F-10.0°C 51% 7.0 mph NW11.3 kmh NW 10.0 mph16.1 kmh 30.10 in1019.3 mb 0.00 in0.0 mm 0.00 in0.0 mm 0.11 in2.8 mm
09:38 AM 30.0°F-1.1°C 14.0°F-10.0°C 51% 8.0 mph NNE12.9 kmh NNE 10.0 mph16.1 kmh 30.11 in1019.6 mb 0.00 in0.0 mm 0.00 in0.0 mm 0.11 in2.8 mm
09:39 AM 30.0°F-1.1°C 14.0°F-10.0°C 51% 11.0 mph NNE17.7 kmh NNE 11.0 mph17.7 kmh 30.12 in1020.0 mb 0.00 in0.0 mm 0.00 in0.0 mm 0.11 in2.8 mm
09:40 AM 30.0°F-1.1°C 14.0°F-10.0°C 51% 9.0 mph WNW14.5 kmh WNW 11.0 mph17.7 kmh 30.12 in1020.0 mb 0.00 in0.0 mm 0.00 in0.0 mm 0.11 in2.8 mm
09:41 AM 30.0°F-1.1°C 14.0°F-10.0°C 51% 7.0 mph NNW11.3 kmh NNW 11.0 mph17.7 kmh 30.12 in1020.0 mb 0.00 in0.0 mm 0.00 in0.0 mm 0.11 in2.8 mm
09:42 AM 30.0°F-1.1°C 14.9°F-9.5°C 53% 6.0 mph 9.7 kmh 11.0 mph17.7 kmh 30.11 in1019.6 mb 0.00 in0.0 mm 0.00 in0.0 mm 0.11 in2.8 mm
09:43 AM 30.0°F-1.1°C 14.0°F-10.0°C 51% 5.0 mph NNE8.0 kmh NNE 11.0 mph17.7 kmh 30.11 in1019.6 mb 0.00 in0.0 mm 0.00 in0.0 mm 0.11 in2.8 mm
09:44 AM 30.0°F-1.1°C 14.0°F-10.0°C 51% 9.0 mph NNE14.5 kmh NNE 11.0 mph17.7 kmh 30.11 in1019.6 mb 0.00 in0.0 mm 0.00 in0.0 mm 0.11 in2.8 mm
09:45 AM 30.1°F-1.1°C 13.6°F-10.2°C 50% 9.0 mph WNW14.5 kmh WNW 11.0 mph17.7 kmh 30.11 in1019.6 mb 0.00 in0.0 mm 0.00 in0.0 mm 0.11 in2.8 mm
09:46 AM 30.1°F-1.1°C 13.6°F-10.2°C 50% 9.0 mph WNW14.5 kmh WNW 11.0 mph17.7 kmh 30.11 in1019.6 mb 0.00 in0.0 mm 0.00 in0.0 mm 0.11 in2.8 mm
09:47 AM 30.1°F-1.1°C 13.6°F-10.2°C 50% 6.0 mph NNE9.7 kmh NNE 11.0 mph17.7 kmh 30.11 in1019.6 mb 0.00 in0.0 mm 0.00 in0.0 mm 0.11 in2.8 mm
09:48 AM 30.1°F-1.1°C 13.6°F-10.2°C 50% 6.0 mph NNW9.7 kmh NNW 11.0 mph17.7 kmh 30.11 in1019.6 mb 0.00 in0.0 mm 0.00 in0.0 mm 0.11 in2.8 mm
09:49 AM 30.1°F-1.1°C 13.6°F-10.2°C 50% 5.0 mph NNE8.0 kmh NNE 11.0 mph17.7 kmh 30.12 in1020.0 mb 0.00 in0.0 mm 0.00 in0.0 mm 0.11 in2.8 mm
09:50 AM 30.1°F-1.1°C 13.6°F-10.2°C 50% 8.0 mph NW12.9 kmh NW 11.0 mph17.7 kmh 30.12 in1020.0 mb 0.00 in0.0 mm 0.00 in0.0 mm 0.11 in2.8 mm
09:51 AM 30.1°F-1.1°C 13.6°F-10.2°C 50% 7.0 mph NW11.3 kmh NW 11.0 mph17.7 kmh 30.12 in1020.0 mb 0.00 in0.0 mm 0.00 in0.0 mm 0.11 in2.8 mm
09:52 AM 30.1°F-1.1°C 14.1°F-9.9°C 51% 4.0 mph NW6.4 kmh NW 11.0 mph17.7 kmh 30.12 in1020.0 mb 0.00 in0.0 mm 0.00 in0.0 mm 0.11 in2.8 mm
09:53 AM 30.1°F-1.1°C 13.6°F-10.2°C 50% 7.0 mph NW11.3 kmh NW 11.0 mph17.7 kmh 30.12 in1020.0 mb 0.00 in0.0 mm 0.00 in0.0 mm 0.11 in2.8 mm
09:54 AM 30.1°F-1.1°C 13.6°F-10.2°C 50% 5.0 mph 8.0 kmh 11.0 mph17.7 kmh 30.12 in1020.0 mb 0.00 in0.0 mm 0.00 in0.0 mm 0.11 in2.8 mm
09:55 AM 30.1°F-1.1°C 13.6°F-10.2°C 50% 4.0 mph NE6.4 kmh NE 11.0 mph17.7 kmh 30.12 in1020.0 mb 0.00 in0.0 mm 0.00 in0.0 mm 0.11 in2.8 mm
09:56 AM 30.3°F-0.9°C 13.8°F-10.1°C 50% 7.0 mph NE11.3 kmh NE 10.0 mph16.1 kmh 30.12 in1020.0 mb 0.00 in0.0 mm 0.00 in0.0 mm 0.11 in2.8 mm
09:57 AM 30.3°F-0.9°C 13.8°F-10.1°C 50% 8.0 mph NE12.9 kmh NE 10.0 mph16.1 kmh 30.12 in1020.0 mb 0.00 in0.0 mm 0.00 in0.0 mm 0.11 in2.8 mm
09:58 AM 30.3°F-0.9°C 13.8°F-10.1°C 50% 10.0 mph WNW16.1 kmh WNW 10.0 mph16.1 kmh 30.13 in1020.3 mb 0.00 in0.0 mm 0.00 in0.0 mm 0.11 in2.8 mm
09:59 AM 30.3°F-0.9°C 13.8°F-10.1°C 50% 6.0 mph NNE9.7 kmh NNE 10.0 mph16.1 kmh 30.12 in1020.0 mb 0.00 in0.0 mm 0.00 in0.0 mm 0.11 in2.8 mm
10:00 AM 30.5°F-0.8°C 14.0°F-10.0°C 50% 5.0 mph NE8.0 kmh NE 10.0 mph16.1 kmh 30.12 in1020.0 mb 0.00 in0.0 mm 0.00 in0.0 mm 0.11 in2.8 mm
10:01 AM 30.5°F-0.8°C 14.0°F-10.0°C 50% 5.0 mph NE8.0 kmh NE 10.0 mph16.1 kmh 30.12 in1020.0 mb 0.00 in0.0 mm 0.00 in0.0 mm 0.11 in2.8 mm
10:02 AM 30.5°F-0.8°C 14.0°F-10.0°C 50% 7.0 mph NW11.3 kmh NW 10.0 mph16.1 kmh 30.12 in1020.0 mb 0.00 in0.0 mm 0.00 in0.0 mm 0.11 in2.8 mm
10:03 AM 30.5°F-0.8°C 14.0°F-10.0°C 50% 5.0 mph 8.0 kmh 10.0 mph16.1 kmh 30.12 in1020.0 mb 0.00 in0.0 mm 0.00 in0.0 mm 0.11 in2.8 mm
10:04 AM 30.5°F-0.8°C 14.0°F-10.0°C 50% 5.0 mph 8.0 kmh 10.0 mph16.1 kmh 30.12 in1020.0 mb 0.00 in0.0 mm 0.00 in0.0 mm 0.11 in2.8 mm
10:05 AM 30.5°F-0.8°C 14.0°F-10.0°C 50% 8.0 mph 12.9 kmh 10.0 mph16.1 kmh 30.12 in1020.0 mb 0.00 in0.0 mm 0.00 in0.0 mm 0.11 in2.8 mm
10:06 AM 30.5°F-0.8°C 14.0°F-10.0°C 50% 8.0 mph 12.9 kmh 10.0 mph16.1 kmh 30.12 in1020.0 mb 0.00 in0.0 mm 0.00 in0.0 mm 0.11 in2.8 mm
10:07 AM 30.5°F-0.8°C 14.0°F-10.0°C 50% 8.0 mph NW12.9 kmh NW 10.0 mph16.1 kmh 30.12 in1020.0 mb 0.00 in0.0 mm 0.00 in0.0 mm 0.11 in2.8 mm
10:08 AM 30.5°F-0.8°C 14.0°F-10.0°C 50% 8.0 mph NNW12.9 kmh NNW 8.0 mph12.9 kmh 30.13 in1020.3 mb 0.00 in0.0 mm 0.00 in0.0 mm 0.11 in2.8 mm
10:09 AM 30.5°F-0.8°C 14.0°F-10.0°C 50% 7.0 mph NNW11.3 kmh NNW 8.0 mph12.9 kmh 30.12 in1020.0 mb 0.00 in0.0 mm 0.00 in0.0 mm 0.11 in2.8 mm
10:10 AM 30.5°F-0.8°C 14.0°F-10.0°C 50% 7.0 mph NNW11.3 kmh NNW 8.0 mph12.9 kmh 30.13 in1020.3 mb 0.00 in0.0 mm 0.00 in0.0 mm 0.11 in2.8 mm
10:11 AM 30.5°F-0.8°C 14.0°F-10.0°C 50% 11.0 mph 17.7 kmh 12.0 mph19.3 kmh 30.13 in1020.3 mb 0.00 in0.0 mm 0.00 in0.0 mm 0.11 in2.8 mm
10:12 AM 30.5°F-0.8°C 14.0°F-10.0°C 50% 8.0 mph NNE12.9 kmh NNE 12.0 mph19.3 kmh 30.13 in1020.3 mb 0.00 in0.0 mm 0.00 in0.0 mm 0.11 in2.8 mm
10:13 AM 30.5°F-0.8°C 14.0°F-10.0°C 50% 8.0 mph NNW12.9 kmh NNW 12.0 mph19.3 kmh 30.13 in1020.3 mb 0.00 in0.0 mm 0.00 in0.0 mm 0.11 in2.8 mm
10:14 AM 30.3°F-0.9°C 13.8°F-10.1°C 50% 5.0 mph NNE8.0 kmh NNE 12.0 mph19.3 kmh 30.13 in1020.3 mb 0.00 in0.0 mm 0.00 in0.0 mm 0.11 in2.8 mm
10:15 AM 30.3°F-0.9°C 13.8°F-10.1°C 50% 6.0 mph NNW9.7 kmh NNW 12.0 mph19.3 kmh 30.13 in1020.3 mb 0.00 in0.0 mm 0.00 in0.0 mm 0.11 in2.8 mm
10:16 AM 30.3°F-0.9°C 13.8°F-10.1°C 50% 11.0 mph 17.7 kmh 12.0 mph19.3 kmh 30.12 in1020.0 mb 0.00 in0.0 mm 0.00 in0.0 mm 0.11 in2.8 mm
10:17 AM 30.3°F-0.9°C 13.8°F-10.1°C 50% 13.0 mph 20.9 kmh 13.0 mph20.9 kmh 30.12 in1020.0 mb 0.00 in0.0 mm 0.00 in0.0 mm 0.11 in2.8 mm
10:18 AM 30.3°F-0.9°C 13.8°F-10.1°C 50% 8.0 mph 12.9 kmh 13.0 mph20.9 kmh 30.12 in1020.0 mb 0.00 in0.0 mm 0.00 in0.0 mm 0.11 in2.8 mm
10:19 AM 30.3°F-0.9°C 13.8°F-10.1°C 50% 8.0 mph 12.9 kmh 13.0 mph20.9 kmh 30.13 in1020.3 mb 0.00 in0.0 mm 0.00 in0.0 mm 0.11 in2.8 mm
10:20 AM 30.3°F-0.9°C 13.8°F-10.1°C 50% 7.0 mph NNE11.3 kmh NNE 13.0 mph20.9 kmh 30.13 in1020.3 mb 0.00 in0.0 mm 0.00 in0.0 mm 0.11 in2.8 mm
10:21 AM 30.3°F-0.9°C 13.8°F-10.1°C 50% 7.0 mph NNE11.3 kmh NNE 13.0 mph20.9 kmh 30.13 in1020.3 mb 0.00 in0.0 mm 0.00 in0.0 mm 0.11 in2.8 mm
10:22 AM 30.3°F-0.9°C 13.8°F-10.1°C 50% 8.0 mph 12.9 kmh 13.0 mph20.9 kmh 30.13 in1020.3 mb 0.00 in0.0 mm 0.00 in0.0 mm 0.11 in2.8 mm
10:23 AM 30.3°F-0.9°C 13.8°F-10.1°C 50% 7.0 mph 11.3 kmh 13.0 mph20.9 kmh 30.13 in1020.3 mb 0.00 in0.0 mm 0.00 in0.0 mm 0.11 in2.8 mm
10:24 AM 30.3°F-0.9°C 13.8°F-10.1°C 50% 6.0 mph 9.7 kmh 13.0 mph20.9 kmh 30.12 in1020.0 mb 0.00 in0.0 mm 0.00 in0.0 mm 0.11 in2.8 mm
10:25 AM 30.3°F-0.9°C 13.8°F-10.1°C 50% 6.0 mph NNW9.7 kmh NNW 13.0 mph20.9 kmh 30.12 in1020.0 mb 0.00 in0.0 mm 0.00 in0.0 mm 0.11 in2.8 mm
10:26 AM 30.3°F-0.9°C 14.3°F-9.8°C 51% 6.0 mph NNW9.7 kmh NNW 13.0 mph20.9 kmh 30.13 in1020.3 mb 0.00 in0.0 mm 0.00 in0.0 mm 0.11 in2.8 mm
10:27 AM 30.3°F-0.9°C 14.3°F-9.8°C 51% 9.0 mph NNW14.5 kmh NNW 10.0 mph16.1 kmh 30.13 in1020.3 mb 0.00 in0.0 mm 0.00 in0.0 mm 0.11 in2.8 mm
10:28 AM 30.3°F-0.9°C 14.3°F-9.8°C 51% 7.0 mph NNE11.3 kmh NNE 10.0 mph16.1 kmh 30.13 in1020.3 mb 0.00 in0.0 mm 0.00 in0.0 mm 0.11 in2.8 mm
10:29 AM 30.5°F-0.8°C 14.0°F-10.0°C 50% 9.0 mph NNE14.5 kmh NNE 10.0 mph16.1 kmh 30.13 in1020.3 mb 0.00 in0.0 mm 0.00 in0.0 mm 0.11 in2.8 mm
10:30 AM 30.7°F-0.7°C 14.2°F-9.9°C 50% 9.0 mph NE14.5 kmh NE 10.0 mph16.1 kmh 30.13 in1020.3 mb 0.00 in0.0 mm 0.00 in0.0 mm 0.11 in2.8 mm
10:31 AM 30.7°F-0.7°C 14.2°F-9.9°C 50% 5.0 mph NNW8.0 kmh NNW 10.0 mph16.1 kmh 30.13 in1020.3 mb 0.00 in0.0 mm 0.00 in0.0 mm 0.11 in2.8 mm
10:32 AM 30.9°F-0.6°C 14.4°F-9.8°C 50% 7.0 mph NNE11.3 kmh NNE 10.0 mph16.1 kmh 30.13 in1020.3 mb 0.00 in0.0 mm 0.00 in0.0 mm 0.11 in2.8 mm
10:33 AM 30.9°F-0.6°C 14.4°F-9.8°C 50% 7.0 mph NNW11.3 kmh NNW 10.0 mph16.1 kmh 30.13 in1020.3 mb 0.00 in0.0 mm 0.00 in0.0 mm 0.11 in2.8 mm
10:34 AM 31.1°F-0.5°C 14.6°F-9.7°C 50% 8.0 mph NNW12.9 kmh NNW 10.0 mph16.1 kmh 30.13 in1020.3 mb 0.00 in0.0 mm 0.00 in0.0 mm 0.11 in2.8 mm
10:35 AM 31.1°F-0.5°C 14.6°F-9.7°C 50% 5.0 mph WNW8.0 kmh WNW 9.0 mph14.5 kmh 30.13 in1020.3 mb 0.00 in0.0 mm 0.00 in0.0 mm 0.11 in2.8 mm
10:36 AM 31.1°F-0.5°C 14.6°F-9.7°C 50% 5.0 mph WNW8.0 kmh WNW 9.0 mph14.5 kmh 30.13 in1020.3 mb 0.00 in0.0 mm 0.00 in0.0 mm 0.11 in2.8 mm
10:37 AM 31.2°F-0.4°C 14.6°F-9.7°C 50% 5.0 mph WNW8.0 kmh WNW 9.0 mph14.5 kmh 30.13 in1020.3 mb 0.00 in0.0 mm 0.00 in0.0 mm 0.11 in2.8 mm
10:38 AM 31.2°F-0.4°C 14.6°F-9.7°C 50% 8.0 mph 12.9 kmh 9.0 mph14.5 kmh 30.13 in1020.3 mb 0.00 in0.0 mm 0.00 in0.0 mm 0.11 in2.8 mm
10:39 AM 31.2°F-0.4°C 14.6°F-9.7°C 50% 8.0 mph 12.9 kmh 9.0 mph14.5 kmh 30.13 in1020.3 mb 0.00 in0.0 mm 0.00 in0.0 mm 0.11 in2.8 mm
10:40 AM 31.2°F-0.4°C 14.6°F-9.7°C 50% 6.0 mph NNE9.7 kmh NNE 9.0 mph14.5 kmh 30.13 in1020.3 mb 0.00 in0.0 mm 0.00 in0.0 mm 0.11 in2.8 mm
10:41 AM 31.2°F-0.4°C 14.6°F-9.7°C 50% 6.0 mph NNE9.7 kmh NNE 9.0 mph14.5 kmh 30.13 in1020.3 mb 0.00 in0.0 mm 0.00 in0.0 mm 0.11 in2.8 mm
10:42 AM 31.2°F-0.4°C 14.6°F-9.7°C 50% 8.0 mph NNE12.9 kmh NNE 8.0 mph12.9 kmh 30.14 in1020.7 mb 0.00 in0.0 mm 0.00 in0.0 mm 0.11 in2.8 mm
10:43 AM 31.2°F-0.4°C 14.6°F-9.7°C 50% 8.0 mph NNE12.9 kmh NNE 8.0 mph12.9 kmh 30.14 in1020.7 mb 0.00 in0.0 mm 0.00 in0.0 mm 0.11 in2.8 mm
10:44 AM 31.2°F-0.4°C 14.6°F-9.7°C 50% 5.0 mph NNE8.0 kmh NNE 8.0 mph12.9 kmh 30.14 in1020.7 mb 0.00 in0.0 mm 0.00 in0.0 mm 0.11 in2.8 mm
10:45 AM 31.2°F-0.4°C 14.6°F-9.7°C 50% 6.0 mph NNE9.7 kmh NNE 8.0 mph12.9 kmh 30.13 in1020.3 mb 0.00 in0.0 mm 0.00 in0.0 mm 0.11 in2.8 mm
10:46 AM 31.4°F-0.3°C 14.8°F-9.6°C 50% 7.0 mph 11.3 kmh 8.0 mph12.9 kmh 30.13 in1020.3 mb 0.00 in0.0 mm 0.00 in0.0 mm 0.11 in2.8 mm
10:47 AM 31.4°F-0.3°C 14.8°F-9.6°C 50% 8.0 mph 12.9 kmh 8.0 mph12.9 kmh 30.14 in1020.7 mb 0.00 in0.0 mm 0.00 in0.0 mm 0.11 in2.8 mm
10:48 AM 31.4°F-0.3°C 14.8°F-9.6°C 50% 7.0 mph NW11.3 kmh NW 8.0 mph12.9 kmh 30.14 in1020.7 mb 0.00 in0.0 mm 0.00 in0.0 mm 0.11 in2.8 mm
10:49 AM 31.2°F-0.4°C 14.6°F-9.7°C 50% 13.0 mph NNW20.9 kmh NNW 13.0 mph20.9 kmh 30.13 in1020.3 mb 0.00 in0.0 mm 0.00 in0.0 mm 0.11 in2.8 mm
10:50 AM 31.2°F-0.4°C 14.6°F-9.7°C 50% 9.0 mph E14.5 kmh E 13.0 mph20.9 kmh 30.13 in1020.3 mb 0.00 in0.0 mm 0.00 in0.0 mm 0.11 in2.8 mm
10:51 AM 31.4°F-0.3°C 14.8°F-9.6°C 50% 6.0 mph NNE9.7 kmh NNE 13.0 mph20.9 kmh 30.13 in1020.3 mb 0.00 in0.0 mm 0.00 in0.0 mm 0.11 in2.8 mm
10:52 AM 31.4°F-0.3°C 14.8°F-9.6°C 50% 9.0 mph W14.5 kmh W 13.0 mph20.9 kmh 30.13 in1020.3 mb 0.00 in0.0 mm 0.00 in0.0 mm 0.11 in2.8 mm
10:53 AM 31.6°F-0.2°C 15.0°F-9.4°C 50% 5.0 mph W8.0 kmh W 13.0 mph20.9 kmh 30.13 in1020.3 mb 0.00 in0.0 mm 0.00 in0.0 mm 0.11 in2.8 mm
10:54 AM 31.6°F-0.2°C 15.0°F-9.4°C 50% 6.0 mph NNE9.7 kmh NNE 13.0 mph20.9 kmh 30.13 in1020.3 mb 0.00 in0.0 mm 0.00 in0.0 mm 0.11 in2.8 mm
10:55 AM 31.6°F-0.2°C 15.0°F-9.4°C 50% 6.0 mph 9.7 kmh 13.0 mph20.9 kmh 30.13 in1020.3 mb 0.00 in0.0 mm 0.00 in0.0 mm 0.11 in2.8 mm
10:56 AM 31.4°F-0.3°C 14.8°F-9.6°C 50% 11.0 mph NNE17.7 kmh NNE 13.0 mph20.9 kmh 30.13 in1020.3 mb 0.00 in0.0 mm 0.00 in0.0 mm 0.11 in2.8 mm
10:57 AM 31.4°F-0.3°C 14.8°F-9.6°C 50% 11.0 mph NNE17.7 kmh NNE 13.0 mph20.9 kmh 30.13 in1020.3 mb 0.00 in0.0 mm 0.00 in0.0 mm 0.11 in2.8 mm
10:58 AM 31.4°F-0.3°C 14.8°F-9.6°C 50% 5.0 mph ENE8.0 kmh ENE 13.0 mph20.9 kmh 30.13 in1020.3 mb 0.00 in0.0 mm 0.00 in0.0 mm 0.11 in2.8 mm
10:59 AM 31.4°F-0.3°C 14.8°F-9.6°C 50% 7.0 mph NNW11.3 kmh NNW 13.0 mph20.9 kmh 30.14 in1020.7 mb 0.00 in0.0 mm 0.00 in0.0 mm 0.11 in2.8 mm
11:00 AM 31.6°F-0.2°C 15.0°F-9.4°C 50% 7.0 mph NNW11.3 kmh NNW 11.0 mph17.7 kmh 30.13 in1020.3 mb 0.00 in0.0 mm 0.00 in0.0 mm 0.11 in2.8 mm
11:01 AM 31.8°F-0.1°C 15.2°F-9.3°C 50% 11.0 mph NW17.7 kmh NW 11.0 mph17.7 kmh 30.13 in1020.3 mb 0.00 in0.0 mm 0.00 in0.0 mm 0.11 in2.8 mm
11:02 AM 31.8°F-0.1°C 15.2°F-9.3°C 50% 11.0 mph NW17.7 kmh NW 11.0 mph17.7 kmh 30.13 in1020.3 mb 0.00 in0.0 mm 0.00 in0.0 mm 0.11 in2.8 mm
11:03 AM 31.8°F-0.1°C 15.2°F-9.3°C 50% 3.0 mph WNW4.8 kmh WNW 11.0 mph17.7 kmh 30.13 in1020.3 mb 0.00 in0.0 mm 0.00 in0.0 mm 0.11 in2.8 mm
11:04 AM 31.8°F-0.1°C 15.2°F-9.3°C 50% 8.0 mph NNE12.9 kmh NNE 11.0 mph17.7 kmh 30.13 in1020.3 mb 0.00 in0.0 mm 0.00 in0.0 mm 0.11 in2.8 mm
11:05 AM 31.8°F-0.1°C 15.2°F-9.3°C 50% 9.0 mph WSW14.5 kmh WSW 11.0 mph17.7 kmh 30.13 in1020.3 mb 0.00 in0.0 mm 0.00 in0.0 mm 0.11 in2.8 mm
11:06 AM 31.8°F-0.1°C 15.2°F-9.3°C 50% 8.0 mph NNE12.9 kmh NNE 11.0 mph17.7 kmh 30.13 in1020.3 mb 0.00 in0.0 mm 0.00 in0.0 mm 0.11 in2.8 mm
11:07 AM 31.8°F-0.1°C 15.2°F-9.3°C 50% 5.0 mph NNE8.0 kmh NNE 11.0 mph17.7 kmh 30.13 in1020.3 mb 0.00 in0.0 mm 0.00 in0.0 mm 0.11 in2.8 mm
11:08 AM 31.6°F-0.2°C 15.0°F-9.4°C 50% 10.0 mph 16.1 kmh 11.0 mph17.7 kmh 30.13 in1020.3 mb 0.00 in0.0 mm 0.00 in0.0 mm 0.11 in2.8 mm
11:09 AM 31.6°F-0.2°C 15.0°F-9.4°C 50% 7.0 mph 11.3 kmh 11.0 mph17.7 kmh 30.13 in1020.3 mb 0.00 in0.0 mm 0.00 in0.0 mm 0.11 in2.8 mm
11:10 AM 31.6°F-0.2°C 15.0°F-9.4°C 50% 7.0 mph 11.3 kmh 11.0 mph17.7 kmh 30.13 in1020.3 mb 0.01 in0.3 mm 0.60 in15.2 mm 0.12 in3.0 mm
11:11 AM 31.6°F-0.2°C 15.0°F-9.4°C 50% 7.0 mph 11.3 kmh 11.0 mph17.7 kmh 30.13 in1020.3 mb 0.01 in0.3 mm 0.00 in0.0 mm 0.12 in3.0 mm
11:12 AM 31.6°F-0.2°C 15.0°F-9.4°C 50% 6.0 mph NNW9.7 kmh NNW 11.0 mph17.7 kmh 30.14 in1020.7 mb 0.01 in0.3 mm 0.00 in0.0 mm 0.12 in3.0 mm
11:13 AM 31.6°F-0.2°C 15.0°F-9.4°C 50% 9.0 mph NNW14.5 kmh NNW 11.0 mph17.7 kmh 30.14 in1020.7 mb 0.01 in0.3 mm 0.00 in0.0 mm 0.12 in3.0 mm
11:14 AM 31.6°F-0.2°C 15.0°F-9.4°C 50% 9.0 mph NNW14.5 kmh NNW 11.0 mph17.7 kmh 30.14 in1020.7 mb 0.01 in0.3 mm 0.00 in0.0 mm 0.12 in3.0 mm
11:15 AM 31.6°F-0.2°C 15.0°F-9.4°C 50% 9.0 mph NNW14.5 kmh NNW 11.0 mph17.7 kmh 30.14 in1020.7 mb 0.01 in0.3 mm 0.00 in0.0 mm 0.12 in3.0 mm
11:16 AM 31.6°F-0.2°C 15.0°F-9.4°C 50% 6.0 mph 9.7 kmh 10.0 mph16.1 kmh 30.14 in1020.7 mb 0.01 in0.3 mm 0.00 in0.0 mm 0.12 in3.0 mm
11:17 AM 31.8°F-0.1°C 15.2°F-9.3°C 50% 10.0 mph W16.1 kmh W 10.0 mph16.1 kmh 30.14 in1020.7 mb 0.01 in0.3 mm 0.00 in0.0 mm 0.12 in3.0 mm
11:18 AM 31.8°F-0.1°C 15.2°F-9.3°C 50% 6.0 mph W9.7 kmh W 10.0 mph16.1 kmh 30.14 in1020.7 mb 0.01 in0.3 mm 0.00 in0.0 mm 0.12 in3.0 mm
11:19 AM 31.8°F-0.1°C 15.2°F-9.3°C 50% 9.0 mph NE14.5 kmh NE 11.0 mph17.7 kmh 30.13 in1020.3 mb 0.01 in0.3 mm 0.00 in0.0 mm 0.12 in3.0 mm
11:20 AM 31.8°F-0.1°C 15.2°F-9.3°C 50% 8.0 mph WNW12.9 kmh WNW 11.0 mph17.7 kmh 30.14 in1020.7 mb 0.01 in0.3 mm 0.00 in0.0 mm 0.12 in3.0 mm
11:21 AM 31.8°F-0.1°C 15.2°F-9.3°C 50% 8.0 mph NNE12.9 kmh NNE 11.0 mph17.7 kmh 30.14 in1020.7 mb 0.01 in0.3 mm 0.00 in0.0 mm 0.12 in3.0 mm
11:22 AM 31.9°F-0.1°C 14.8°F-9.6°C 49% 10.0 mph NE16.1 kmh NE 11.0 mph17.7 kmh 30.14 in1020.7 mb 0.01 in0.3 mm 0.00 in0.0 mm 0.12 in3.0 mm
11:23 AM 31.9°F-0.1°C 14.8°F-9.6°C 49% 7.0 mph NE11.3 kmh NE 11.0 mph17.7 kmh 30.15 in1021.0 mb 0.01 in0.3 mm 0.00 in0.0 mm 0.12 in3.0 mm
11:24 AM 31.9°F-0.1°C 14.8°F-9.6°C 49% 7.0 mph NE11.3 kmh NE 11.0 mph17.7 kmh 30.14 in1020.7 mb 0.01 in0.3 mm 0.00 in0.0 mm 0.12 in3.0 mm
11:25 AM 31.9°F-0.1°C 15.3°F-9.3°C 50% 7.0 mph NE11.3 kmh NE 11.0 mph17.7 kmh 30.14 in1020.7 mb 0.01 in0.3 mm 0.00 in0.0 mm 0.12 in3.0 mm
11:26 AM 31.9°F-0.1°C 14.8°F-9.6°C 49% 8.0 mph NNW12.9 kmh NNW 11.0 mph17.7 kmh 30.14 in1020.7 mb 0.01 in0.3 mm 0.00 in0.0 mm 0.12 in3.0 mm
11:27 AM 31.9°F-0.1°C 14.8°F-9.6°C 49% 9.0 mph NNW14.5 kmh NNW 11.0 mph17.7 kmh 30.14 in1020.7 mb 0.01 in0.3 mm 0.00 in0.0 mm 0.12 in3.0 mm
11:28 AM 31.9°F-0.1°C 15.3°F-9.3°C 50% 7.0 mph 11.3 kmh 11.0 mph17.7 kmh 30.14 in1020.7 mb 0.01 in0.3 mm 0.00 in0.0 mm 0.12 in3.0 mm
11:29 AM 31.9°F-0.1°C 15.3°F-9.3°C 50% 7.0 mph 11.3 kmh 11.0 mph17.7 kmh 30.14 in1020.7 mb 0.01 in0.3 mm 0.00 in0.0 mm 0.12 in3.0 mm
11:30 AM 31.9°F-0.1°C 15.3°F-9.3°C 50% 10.0 mph E16.1 kmh E 10.0 mph16.1 kmh 30.14 in1020.7 mb 0.01 in0.3 mm 0.00 in0.0 mm 0.12 in3.0 mm
11:31 AM 31.9°F-0.1°C 14.8°F-9.6°C 49% 8.0 mph NNE12.9 kmh NNE 10.0 mph16.1 kmh 30.14 in1020.7 mb 0.01 in0.3 mm 0.00 in0.0 mm 0.12 in3.0 mm
11:32 AM 31.9°F-0.1°C 14.8°F-9.6°C 49% 10.0 mph WNW16.1 kmh WNW 10.0 mph16.1 kmh 30.14 in1020.7 mb 0.01 in0.3 mm 0.00 in0.0 mm 0.12 in3.0 mm
11:33 AM 31.9°F-0.1°C 14.8°F-9.6°C 49% 9.0 mph WNW14.5 kmh WNW 10.0 mph16.1 kmh 30.14 in1020.7 mb 0.01 in0.3 mm 0.00 in0.0 mm 0.12 in3.0 mm
11:34 AM 31.9°F-0.1°C 14.8°F-9.6°C 49% 10.0 mph 16.1 kmh 10.0 mph16.1 kmh 30.15 in1021.0 mb 0.01 in0.3 mm 0.00 in0.0 mm 0.12 in3.0 mm
11:35 AM 31.9°F-0.1°C 14.8°F-9.6°C 49% 9.0 mph 14.5 kmh 10.0 mph16.1 kmh 30.15 in1021.0 mb 0.01 in0.3 mm 0.00 in0.0 mm 0.12 in3.0 mm
11:36 AM 31.9°F-0.1°C 14.8°F-9.6°C 49% 6.0 mph 9.7 kmh 10.0 mph16.1 kmh 30.14 in1020.7 mb 0.01 in0.3 mm 0.00 in0.0 mm 0.12 in3.0 mm
11:37 AM 31.9°F-0.1°C 14.8°F-9.6°C 49% 4.0 mph WNW6.4 kmh WNW 10.0 mph16.1 kmh 30.14 in1020.7 mb 0.01 in0.3 mm 0.00 in0.0 mm 0.12 in3.0 mm
11:38 AM 31.9°F-0.1°C 14.8°F-9.6°C 49% 5.0 mph NNE8.0 kmh NNE 10.0 mph16.1 kmh 30.14 in1020.7 mb 0.01 in0.3 mm 0.00 in0.0 mm 0.12 in3.0 mm
11:39 AM 31.9°F-0.1°C 14.8°F-9.6°C 49% 8.0 mph NW12.9 kmh NW 10.0 mph16.1 kmh 30.14 in1020.7 mb 0.01 in0.3 mm 0.00 in0.0 mm 0.12 in3.0 mm
11:40 AM 32.1°F0.1°C 15.5°F-9.2°C 50% 7.0 mph NNW11.3 kmh NNW 10.0 mph16.1 kmh 30.14 in1020.7 mb 0.01 in0.3 mm 0.00 in0.0 mm 0.12 in3.0 mm
11:41 AM 32.1°F0.1°C 15.0°F-9.4°C 49% 8.0 mph NNW12.9 kmh NNW 10.0 mph16.1 kmh 30.14 in1020.7 mb 0.01 in0.3 mm 0.00 in0.0 mm 0.12 in3.0 mm
11:42 AM 32.1°F0.1°C 15.0°F-9.4°C 49% 8.0 mph W12.9 kmh W 10.0 mph16.1 kmh 30.14 in1020.7 mb 0.01 in0.3 mm 0.00 in0.0 mm 0.12 in3.0 mm
11:43 AM 32.1°F0.1°C 15.5°F-9.2°C 50% 5.0 mph NW8.0 kmh NW 10.0 mph16.1 kmh 30.14 in1020.7 mb 0.01 in0.3 mm 0.00 in0.0 mm 0.12 in3.0 mm
11:44 AM 32.3°F0.2°C 15.2°F-9.3°C 49% 7.0 mph NW11.3 kmh NW 10.0 mph16.1 kmh 30.15 in1021.0 mb 0.01 in0.3 mm 0.00 in0.0 mm 0.12 in3.0 mm
11:45 AM 32.1°F0.1°C 15.0°F-9.4°C 49% 8.0 mph NNE12.9 kmh NNE 11.0 mph17.7 kmh 30.14 in1020.7 mb 0.01 in0.3 mm 0.00 in0.0 mm 0.12 in3.0 mm
11:46 AM 32.3°F0.2°C 15.2°F-9.3°C 49% 9.0 mph NNE14.5 kmh NNE 11.0 mph17.7 kmh 30.15 in1021.0 mb 0.01 in0.3 mm 0.00 in0.0 mm 0.12 in3.0 mm
11:47 AM 32.1°F0.1°C 15.0°F-9.4°C 49% 8.0 mph NNE12.9 kmh NNE 11.0 mph17.7 kmh 30.15 in1021.0 mb 0.01 in0.3 mm 0.00 in0.0 mm 0.12 in3.0 mm
11:48 AM 32.3°F0.2°C 15.2°F-9.3°C 49% 7.0 mph NNW11.3 kmh NNW 11.0 mph17.7 kmh 30.15 in1021.0 mb 0.01 in0.3 mm 0.00 in0.0 mm 0.12 in3.0 mm
11:49 AM 32.3°F0.2°C 15.2°F-9.3°C 49% 7.0 mph NNW11.3 kmh NNW 11.0 mph17.7 kmh 30.15 in1021.0 mb 0.01 in0.3 mm 0.00 in0.0 mm 0.12 in3.0 mm
11:50 AM 32.3°F0.2°C 15.2°F-9.3°C 49% 5.0 mph WNW8.0 kmh WNW 11.0 mph17.7 kmh 30.16 in1021.3 mb 0.01 in0.3 mm 0.00 in0.0 mm 0.12 in3.0 mm
11:51 AM 32.3°F0.2°C 15.2°F-9.3°C 49% 5.0 mph WNW8.0 kmh WNW 11.0 mph17.7 kmh 30.16 in1021.3 mb 0.01 in0.3 mm 0.00 in0.0 mm 0.12 in3.0 mm
11:52 AM 32.5°F0.3°C 14.9°F-9.5°C 48% 5.0 mph NW8.0 kmh NW 11.0 mph17.7 kmh 30.15 in1021.0 mb 0.01 in0.3 mm 0.00 in0.0 mm 0.12 in3.0 mm
11:53 AM 32.5°F0.3°C 15.4°F-9.2°C 49% 8.0 mph NW12.9 kmh NW 11.0 mph17.7 kmh 30.15 in1021.0 mb 0.01 in0.3 mm 0.00 in0.0 mm 0.12 in3.0 mm
11:54 AM 32.7°F0.4°C 15.6°F-9.1°C 49% 9.0 mph W14.5 kmh W 11.0 mph17.7 kmh 30.15 in1021.0 mb 0.01 in0.3 mm 0.00 in0.0 mm 0.12 in3.0 mm
11:55 AM 32.7°F0.4°C 15.1°F-9.4°C 48% 5.0 mph WNW8.0 kmh WNW 11.0 mph17.7 kmh 30.15 in1021.0 mb 0.01 in0.3 mm 0.00 in0.0 mm 0.12 in3.0 mm
11:56 AM 32.7°F0.4°C 15.1°F-9.4°C 48% 8.0 mph NNW12.9 kmh NNW 9.0 mph14.5 kmh 30.15 in1021.0 mb 0.01 in0.3 mm 0.00 in0.0 mm 0.12 in3.0 mm
11:57 AM 32.7°F0.4°C 15.6°F-9.1°C 49% 3.0 mph NNW4.8 kmh NNW 9.0 mph14.5 kmh 30.15 in1021.0 mb 0.01 in0.3 mm 0.00 in0.0 mm 0.12 in3.0 mm
11:58 AM 32.9°F0.5°C 15.7°F-9.1°C 49% 6.0 mph NNW9.7 kmh NNW 9.0 mph14.5 kmh 30.16 in1021.3 mb 0.01 in0.3 mm 0.00 in0.0 mm 0.12 in3.0 mm
11:59 AM 32.9°F0.5°C 15.7°F-9.1°C 49% 6.0 mph 9.7 kmh 9.0 mph14.5 kmh 30.16 in1021.3 mb 0.01 in0.3 mm 0.00 in0.0 mm 0.12 in3.0 mm
12:00 PM 32.9°F0.5°C 15.7°F-9.1°C 49% 6.0 mph 9.7 kmh 9.0 mph14.5 kmh 30.16 in1021.3 mb 0.01 in0.3 mm 0.00 in0.0 mm 0.12 in3.0 mm
12:01 PM 32.9°F0.5°C 15.3°F-9.3°C 48% 6.0 mph NW9.7 kmh NW 9.0 mph14.5 kmh 30.16 in1021.3 mb 0.01 in0.3 mm 0.00 in0.0 mm 0.12 in3.0 mm
12:02 PM 32.9°F0.5°C 15.7°F-9.1°C 49% 6.0 mph NW9.7 kmh NW 9.0 mph14.5 kmh 30.16 in1021.3 mb 0.01 in0.3 mm 0.00 in0.0 mm 0.12 in3.0 mm
12:03 PM 32.9°F0.5°C 15.7°F-9.1°C 49% 8.0 mph 12.9 kmh 9.0 mph14.5 kmh 30.16 in1021.3 mb 0.01 in0.3 mm 0.00 in0.0 mm 0.12 in3.0 mm
12:04 PM 32.9°F0.5°C 15.7°F-9.1°C 49% 6.0 mph NNW9.7 kmh NNW 9.0 mph14.5 kmh 30.16 in1021.3 mb 0.01 in0.3 mm 0.00 in0.0 mm 0.12 in3.0 mm
12:05 PM 32.9°F0.5°C 15.7°F-9.1°C 49% 6.0 mph W9.7 kmh W 9.0 mph14.5 kmh 30.15 in1021.0 mb 0.01 in0.3 mm 0.00 in0.0 mm 0.12 in3.0 mm
12:06 PM 32.9°F0.5°C 15.7°F-9.1°C 49% 4.0 mph WSW6.4 kmh WSW 9.0 mph14.5 kmh 30.15 in1021.0 mb 0.01 in0.3 mm 0.00 in0.0 mm 0.12 in3.0 mm
12:07 PM 32.9°F0.5°C 15.3°F-9.3°C 48% 8.0 mph NNW12.9 kmh NNW 9.0 mph14.5 kmh 30.16 in1021.3 mb 0.01 in0.3 mm 0.00 in0.0 mm 0.12 in3.0 mm
12:08 PM 32.9°F0.5°C 15.3°F-9.3°C 48% 7.0 mph NNE11.3 kmh NNE 9.0 mph14.5 kmh 30.16 in1021.3 mb 0.01 in0.3 mm 0.00 in0.0 mm 0.12 in3.0 mm
12:09 PM 32.9°F0.5°C 15.3°F-9.3°C 48% 4.0 mph W6.4 kmh W 8.0 mph12.9 kmh 30.16 in1021.3 mb 0.00 in0.0 mm 0.00 in0.0 mm 0.12 in3.0 mm
12:10 PM 32.9°F0.5°C 15.7°F-9.1°C 49% 8.0 mph NE12.9 kmh NE 8.0 mph12.9 kmh 30.16 in1021.3 mb 0.00 in0.0 mm 0.00 in0.0 mm 0.12 in3.0 mm
12:11 PM 33.0°F0.6°C 15.8°F-9.0°C 49% 5.0 mph NNE8.0 kmh NNE 8.0 mph12.9 kmh 30.16 in1021.3 mb 0.00 in0.0 mm 0.00 in0.0 mm 0.12 in3.0 mm
12:12 PM 33.2°F0.7°C 16.0°F-8.9°C 49% 5.0 mph W8.0 kmh W 8.0 mph12.9 kmh 30.16 in1021.3 mb 0.00 in0.0 mm 0.00 in0.0 mm 0.12 in3.0 mm
12:13 PM 33.2°F0.7°C 16.0°F-8.9°C 49% 5.0 mph WNW8.0 kmh WNW 8.0 mph12.9 kmh 30.16 in1021.3 mb 0.00 in0.0 mm 0.00 in0.0 mm 0.12 in3.0 mm
12:14 PM 33.4°F0.8°C 16.2°F-8.8°C 49% 9.0 mph NE14.5 kmh NE 9.0 mph14.5 kmh 30.16 in1021.3 mb 0.00 in0.0 mm 0.00 in0.0 mm 0.12 in3.0 mm
12:15 PM 33.4°F0.8°C 15.7°F-9.1°C 48% 7.0 mph 11.3 kmh 9.0 mph14.5 kmh 30.16 in1021.3 mb 0.00 in0.0 mm 0.00 in0.0 mm 0.12 in3.0 mm
12:16 PM 33.4°F0.8°C 15.7°F-9.1°C 48% 6.0 mph NW9.7 kmh NW 9.0 mph14.5 kmh 30.16 in1021.3 mb 0.00 in0.0 mm 0.00 in0.0 mm 0.12 in3.0 mm
12:17 PM 33.4°F0.8°C 15.7°F-9.1°C 48% 6.0 mph NW9.7 kmh NW 9.0 mph14.5 kmh 30.16 in1021.3 mb 0.00 in0.0 mm 0.00 in0.0 mm 0.12 in3.0 mm
12:18 PM 33.4°F0.8°C 15.7°F-9.1°C 48% 5.0 mph SW8.0 kmh SW 9.0 mph14.5 kmh 30.16 in1021.3 mb 0.00 in0.0 mm 0.00 in0.0 mm 0.12 in3.0 mm
12:19 PM 33.4°F0.8°C 15.7°F-9.1°C 48% 6.0 mph 9.7 kmh 9.0 mph14.5 kmh 30.16 in1021.3 mb 0.00 in0.0 mm 0.00 in0.0 mm 0.12 in3.0 mm
12:20 PM 33.4°F0.8°C 14.7°F-9.6°C 46% 7.0 mph NW11.3 kmh NW 9.0 mph14.5 kmh 30.16 in1021.3 mb 0.00 in0.0 mm 0.00 in0.0 mm 0.12 in3.0 mm
12:21 PM 33.4°F0.8°C 14.7°F-9.6°C 46% 4.0 mph 6.4 kmh 10.0 mph16.1 kmh 30.16 in1021.3 mb 0.00 in0.0 mm 0.00 in0.0 mm 0.12 in3.0 mm
12:22 PM 33.6°F0.9°C 15.9°F-8.9°C 48% 4.0 mph NW6.4 kmh NW 10.0 mph16.1 kmh 30.15 in1021.0 mb 0.00 in0.0 mm 0.00 in0.0 mm 0.12 in3.0 mm
12:23 PM 33.6°F0.9°C 15.9°F-8.9°C 48% 5.0 mph NW8.0 kmh NW 10.0 mph16.1 kmh 30.15 in1021.0 mb 0.00 in0.0 mm 0.00 in0.0 mm 0.12 in3.0 mm
12:24 PM 33.6°F0.9°C 15.9°F-8.9°C 48% 7.0 mph NW11.3 kmh NW 10.0 mph16.1 kmh 30.15 in1021.0 mb 0.00 in0.0 mm 0.00 in0.0 mm 0.12 in3.0 mm
12:25 PM 33.6°F0.9°C 14.9°F-9.5°C 46% 8.0 mph NW12.9 kmh NW 10.0 mph16.1 kmh 30.15 in1021.0 mb 0.00 in0.0 mm 0.00 in0.0 mm 0.12 in3.0 mm
12:26 PM 33.6°F0.9°C 14.9°F-9.5°C 46% 7.0 mph 11.3 kmh 10.0 mph16.1 kmh 30.15 in1021.0 mb 0.00 in0.0 mm 0.00 in0.0 mm 0.12 in3.0 mm
12:27 PM 33.6°F0.9°C 15.9°F-8.9°C 48% 5.0 mph 8.0 kmh 10.0 mph16.1 kmh 30.15 in1021.0 mb 0.00 in0.0 mm 0.00 in0.0 mm 0.12 in3.0 mm
12:28 PM 33.8°F1.0°C 15.1°F-9.4°C 46% 8.0 mph 12.9 kmh 10.0 mph16.1 kmh 30.16 in1021.3 mb 0.00 in0.0 mm 0.00 in0.0 mm 0.12 in3.0 mm
12:29 PM 33.8°F1.0°C 15.1°F-9.4°C 46% 6.0 mph NNW9.7 kmh NNW 10.0 mph16.1 kmh 30.16 in1021.3 mb 0.00 in0.0 mm 0.00 in0.0 mm 0.12 in3.0 mm
12:30 PM 33.8°F1.0°C 15.1°F-9.4°C 46% 5.0 mph NNW8.0 kmh NNW 10.0 mph16.1 kmh 30.15 in1021.0 mb 0.00 in0.0 mm 0.00 in0.0 mm 0.12 in3.0 mm
12:31 PM 33.8°F1.0°C 15.1°F-9.4°C 46% 5.0 mph NNW8.0 kmh NNW 10.0 mph16.1 kmh 30.16 in1021.3 mb 0.00 in0.0 mm 0.00 in0.0 mm 0.12 in3.0 mm
12:32 PM 33.8°F1.0°C 15.1°F-9.4°C 46% 5.0 mph W8.0 kmh W 8.0 mph12.9 kmh 30.16 in1021.3 mb 0.00 in0.0 mm 0.00 in0.0 mm 0.12 in3.0 mm
12:33 PM 33.8°F1.0°C 14.6°F-9.7°C 45% 5.0 mph W8.0 kmh W 8.0 mph12.9 kmh 30.16 in1021.3 mb 0.00 in0.0 mm 0.00 in0.0 mm 0.12 in3.0 mm
12:34 PM 33.9°F1.1°C 14.6°F-9.7°C 45% 6.0 mph 9.7 kmh 8.0 mph12.9 kmh 30.16 in1021.3 mb 0.00 in0.0 mm 0.00 in0.0 mm 0.12 in3.0 mm
12:35 PM 33.9°F1.1°C 14.6°F-9.7°C 45% 8.0 mph 12.9 kmh 8.0 mph12.9 kmh 30.16 in1021.3 mb 0.00 in0.0 mm 0.00 in0.0 mm 0.12 in3.0 mm
12:36 PM 33.8°F1.0°C 14.6°F-9.7°C 45% 4.0 mph WNW6.4 kmh WNW 8.0 mph12.9 kmh 30.16 in1021.3 mb 0.00 in0.0 mm 0.00 in0.0 mm 0.12 in3.0 mm
12:37 PM 33.9°F1.1°C 14.6°F-9.7°C 45% 2.0 mph NNE3.2 kmh NNE 8.0 mph12.9 kmh 30.16 in1021.3 mb 0.00 in0.0 mm 0.00 in0.0 mm 0.12 in3.0 mm
12:38 PM 33.9°F1.1°C 14.6°F-9.7°C 45% 6.0 mph NNE9.7 kmh NNE 8.0 mph12.9 kmh 30.16 in1021.3 mb 0.00 in0.0 mm 0.00 in0.0 mm 0.12 in3.0 mm
12:39 PM 33.9°F1.1°C 14.6°F-9.7°C 45% 4.0 mph 6.4 kmh 8.0 mph12.9 kmh 30.16 in1021.3 mb 0.00 in0.0 mm 0.00 in0.0 mm 0.12 in3.0 mm
12:40 PM 34.1°F1.2°C 14.8°F-9.6°C 45% 7.0 mph 11.3 kmh 8.0 mph12.9 kmh 30.16 in1021.3 mb 0.00 in0.0 mm 0.00 in0.0 mm 0.12 in3.0 mm
12:41 PM 34.1°F1.2°C 14.8°F-9.6°C 45% 5.0 mph WNW8.0 kmh WNW 8.0 mph12.9 kmh 30.16 in1021.3 mb 0.00 in0.0 mm 0.00 in0.0 mm 0.12 in3.0 mm
12:42 PM 34.3°F1.3°C 15.0°F-9.4°C 45% 5.0 mph WNW8.0 kmh WNW 8.0 mph12.9 kmh 30.15 in1021.0 mb 0.00 in0.0 mm 0.00 in0.0 mm 0.12 in3.0 mm
12:43 PM 34.3°F1.3°C 15.0°F-9.4°C 45% 4.0 mph NNE6.4 kmh NNE 8.0 mph12.9 kmh 30.15 in1021.0 mb 0.00 in0.0 mm 0.00 in0.0 mm 0.12 in3.0 mm
12:44 PM 34.5°F1.4°C 15.7°F-9.1°C 46% 3.0 mph ENE4.8 kmh ENE 8.0 mph12.9 kmh 30.16 in1021.3 mb 0.00 in0.0 mm 0.00 in0.0 mm 0.12 in3.0 mm
12:45 PM 34.7°F1.5°C 15.9°F-8.9°C 46% 8.0 mph ENE12.9 kmh ENE 8.0 mph12.9 kmh 30.16 in1021.3 mb 0.00 in0.0 mm 0.00 in0.0 mm 0.12 in3.0 mm
12:46 PM 34.7°F1.5°C 15.9°F-8.9°C 46% 8.0 mph ENE12.9 kmh ENE 8.0 mph12.9 kmh 30.16 in1021.3 mb 0.00 in0.0 mm 0.00 in0.0 mm 0.12 in3.0 mm
12:47 PM 34.8°F1.6°C 15.5°F-9.2°C 45% 5.0 mph 8.0 kmh 8.0 mph12.9 kmh 30.16 in1021.3 mb 0.00 in0.0 mm 0.00 in0.0 mm 0.12 in3.0 mm
12:48 PM 34.8°F1.6°C 15.5°F-9.2°C 45% 4.0 mph 6.4 kmh 8.0 mph12.9 kmh 30.16 in1021.3 mb 0.00 in0.0 mm 0.00 in0.0 mm 0.12 in3.0 mm
12:49 PM 34.8°F1.6°C 15.5°F-9.2°C 45% 4.0 mph 6.4 kmh 8.0 mph12.9 kmh 30.16 in1021.3 mb 0.00 in0.0 mm 0.00 in0.0 mm 0.12 in3.0 mm
12:50 PM 34.8°F1.6°C 15.5°F-9.2°C 45% 3.0 mph NW4.8 kmh NW 8.0 mph12.9 kmh 30.16 in1021.3 mb 0.00 in0.0 mm 0.00 in0.0 mm 0.12 in3.0 mm
12:51 PM 34.8°F1.6°C 15.5°F-9.2°C 45% 4.0 mph SSE6.4 kmh SSE 8.0 mph12.9 kmh 30.16 in1021.3 mb 0.00 in0.0 mm 0.00 in0.0 mm 0.12 in3.0 mm
12:52 PM 35.0°F1.7°C 15.7°F-9.1°C 45% 3.0 mph NNW4.8 kmh NNW 8.0 mph12.9 kmh 30.16 in1021.3 mb 0.00 in0.0 mm 0.00 in0.0 mm 0.12 in3.0 mm
12:53 PM 35.2°F1.8°C 15.8°F-9.0°C 45% 3.0 mph NNW4.8 kmh NNW 8.0 mph12.9 kmh 30.16 in1021.3 mb 0.00 in0.0 mm 0.00 in0.0 mm 0.12 in3.0 mm
12:54 PM 35.2°F1.8°C 15.8°F-9.0°C 45% 5.0 mph NNW8.0 kmh NNW 8.0 mph12.9 kmh 30.16 in1021.3 mb 0.00 in0.0 mm 0.00 in0.0 mm 0.12 in3.0 mm
12:55 PM 35.2°F1.8°C 15.8°F-9.0°C 45% 5.0 mph NW8.0 kmh NW 7.0 mph11.3 kmh 30.16 in1021.3 mb 0.00 in0.0 mm 0.00 in0.0 mm 0.12 in3.0 mm
12:56 PM 35.2°F1.8°C 15.8°F-9.0°C 45% 5.0 mph NW8.0 kmh NW 7.0 mph11.3 kmh 30.16 in1021.3 mb 0.00 in0.0 mm 0.00 in0.0 mm 0.12 in3.0 mm
12:57 PM 35.2°F1.8°C 15.8°F-9.0°C 45% 5.0 mph NW8.0 kmh NW 7.0 mph11.3 kmh 30.16 in1021.3 mb 0.00 in0.0 mm 0.00 in0.0 mm 0.12 in3.0 mm
12:58 PM 35.4°F1.9°C 16.5°F-8.6°C 46% 5.0 mph W8.0 kmh W 7.0 mph11.3 kmh 30.16 in1021.3 mb 0.00 in0.0 mm 0.00 in0.0 mm 0.12 in3.0 mm
12:59 PM 35.4°F1.9°C 16.5°F-8.6°C 46% 4.0 mph NNW6.4 kmh NNW 7.0 mph11.3 kmh 30.16 in1021.3 mb 0.01 in0.3 mm 0.60 in15.2 mm 0.13 in3.3 mm
01:00 PM 35.4°F1.9°C 16.0°F-8.9°C 45% 6.0 mph NNW9.7 kmh NNW 7.0 mph11.3 kmh 30.16 in1021.3 mb 0.01 in0.3 mm 0.00 in0.0 mm 0.13 in3.3 mm
01:01 PM 35.4°F1.9°C 16.0°F-8.9°C 45% 2.0 mph NNW3.2 kmh NNW 6.0 mph9.7 kmh 30.16 in1021.3 mb 0.01 in0.3 mm 0.00 in0.0 mm 0.13 in3.3 mm
01:02 PM 35.5°F1.9°C 16.1°F-8.8°C 45% 4.0 mph NNW6.4 kmh NNW 6.0 mph9.7 kmh 30.16 in1021.3 mb 0.01 in0.3 mm 0.00 in0.0 mm 0.13 in3.3 mm
01:03 PM 35.5°F1.9°C 16.1°F-8.8°C 45% 7.0 mph NNW11.3 kmh NNW 7.0 mph11.3 kmh 30.16 in1021.3 mb 0.01 in0.3 mm 0.00 in0.0 mm 0.13 in3.3 mm
01:04 PM 35.5°F1.9°C 16.1°F-8.8°C 45% 3.0 mph NNW4.8 kmh NNW 7.0 mph11.3 kmh 30.16 in1021.3 mb 0.01 in0.3 mm 0.00 in0.0 mm 0.13 in3.3 mm
01:05 PM 35.7°F2.1°C 15.8°F-9.0°C 44% 7.0 mph NW11.3 kmh NW 7.0 mph11.3 kmh 30.16 in1021.3 mb 0.01 in0.3 mm 0.00 in0.0 mm 0.13 in3.3 mm
01:06 PM 35.7°F2.1°C 15.8°F-9.0°C 44% 10.0 mph NNW16.1 kmh NNW 10.0 mph16.1 kmh 30.17 in1021.7 mb 0.01 in0.3 mm 0.00 in0.0 mm 0.13 in3.3 mm
01:07 PM 35.7°F2.1°C 15.8°F-9.0°C 44% 5.0 mph WNW8.0 kmh WNW 10.0 mph16.1 kmh 30.17 in1021.7 mb 0.01 in0.3 mm 0.00 in0.0 mm 0.13 in3.3 mm
01:08 PM 35.7°F2.1°C 15.8°F-9.0°C 44% 5.0 mph W8.0 kmh W 10.0 mph16.1 kmh 30.16 in1021.3 mb 0.01 in0.3 mm 0.00 in0.0 mm 0.13 in3.3 mm
01:09 PM 35.5°F1.9°C 15.0°F-9.4°C 43% 5.0 mph W8.0 kmh W 10.0 mph16.1 kmh 30.16 in1021.3 mb 0.01 in0.3 mm 0.00 in0.0 mm 0.13 in3.3 mm
01:10 PM 35.5°F1.9°C 15.0°F-9.4°C 43% 8.0 mph WSW12.9 kmh WSW 10.0 mph16.1 kmh 30.17 in1021.7 mb 0.01 in0.3 mm 0.00 in0.0 mm 0.13 in3.3 mm
01:11 PM 35.5°F1.9°C 15.0°F-9.4°C 43% 5.0 mph NW8.0 kmh NW 10.0 mph16.1 kmh 30.16 in1021.3 mb 0.01 in0.3 mm 0.00 in0.0 mm 0.13 in3.3 mm
01:12 PM 35.5°F1.9°C 15.0°F-9.4°C 43% 5.0 mph NW8.0 kmh NW 10.0 mph16.1 kmh 30.16 in1021.3 mb 0.01 in0.3 mm 0.00 in0.0 mm 0.13 in3.3 mm
01:13 PM 35.5°F1.9°C 15.0°F-9.4°C 43% 5.0 mph NW8.0 kmh NW 10.0 mph16.1 kmh 30.16 in1021.3 mb 0.01 in0.3 mm 0.00 in0.0 mm 0.13 in3.3 mm
01:14 PM 35.5°F1.9°C 15.6°F-9.1°C 44% 7.0 mph NW11.3 kmh NW 10.0 mph16.1 kmh 30.16 in1021.3 mb 0.01 in0.3 mm 0.00 in0.0 mm 0.13 in3.3 mm
01:15 PM 35.5°F1.9°C 15.6°F-9.1°C 44% 6.0 mph NW9.7 kmh NW 10.0 mph16.1 kmh 30.16 in1021.3 mb 0.01 in0.3 mm 0.00 in0.0 mm 0.13 in3.3 mm
01:16 PM 35.7°F2.1°C 15.8°F-9.0°C 44% 2.0 mph NW3.2 kmh NW 8.0 mph12.9 kmh 30.16 in1021.3 mb 0.01 in0.3 mm 0.00 in0.0 mm 0.13 in3.3 mm
01:17 PM 35.7°F2.1°C 15.8°F-9.0°C 44% 2.0 mph NE3.2 kmh NE 8.0 mph12.9 kmh 30.16 in1021.3 mb 0.01 in0.3 mm 0.00 in0.0 mm 0.13 in3.3 mm
01:18 PM 35.7°F2.1°C 15.8°F-9.0°C 44% 2.0 mph NE3.2 kmh NE 8.0 mph12.9 kmh 30.16 in1021.3 mb 0.01 in0.3 mm 0.00 in0.0 mm 0.13 in3.3 mm
01:19 PM 35.9°F2.2°C 16.5°F-8.6°C 45% 4.0 mph NE6.4 kmh NE 8.0 mph12.9 kmh 30.16 in1021.3 mb 0.01 in0.3 mm 0.00 in0.0 mm 0.13 in3.3 mm
01:20 PM 35.9°F2.2°C 15.9°F-8.9°C 44% 7.0 mph NW11.3 kmh NW 8.0 mph12.9 kmh 30.16 in1021.3 mb 0.03 in0.8 mm 1.20 in30.5 mm 0.15 in3.8 mm
01:21 PM 35.9°F2.2°C 15.9°F-8.9°C 44% 7.0 mph NW11.3 kmh NW 7.0 mph11.3 kmh 30.16 in1021.3 mb 0.03 in0.8 mm 0.00 in0.0 mm 0.15 in3.8 mm
01:22 PM 35.9°F2.2°C 15.9°F-8.9°C 44% 3.0 mph NNE4.8 kmh NNE 7.0 mph11.3 kmh 30.17 in1021.7 mb 0.03 in0.8 mm 0.00 in0.0 mm 0.15 in3.8 mm
01:23 PM 35.9°F2.2°C 16.5°F-8.6°C 45% 3.0 mph NNE4.8 kmh NNE 7.0 mph11.3 kmh 30.17 in1021.7 mb 0.03 in0.8 mm 0.00 in0.0 mm 0.15 in3.8 mm
01:24 PM 35.7°F2.1°C 15.8°F-9.0°C 44% 3.0 mph NNE4.8 kmh NNE 7.0 mph11.3 kmh 30.17 in1021.7 mb 0.03 in0.8 mm 0.00 in0.0 mm 0.15 in3.8 mm
01:25 PM 35.7°F2.1°C 15.8°F-9.0°C 44% 3.0 mph 4.8 kmh 7.0 mph11.3 kmh 30.17 in1021.7 mb 0.03 in0.8 mm 0.00 in0.0 mm 0.15 in3.8 mm
01:26 PM 35.7°F2.1°C 15.8°F-9.0°C 44% 4.0 mph NNW6.4 kmh NNW 7.0 mph11.3 kmh 30.17 in1021.7 mb 0.03 in0.8 mm 0.00 in0.0 mm 0.15 in3.8 mm
01:27 PM 35.7°F2.1°C 15.8°F-9.0°C 44% 3.0 mph NW4.8 kmh NW 7.0 mph11.3 kmh 30.17 in1021.7 mb 0.03 in0.8 mm 0.00 in0.0 mm 0.15 in3.8 mm
01:28 PM 35.7°F2.1°C 15.8°F-9.0°C 44% 8.0 mph NNE12.9 kmh NNE 8.0 mph12.9 kmh 30.17 in1021.7 mb 0.03 in0.8 mm 0.00 in0.0 mm 0.15 in3.8 mm
01:29 PM 35.5°F1.9°C 15.6°F-9.1°C 44% 4.0 mph W6.4 kmh W 8.0 mph12.9 kmh 30.17 in1021.7 mb 0.03 in0.8 mm 0.00 in0.0 mm 0.15 in3.8 mm
01:30 PM 35.5°F1.9°C 16.1°F-8.8°C 45% 5.0 mph E8.0 kmh E 8.0 mph12.9 kmh 30.17 in1021.7 mb 0.03 in0.8 mm 0.00 in0.0 mm 0.15 in3.8 mm
01:31 PM 35.7°F2.1°C 16.3°F-8.7°C 45% 5.0 mph WNW8.0 kmh WNW 8.0 mph12.9 kmh 30.17 in1021.7 mb 0.03 in0.8 mm 0.00 in0.0 mm 0.15 in3.8 mm
01:32 PM 35.7°F2.1°C 16.3°F-8.7°C 45% 7.0 mph NW11.3 kmh NW 8.0 mph12.9 kmh 30.17 in1021.7 mb 0.03 in0.8 mm 0.00 in0.0 mm 0.15 in3.8 mm
01:33 PM 35.9°F2.2°C 16.5°F-8.6°C 45% 4.0 mph WNW6.4 kmh WNW 8.0 mph12.9 kmh 30.17 in1021.7 mb 0.03 in0.8 mm 0.00 in0.0 mm 0.15 in3.8 mm
01:34 PM 35.9°F2.2°C 15.9°F-8.9°C 44% 4.0 mph WNW6.4 kmh WNW 8.0 mph12.9 kmh 30.17 in1021.7 mb 0.03 in0.8 mm 0.00 in0.0 mm 0.15 in3.8 mm
01:35 PM 35.9°F2.2°C 16.5°F-8.6°C 45% 4.0 mph 6.4 kmh 8.0 mph12.9 kmh 30.17 in1021.7 mb 0.03 in0.8 mm 0.00 in0.0 mm 0.15 in3.8 mm
01:36 PM 35.9°F2.2°C 15.9°F-8.9°C 44% 8.0 mph NNW12.9 kmh NNW 8.0 mph12.9 kmh 30.17 in1021.7 mb 0.03 in0.8 mm 0.00 in0.0 mm 0.15 in3.8 mm
01:37 PM 35.7°F2.1°C 15.8°F-9.0°C 44% 3.0 mph WNW4.8 kmh WNW 8.0 mph12.9 kmh 30.17 in1021.7 mb 0.03 in0.8 mm 0.00 in0.0 mm 0.15 in3.8 mm
01:38 PM 35.7°F2.1°C 15.8°F-9.0°C 44% 6.0 mph WNW9.7 kmh WNW 8.0 mph12.9 kmh 30.17 in1021.7 mb 0.03 in0.8 mm 0.00 in0.0 mm 0.15 in3.8 mm
01:39 PM 35.7°F2.1°C 15.8°F-9.0°C 44% 6.0 mph WNW9.7 kmh WNW 8.0 mph12.9 kmh 30.17 in1021.7 mb 0.03 in0.8 mm 0.00 in0.0 mm 0.15 in3.8 mm
01:40 PM 36.1°F2.3°C 16.1°F-8.8°C 44% 5.0 mph 8.0 kmh 8.0 mph12.9 kmh 30.16 in1021.3 mb 0.03 in0.8 mm 0.00 in0.0 mm 0.15 in3.8 mm
01:41 PM 36.1°F2.3°C 16.1°F-8.8°C 44% 3.0 mph NW4.8 kmh NW 8.0 mph12.9 kmh 30.16 in1021.3 mb 0.03 in0.8 mm 0.00 in0.0 mm 0.15 in3.8 mm
01:42 PM 35.9°F2.2°C 15.9°F-8.9°C 44% 6.0 mph NW9.7 kmh NW 8.0 mph12.9 kmh 30.16 in1021.3 mb 0.03 in0.8 mm 0.00 in0.0 mm 0.15 in3.8 mm
01:43 PM 35.9°F2.2°C 15.9°F-8.9°C 44% 8.0 mph 12.9 kmh 8.0 mph12.9 kmh 30.16 in1021.3 mb 0.03 in0.8 mm 0.00 in0.0 mm 0.15 in3.8 mm
01:44 PM 35.9°F2.2°C 15.4°F-9.2°C 43% 5.0 mph NW8.0 kmh NW 8.0 mph12.9 kmh 30.16 in1021.3 mb 0.03 in0.8 mm 0.00 in0.0 mm 0.15 in3.8 mm
01:45 PM 35.9°F2.2°C 15.9°F-8.9°C 44% 6.0 mph WNW9.7 kmh WNW 8.0 mph12.9 kmh 30.16 in1021.3 mb 0.03 in0.8 mm 0.00 in0.0 mm 0.15 in3.8 mm
01:46 PM 35.9°F2.2°C 15.9°F-8.9°C 44% 7.0 mph NNE11.3 kmh NNE 8.0 mph12.9 kmh 30.17 in1021.7 mb 0.03 in0.8 mm 0.00 in0.0 mm 0.15 in3.8 mm
01:47 PM 35.9°F2.2°C 15.9°F-8.9°C 44% 5.0 mph NE8.0 kmh NE 8.0 mph12.9 kmh 30.16 in1021.3 mb 0.03 in0.8 mm 0.00 in0.0 mm 0.15 in3.8 mm
01:48 PM 35.9°F2.2°C 15.9°F-8.9°C 44% 6.0 mph ENE9.7 kmh ENE 8.0 mph12.9 kmh 30.16 in1021.3 mb 0.03 in0.8 mm 0.00 in0.0 mm 0.15 in3.8 mm
01:49 PM 35.9°F2.2°C 15.9°F-8.9°C 44% 5.0 mph NNE8.0 kmh NNE 8.0 mph12.9 kmh 30.16 in1021.3 mb 0.03 in0.8 mm 0.00 in0.0 mm 0.15 in3.8 mm
01:50 PM 35.9°F2.2°C 15.9°F-8.9°C 44% 8.0 mph NW12.9 kmh NW 8.0 mph12.9 kmh 30.16 in1021.3 mb 0.03 in0.8 mm 0.00 in0.0 mm 0.15 in3.8 mm
01:51 PM 35.9°F2.2°C 15.9°F-8.9°C 44% 4.0 mph 6.4 kmh 8.0 mph12.9 kmh 30.16 in1021.3 mb 0.03 in0.8 mm 0.00 in0.0 mm 0.15 in3.8 mm
01:52 PM 35.9°F2.2°C 16.5°F-8.6°C 45% 4.0 mph 6.4 kmh 8.0 mph12.9 kmh 30.16 in1021.3 mb 0.03 in0.8 mm 0.00 in0.0 mm 0.15 in3.8 mm
01:53 PM 35.9°F2.2°C 15.9°F-8.9°C 44% 6.0 mph NNE9.7 kmh NNE 8.0 mph12.9 kmh 30.17 in1021.7 mb 0.03 in0.8 mm 0.00 in0.0 mm 0.15 in3.8 mm
01:54 PM 35.9°F2.2°C 15.9°F-8.9°C 44% 7.0 mph 11.3 kmh 8.0 mph12.9 kmh 30.17 in1021.7 mb 0.03 in0.8 mm 0.00 in0.0 mm 0.15 in3.8 mm
01:55 PM 35.7°F2.1°C 15.8°F-9.0°C 44% 6.0 mph 9.7 kmh 8.0 mph12.9 kmh 30.17 in1021.7 mb 0.03 in0.8 mm 0.00 in0.0 mm 0.15 in3.8 mm
01:56 PM 35.7°F2.1°C 16.3°F-8.7°C 45% 9.0 mph NE14.5 kmh NE 9.0 mph14.5 kmh 30.17 in1021.7 mb 0.03 in0.8 mm 0.00 in0.0 mm 0.15 in3.8 mm
01:57 PM 35.7°F2.1°C 16.3°F-8.7°C 45% 5.0 mph 8.0 kmh 9.0 mph14.5 kmh 30.17 in1021.7 mb 0.03 in0.8 mm 0.00 in0.0 mm 0.15 in3.8 mm
01:58 PM 35.5°F1.9°C 15.6°F-9.1°C 44% 7.0 mph NNW11.3 kmh NNW 9.0 mph14.5 kmh 30.17 in1021.7 mb 0.03 in0.8 mm 0.00 in0.0 mm 0.16 in4.1 mm
01:59 PM 35.5°F1.9°C 15.6°F-9.1°C 44% 8.0 mph NNW12.9 kmh NNW 9.0 mph14.5 kmh 30.17 in1021.7 mb 0.03 in0.8 mm 0.00 in0.0 mm 0.16 in4.1 mm
02:00 PM 35.5°F1.9°C 15.6°F-9.1°C 44% 8.0 mph NNW12.9 kmh NNW 9.0 mph14.5 kmh 30.17 in1021.7 mb 0.03 in0.8 mm 0.00 in0.0 mm 0.16 in4.1 mm
02:01 PM 35.5°F1.9°C 15.6°F-9.1°C 44% 6.0 mph NNW9.7 kmh NNW 9.0 mph14.5 kmh 30.17 in1021.7 mb 0.03 in0.8 mm 0.00 in0.0 mm 0.16 in4.1 mm
02:02 PM 35.5°F1.9°C 16.1°F-8.8°C 45% 6.0 mph NNW9.7 kmh NNW 9.0 mph14.5 kmh 30.17 in1021.7 mb 0.03 in0.8 mm 0.00 in0.0 mm 0.16 in4.1 mm
02:03 PM 35.5°F1.9°C 16.1°F-8.8°C 45% 11.0 mph NNE17.7 kmh NNE 11.0 mph17.7 kmh 30.17 in1021.7 mb 0.03 in0.8 mm 0.00 in0.0 mm 0.16 in4.1 mm
02:04 PM 35.4°F1.9°C 15.5°F-9.2°C 44% 6.0 mph NNE9.7 kmh NNE 11.0 mph17.7 kmh 30.17 in1021.7 mb 0.03 in0.8 mm 0.00 in0.0 mm 0.16 in4.1 mm
02:05 PM 35.4°F1.9°C 15.5°F-9.2°C 44% 8.0 mph NNE12.9 kmh NNE 11.0 mph17.7 kmh 30.17 in1021.7 mb 0.03 in0.8 mm 0.00 in0.0 mm 0.16 in4.1 mm
02:06 PM 35.4°F1.9°C 16.0°F-8.9°C 45% 5.0 mph NNW8.0 kmh NNW 11.0 mph17.7 kmh 30.16 in1021.3 mb 0.03 in0.8 mm 0.00 in0.0 mm 0.16 in4.1 mm
02:07 PM 35.5°F1.9°C 16.1°F-8.8°C 45% 7.0 mph NNE11.3 kmh NNE 11.0 mph17.7 kmh 30.16 in1021.3 mb 0.03 in0.8 mm 0.00 in0.0 mm 0.16 in4.1 mm
02:08 PM 35.5°F1.9°C 15.6°F-9.1°C 44% 6.0 mph NNE9.7 kmh NNE 11.0 mph17.7 kmh 30.16 in1021.3 mb 0.03 in0.8 mm 0.00 in0.0 mm 0.16 in4.1 mm
02:09 PM 35.5°F1.9°C 15.6°F-9.1°C 44% 7.0 mph NNE11.3 kmh NNE 11.0 mph17.7 kmh 30.16 in1021.3 mb 0.03 in0.8 mm 0.00 in0.0 mm 0.16 in4.1 mm
02:10 PM 35.5°F1.9°C 15.6°F-9.1°C 44% 4.0 mph NNE6.4 kmh NNE 11.0 mph17.7 kmh 30.16 in1021.3 mb 0.03 in0.8 mm 0.00 in0.0 mm 0.16 in4.1 mm
02:11 PM 35.5°F1.9°C 15.6°F-9.1°C 44% 5.0 mph NNE8.0 kmh NNE 11.0 mph17.7 kmh 30.17 in1021.7 mb 0.03 in0.8 mm 0.00 in0.0 mm 0.16 in4.1 mm
02:12 PM 35.5°F1.9°C 16.1°F-8.8°C 45% 6.0 mph 9.7 kmh 11.0 mph17.7 kmh 30.17 in1021.7 mb 0.03 in0.8 mm 0.00 in0.0 mm 0.16 in4.1 mm
02:13 PM 35.5°F1.9°C 16.1°F-8.8°C 45% 5.0 mph NNE8.0 kmh NNE 11.0 mph17.7 kmh 30.17 in1021.7 mb 0.03 in0.8 mm 0.00 in0.0 mm 0.16 in4.1 mm
02:14 PM 35.5°F1.9°C 15.6°F-9.1°C 44% 8.0 mph NNE12.9 kmh NNE 9.0 mph14.5 kmh 30.17 in1021.7 mb 0.04 in1.0 mm 0.60 in15.2 mm 0.17 in4.3 mm
02:15 PM 35.5°F1.9°C 15.6°F-9.1°C 44% 7.0 mph 11.3 kmh 9.0 mph14.5 kmh 30.17 in1021.7 mb 0.04 in1.0 mm 0.00 in0.0 mm 0.17 in4.3 mm
02:16 PM 35.5°F1.9°C 15.6°F-9.1°C 44% 7.0 mph NNE11.3 kmh NNE 9.0 mph14.5 kmh 30.16 in1021.3 mb 0.04 in1.0 mm 0.00 in0.0 mm 0.17 in4.3 mm
02:17 PM 35.5°F1.9°C 15.6°F-9.1°C 44% 9.0 mph NNE14.5 kmh NNE 9.0 mph14.5 kmh 30.16 in1021.3 mb 0.04 in1.0 mm 0.00 in0.0 mm 0.17 in4.3 mm
02:18 PM 35.7°F2.1°C 15.8°F-9.0°C 44% 5.0 mph NNE8.0 kmh NNE 9.0 mph14.5 kmh 30.16 in1021.3 mb 0.02 in0.5 mm 0.00 in0.0 mm 0.17 in4.3 mm
02:19 PM 35.7°F2.1°C 15.8°F-9.0°C 44% 10.0 mph 16.1 kmh 10.0 mph16.1 kmh 30.16 in1021.3 mb 0.02 in0.5 mm 0.00 in0.0 mm 0.17 in4.3 mm
02:20 PM 35.7°F2.1°C 15.8°F-9.0°C 44% 7.0 mph NNE11.3 kmh NNE 10.0 mph16.1 kmh 30.17 in1021.7 mb 0.02 in0.5 mm 0.00 in0.0 mm 0.17 in4.3 mm
02:21 PM 35.7°F2.1°C 15.8°F-9.0°C 44% 5.0 mph 8.0 kmh 10.0 mph16.1 kmh 30.17 in1021.7 mb 0.02 in0.5 mm 0.00 in0.0 mm 0.17 in4.3 mm
02:22 PM 35.7°F2.1°C 15.8°F-9.0°C 44% 8.0 mph NNW12.9 kmh NNW 10.0 mph16.1 kmh 30.17 in1021.7 mb 0.02 in0.5 mm 0.00 in0.0 mm 0.17 in4.3 mm
02:23 PM 35.7°F2.1°C 15.8°F-9.0°C 44% 6.0 mph 9.7 kmh 10.0 mph16.1 kmh 30.17 in1021.7 mb 0.02 in0.5 mm 0.00 in0.0 mm 0.17 in4.3 mm
02:24 PM 35.7°F2.1°C 15.8°F-9.0°C 44% 7.0 mph 11.3 kmh 10.0 mph16.1 kmh 30.17 in1021.7 mb 0.02 in0.5 mm 0.00 in0.0 mm 0.17 in4.3 mm
02:25 PM 35.7°F2.1°C 15.8°F-9.0°C 44% 5.0 mph 8.0 kmh 10.0 mph16.1 kmh 30.17 in1021.7 mb 0.02 in0.5 mm 0.00 in0.0 mm 0.17 in4.3 mm
02:26 PM 35.7°F2.1°C 15.8°F-9.0°C 44% 4.0 mph 6.4 kmh 10.0 mph16.1 kmh 30.17 in1021.7 mb 0.02 in0.5 mm 0.00 in0.0 mm 0.17 in4.3 mm
02:27 PM 35.9°F2.2°C 15.9°F-8.9°C 44% 5.0 mph NNE8.0 kmh NNE 10.0 mph16.1 kmh 30.16 in1021.3 mb 0.02 in0.5 mm 0.00 in0.0 mm 0.17 in4.3 mm
02:28 PM 35.9°F2.2°C 15.9°F-8.9°C 44% 10.0 mph NNE16.1 kmh NNE 10.0 mph16.1 kmh 30.16 in1021.3 mb 0.02 in0.5 mm 0.00 in0.0 mm 0.17 in4.3 mm
02:29 PM 35.9°F2.2°C 15.9°F-8.9°C 44% 10.0 mph NNE16.1 kmh NNE 10.0 mph16.1 kmh 30.17 in1021.7 mb 0.02 in0.5 mm 0.00 in0.0 mm 0.17 in4.3 mm
02:30 PM 35.7°F2.1°C 15.8°F-9.0°C 44% 10.0 mph NE16.1 kmh NE 10.0 mph16.1 kmh 30.17 in1021.7 mb 0.02 in0.5 mm 0.00 in0.0 mm 0.17 in4.3 mm
02:31 PM 35.7°F2.1°C 15.8°F-9.0°C 44% 6.0 mph NE9.7 kmh NE 10.0 mph16.1 kmh 30.17 in1021.7 mb 0.02 in0.5 mm 0.00 in0.0 mm 0.17 in4.3 mm
02:32 PM 35.5°F1.9°C 15.6°F-9.1°C 44% 9.0 mph 14.5 kmh 10.0 mph16.1 kmh 30.16 in1021.3 mb 0.02 in0.5 mm 0.00 in0.0 mm 0.17 in4.3 mm
02:33 PM 35.5°F1.9°C 15.6°F-9.1°C 44% 9.0 mph 14.5 kmh 10.0 mph16.1 kmh 30.16 in1021.3 mb 0.02 in0.5 mm 0.00 in0.0 mm 0.17 in4.3 mm
02:34 PM 35.5°F1.9°C 15.6°F-9.1°C 44% 10.0 mph NNE16.1 kmh NNE 10.0 mph16.1 kmh 30.16 in1021.3 mb 0.02 in0.5 mm 0.00 in0.0 mm 0.17 in4.3 mm
02:35 PM 35.4°F1.9°C 16.0°F-8.9°C 45% 9.0 mph NNE14.5 kmh NNE 10.0 mph16.1 kmh 30.16 in1021.3 mb 0.02 in0.5 mm 0.00 in0.0 mm 0.17 in4.3 mm
02:36 PM 35.4°F1.9°C 16.0°F-8.9°C 45% 9.0 mph NNE14.5 kmh NNE 10.0 mph16.1 kmh 30.17 in1021.7 mb 0.02 in0.5 mm 0.00 in0.0 mm 0.17 in4.3 mm
02:37 PM 35.4°F1.9°C 16.0°F-8.9°C 45% 7.0 mph NNE11.3 kmh NNE 10.0 mph16.1 kmh 30.17 in1021.7 mb 0.02 in0.5 mm 0.00 in0.0 mm 0.17 in4.3 mm
02:38 PM 35.4°F1.9°C 16.5°F-8.6°C 46% 6.0 mph 9.7 kmh 10.0 mph16.1 kmh 30.17 in1021.7 mb 0.02 in0.5 mm 0.00 in0.0 mm 0.17 in4.3 mm
02:39 PM 35.4°F1.9°C 16.0°F-8.9°C 45% 11.0 mph 17.7 kmh 11.0 mph17.7 kmh 30.17 in1021.7 mb 0.02 in0.5 mm 0.00 in0.0 mm 0.17 in4.3 mm
02:40 PM 35.4°F1.9°C 16.5°F-8.6°C 46% 7.0 mph NNE11.3 kmh NNE 11.0 mph17.7 kmh 30.17 in1021.7 mb 0.02 in0.5 mm 0.00 in0.0 mm 0.17 in4.3 mm
02:41 PM 35.4°F1.9°C 16.0°F-8.9°C 45% 6.0 mph NNW9.7 kmh NNW 11.0 mph17.7 kmh 30.17 in1021.7 mb 0.02 in0.5 mm 0.00 in0.0 mm 0.17 in4.3 mm
02:42 PM 35.2°F1.8°C 15.8°F-9.0°C 45% 6.0 mph NNW9.7 kmh NNW 11.0 mph17.7 kmh 30.17 in1021.7 mb 0.02 in0.5 mm 0.00 in0.0 mm 0.17 in4.3 mm
02:43 PM 35.2°F1.8°C 15.8°F-9.0°C 45% 6.0 mph 9.7 kmh 11.0 mph17.7 kmh 30.17 in1021.7 mb 0.02 in0.5 mm 0.00 in0.0 mm 0.17 in4.3 mm
02:44 PM 35.2°F1.8°C 15.8°F-9.0°C 45% 7.0 mph 11.3 kmh 11.0 mph17.7 kmh 30.17 in1021.7 mb 0.02 in0.5 mm 0.00 in0.0 mm 0.17 in4.3 mm
02:45 PM 35.2°F1.8°C 15.8°F-9.0°C 45% 5.0 mph NNE8.0 kmh NNE 11.0 mph17.7 kmh 30.17 in1021.7 mb 0.02 in0.5 mm 0.00 in0.0 mm 0.17 in4.3 mm
02:46 PM 35.2°F1.8°C 15.8°F-9.0°C 45% 8.0 mph 12.9 kmh 11.0 mph17.7 kmh 30.17 in1021.7 mb 0.02 in0.5 mm 0.00 in0.0 mm 0.17 in4.3 mm
02:47 PM 35.0°F1.7°C 15.7°F-9.1°C 45% 9.0 mph NNW14.5 kmh NNW 11.0 mph17.7 kmh 30.17 in1021.7 mb 0.02 in0.5 mm 0.00 in0.0 mm 0.17 in4.3 mm
02:48 PM 34.8°F1.6°C 15.5°F-9.2°C 45% 8.0 mph NNW12.9 kmh NNW 11.0 mph17.7 kmh 30.17 in1021.7 mb 0.02 in0.5 mm 0.00 in0.0 mm 0.17 in4.3 mm
02:49 PM 34.8°F1.6°C 15.5°F-9.2°C 45% 4.0 mph NNW6.4 kmh NNW 11.0 mph17.7 kmh 30.17 in1021.7 mb 0.02 in0.5 mm 0.00 in0.0 mm 0.17 in4.3 mm
02:50 PM 34.8°F1.6°C 15.5°F-9.2°C 45% 7.0 mph NNE11.3 kmh NNE 11.0 mph17.7 kmh 30.17 in1021.7 mb 0.02 in0.5 mm 0.00 in0.0 mm 0.17 in4.3 mm
02:51 PM 34.8°F1.6°C 16.0°F-8.9°C 46% 7.0 mph 11.3 kmh 11.0 mph17.7 kmh 30.17 in1021.7 mb 0.02 in0.5 mm 0.00 in0.0 mm 0.17 in4.3 mm
02:52 PM 35.0°F1.7°C 16.2°F-8.8°C 46% 6.0 mph NE9.7 kmh NE 11.0 mph17.7 kmh 30.17 in1021.7 mb 0.02 in0.5 mm 0.00 in0.0 mm 0.17 in4.3 mm
02:53 PM 35.2°F1.8°C 16.4°F-8.7°C 46% 7.0 mph NNW11.3 kmh NNW 11.0 mph17.7 kmh 30.17 in1021.7 mb 0.02 in0.5 mm 0.00 in0.0 mm 0.17 in4.3 mm
02:54 PM 35.2°F1.8°C 16.4°F-8.7°C 46% 9.0 mph NNE14.5 kmh NNE 11.0 mph17.7 kmh 30.17 in1021.7 mb 0.02 in0.5 mm 0.00 in0.0 mm 0.17 in4.3 mm
02:55 PM 35.0°F1.7°C 15.7°F-9.1°C 45% 9.0 mph NNE14.5 kmh NNE 11.0 mph17.7 kmh 30.17 in1021.7 mb 0.02 in0.5 mm 0.00 in0.0 mm 0.17 in4.3 mm
02:56 PM 35.0°F1.7°C 15.7°F-9.1°C 45% 7.0 mph NNW11.3 kmh NNW 11.0 mph17.7 kmh 30.17 in1021.7 mb 0.02 in0.5 mm 0.00 in0.0 mm 0.17 in4.3 mm
02:57 PM 35.2°F1.8°C 15.8°F-9.0°C 45% 8.0 mph NNE12.9 kmh NNE 11.0 mph17.7 kmh 30.17 in1021.7 mb 0.01 in0.3 mm 0.00 in0.0 mm 0.17 in4.3 mm
02:58 PM 35.2°F1.8°C 15.8°F-9.0°C 45% 6.0 mph NNW9.7 kmh NNW 9.0 mph14.5 kmh 30.17 in1021.7 mb 0.01 in0.3 mm 0.00 in0.0 mm 0.17 in4.3 mm
02:59 PM 35.2°F1.8°C 15.8°F-9.0°C 45% 9.0 mph 14.5 kmh 9.0 mph14.5 kmh 30.17 in1021.7 mb 0.01 in0.3 mm 0.00 in0.0 mm 0.17 in4.3 mm
03:00 PM 35.0°F1.7°C 15.7°F-9.1°C 45% 8.0 mph NNW12.9 kmh NNW 9.0 mph14.5 kmh 30.17 in1021.7 mb 0.01 in0.3 mm 0.00 in0.0 mm 0.17 in4.3 mm
03:01 PM 35.0°F1.7°C 15.7°F-9.1°C 45% 5.0 mph NW8.0 kmh NW 9.0 mph14.5 kmh 30.17 in1021.7 mb 0.01 in0.3 mm 0.00 in0.0 mm 0.17 in4.3 mm
03:02 PM 35.0°F1.7°C 15.7°F-9.1°C 45% 6.0 mph NNW9.7 kmh NNW 9.0 mph14.5 kmh 30.17 in1021.7 mb 0.01 in0.3 mm 0.00 in0.0 mm 0.17 in4.3 mm
03:03 PM 35.2°F1.8°C 15.8°F-9.0°C 45% 9.0 mph NNW14.5 kmh NNW 9.0 mph14.5 kmh 30.17 in1021.7 mb 0.01 in0.3 mm 0.00 in0.0 mm 0.17 in4.3 mm
03:04 PM 35.2°F1.8°C 15.8°F-9.0°C 45% 8.0 mph 12.9 kmh 9.0 mph14.5 kmh 30.17 in1021.7 mb 0.01 in0.3 mm 0.00 in0.0 mm 0.17 in4.3 mm
03:05 PM 35.2°F1.8°C 15.3°F-9.3°C 44% 11.0 mph 17.7 kmh 11.0 mph17.7 kmh 30.17 in1021.7 mb 0.01 in0.3 mm 0.00 in0.0 mm 0.17 in4.3 mm
03:06 PM 35.2°F1.8°C 15.3°F-9.3°C 44% 11.0 mph 17.7 kmh 11.0 mph17.7 kmh 30.17 in1021.7 mb 0.01 in0.3 mm 0.00 in0.0 mm 0.17 in4.3 mm
03:07 PM 35.2°F1.8°C 14.8°F-9.6°C 43% 8.0 mph 12.9 kmh 11.0 mph17.7 kmh 30.17 in1021.7 mb 0.01 in0.3 mm 0.00 in0.0 mm 0.17 in4.3 mm
03:08 PM 35.0°F1.7°C 15.1°F-9.4°C 44% 8.0 mph 12.9 kmh 11.0 mph17.7 kmh 30.17 in1021.7 mb 0.01 in0.3 mm 0.00 in0.0 mm 0.17 in4.3 mm
03:09 PM 35.0°F1.7°C 15.1°F-9.4°C 44% 5.0 mph NE8.0 kmh NE 11.0 mph17.7 kmh 30.17 in1021.7 mb 0.01 in0.3 mm 0.00 in0.0 mm 0.17 in4.3 mm
03:10 PM 35.0°F1.7°C 15.1°F-9.4°C 44% 6.0 mph NW9.7 kmh NW 11.0 mph17.7 kmh 30.17 in1021.7 mb 0.01 in0.3 mm 0.00 in0.0 mm 0.17 in4.3 mm
03:11 PM 35.2°F1.8°C 15.3°F-9.3°C 44% 6.0 mph NNW9.7 kmh NNW 11.0 mph17.7 kmh 30.17 in1021.7 mb 0.01 in0.3 mm 0.00 in0.0 mm 0.17 in4.3 mm
03:12 PM 35.2°F1.8°C 15.3°F-9.3°C 44% 6.0 mph 9.7 kmh 11.0 mph17.7 kmh 30.18 in1022.0 mb 0.01 in0.3 mm 0.00 in0.0 mm 0.17 in4.3 mm
03:13 PM 35.0°F1.7°C 15.1°F-9.4°C 44% 7.0 mph 11.3 kmh 11.0 mph17.7 kmh 30.18 in1022.0 mb 0.01 in0.3 mm 0.00 in0.0 mm 0.17 in4.3 mm
03:14 PM 35.0°F1.7°C 15.1°F-9.4°C 44% 7.0 mph 11.3 kmh 11.0 mph17.7 kmh 30.17 in1021.7 mb 0.01 in0.3 mm 0.00 in0.0 mm 0.17 in4.3 mm
03:15 PM 35.0°F1.7°C 15.1°F-9.4°C 44% 8.0 mph NNE12.9 kmh NNE 11.0 mph17.7 kmh 30.17 in1021.7 mb 0.00 in0.0 mm 0.00 in0.0 mm 0.17 in4.3 mm
03:16 PM 35.0°F1.7°C 15.1°F-9.4°C 44% 8.0 mph NNE12.9 kmh NNE 11.0 mph17.7 kmh 30.17 in1021.7 mb 0.00 in0.0 mm 0.00 in0.0 mm 0.17 in4.3 mm
03:17 PM 35.0°F1.7°C 15.7°F-9.1°C 45% 6.0 mph 9.7 kmh 10.0 mph16.1 kmh 30.18 in1022.0 mb 0.00 in0.0 mm 0.00 in0.0 mm 0.17 in4.3 mm
03:18 PM 35.0°F1.7°C 15.7°F-9.1°C 45% 6.0 mph 9.7 kmh 10.0 mph16.1 kmh 30.17 in1021.7 mb 0.00 in0.0 mm 0.00 in0.0 mm 0.17 in4.3 mm
03:19 PM 35.0°F1.7°C 15.7°F-9.1°C 45% 7.0 mph NNE11.3 kmh NNE 10.0 mph16.1 kmh 30.17 in1021.7 mb 0.00 in0.0 mm 0.00 in0.0 mm 0.17 in4.3 mm
03:20 PM 35.0°F1.7°C 15.1°F-9.4°C 44% 7.0 mph NE11.3 kmh NE 10.0 mph16.1 kmh 30.17 in1021.7 mb 0.00 in0.0 mm 0.00 in0.0 mm 0.17 in4.3 mm
03:21 PM 35.0°F1.7°C 15.1°F-9.4°C 44% 7.0 mph NE11.3 kmh NE 10.0 mph16.1 kmh 30.18 in1022.0 mb 0.00 in0.0 mm 0.00 in0.0 mm 0.17 in4.3 mm
03:22 PM 35.0°F1.7°C 15.1°F-9.4°C 44% 8.0 mph NNE12.9 kmh NNE 10.0 mph16.1 kmh 30.18 in1022.0 mb 0.00 in0.0 mm 0.00 in0.0 mm 0.17 in4.3 mm
03:23 PM 35.0°F1.7°C 15.1°F-9.4°C 44% 5.0 mph NNE8.0 kmh NNE 10.0 mph16.1 kmh 30.18 in1022.0 mb 0.00 in0.0 mm 0.00 in0.0 mm 0.17 in4.3 mm
03:24 PM 35.0°F1.7°C 15.1°F-9.4°C 44% 5.0 mph NNE8.0 kmh NNE 10.0 mph16.1 kmh 30.17 in1021.7 mb 0.00 in0.0 mm 0.00 in0.0 mm 0.17 in4.3 mm
03:25 PM 35.2°F1.8°C 15.3°F-9.3°C 44% 5.0 mph NNW8.0 kmh NNW 12.0 mph19.3 kmh 30.17 in1021.7 mb 0.00 in0.0 mm 0.00 in0.0 mm 0.17 in4.3 mm
03:26 PM 35.2°F1.8°C 15.3°F-9.3°C 44% 7.0 mph NNW11.3 kmh NNW 12.0 mph19.3 kmh 30.17 in1021.7 mb 0.00 in0.0 mm 0.00 in0.0 mm 0.17 in4.3 mm
03:27 PM 35.4°F1.9°C 14.9°F-9.5°C 43% 6.0 mph NNW9.7 kmh NNW 12.0 mph19.3 kmh 30.18 in1022.0 mb 0.00 in0.0 mm 0.00 in0.0 mm 0.17 in4.3 mm
03:28 PM 35.4°F1.9°C 14.9°F-9.5°C 43% 6.0 mph NNW9.7 kmh NNW 12.0 mph19.3 kmh 30.18 in1022.0 mb 0.00 in0.0 mm 0.00 in0.0 mm 0.17 in4.3 mm
03:29 PM 35.5°F1.9°C 15.0°F-9.4°C 43% 4.0 mph NNE6.4 kmh NNE 12.0 mph19.3 kmh 30.18 in1022.0 mb 0.00 in0.0 mm 0.00 in0.0 mm 0.17 in4.3 mm
03:30 PM 35.5°F1.9°C 15.0°F-9.4°C 43% 8.0 mph NNW12.9 kmh NNW 12.0 mph19.3 kmh 30.18 in1022.0 mb 0.00 in0.0 mm 0.00 in0.0 mm 0.17 in4.3 mm
03:31 PM 35.5°F1.9°C 13.9°F-10.1°C 41% 8.0 mph NNW12.9 kmh NNW 12.0 mph19.3 kmh 30.18 in1022.0 mb 0.00 in0.0 mm 0.00 in0.0 mm 0.17 in4.3 mm
03:32 PM 35.5°F1.9°C 15.0°F-9.4°C 43% 6.0 mph 9.7 kmh 12.0 mph19.3 kmh 30.18 in1022.0 mb 0.00 in0.0 mm 0.00 in0.0 mm 0.17 in4.3 mm
03:33 PM 35.4°F1.9°C 14.9°F-9.5°C 43% 8.0 mph NNW12.9 kmh NNW 12.0 mph19.3 kmh 30.18 in1022.0 mb 0.00 in0.0 mm 0.00 in0.0 mm 0.17 in4.3 mm
03:34 PM 35.4°F1.9°C 14.9°F-9.5°C 43% 7.0 mph NE11.3 kmh NE 12.0 mph19.3 kmh 30.18 in1022.0 mb 0.00 in0.0 mm 0.00 in0.0 mm 0.17 in4.3 mm
03:35 PM 35.4°F1.9°C 14.9°F-9.5°C 43% 10.0 mph 16.1 kmh 11.0 mph17.7 kmh 30.18 in1022.0 mb 0.00 in0.0 mm 0.00 in0.0 mm 0.17 in4.3 mm
03:36 PM 35.2°F1.8°C 15.3°F-9.3°C 44% 6.0 mph NNE9.7 kmh NNE 11.0 mph17.7 kmh 30.18 in1022.0 mb 0.00 in0.0 mm 0.00 in0.0 mm 0.17 in4.3 mm
03:37 PM 35.4°F1.9°C 15.5°F-9.2°C 44% 6.0 mph 9.7 kmh 11.0 mph17.7 kmh 30.18 in1022.0 mb 0.00 in0.0 mm 0.00 in0.0 mm 0.17 in4.3 mm
03:38 PM 35.2°F1.8°C 15.3°F-9.3°C 44% 7.0 mph 11.3 kmh 11.0 mph17.7 kmh 30.18 in1022.0 mb 0.00 in0.0 mm 0.00 in0.0 mm 0.17 in4.3 mm
03:39 PM 35.2°F1.8°C 15.3°F-9.3°C 44% 6.0 mph NNE9.7 kmh NNE 11.0 mph17.7 kmh 30.19 in1022.4 mb 0.00 in0.0 mm 0.00 in0.0 mm 0.17 in4.3 mm
03:40 PM 35.2°F1.8°C 15.3°F-9.3°C 44% 6.0 mph NNE9.7 kmh NNE 11.0 mph17.7 kmh 30.19 in1022.4 mb 0.00 in0.0 mm 0.00 in0.0 mm 0.17 in4.3 mm
03:41 PM 35.2°F1.8°C 15.8°F-9.0°C 45% 6.0 mph NNE9.7 kmh NNE 11.0 mph17.7 kmh 30.18 in1022.0 mb 0.00 in0.0 mm 0.00 in0.0 mm 0.17 in4.3 mm
03:42 PM 35.2°F1.8°C 15.8°F-9.0°C 45% 4.0 mph NNE6.4 kmh NNE 11.0 mph17.7 kmh 30.19 in1022.4 mb 0.00 in0.0 mm 0.00 in0.0 mm 0.17 in4.3 mm
03:43 PM 35.2°F1.8°C 15.8°F-9.0°C 45% 7.0 mph NNE11.3 kmh NNE 11.0 mph17.7 kmh 30.19 in1022.4 mb 0.00 in0.0 mm 0.00 in0.0 mm 0.17 in4.3 mm
03:44 PM 35.2°F1.8°C 15.3°F-9.3°C 44% 7.0 mph NNE11.3 kmh NNE 11.0 mph17.7 kmh 30.19 in1022.4 mb 0.00 in0.0 mm 0.00 in0.0 mm 0.17 in4.3 mm
03:45 PM 35.0°F1.7°C 15.1°F-9.4°C 44% 8.0 mph 12.9 kmh 10.0 mph16.1 kmh 30.19 in1022.4 mb 0.00 in0.0 mm 0.00 in0.0 mm 0.17 in4.3 mm
03:46 PM 35.0°F1.7°C 15.1°F-9.4°C 44% 8.0 mph 12.9 kmh 10.0 mph16.1 kmh 30.19 in1022.4 mb 0.00 in0.0 mm 0.00 in0.0 mm 0.17 in4.3 mm
03:47 PM 35.0°F1.7°C 15.1°F-9.4°C 44% 10.0 mph NW16.1 kmh NW 12.0 mph19.3 kmh 30.19 in1022.4 mb 0.00 in0.0 mm 0.00 in0.0 mm 0.17 in4.3 mm
03:48 PM 35.0°F1.7°C 15.1°F-9.4°C 44% 10.0 mph NW16.1 kmh NW 12.0 mph19.3 kmh 30.19 in1022.4 mb 0.00 in0.0 mm 0.00 in0.0 mm 0.17 in4.3 mm
03:49 PM 35.0°F1.7°C 15.1°F-9.4°C 44% 7.0 mph NW11.3 kmh NW 13.0 mph20.9 kmh 30.19 in1022.4 mb 0.00 in0.0 mm 0.00 in0.0 mm 0.17 in4.3 mm
03:50 PM 34.7°F1.5°C 14.3°F-9.8°C 43% 7.0 mph NNE11.3 kmh NNE 13.0 mph20.9 kmh 30.19 in1022.4 mb 0.00 in0.0 mm 0.00 in0.0 mm 0.17 in4.3 mm
03:51 PM 34.7°F1.5°C 14.9°F-9.5°C 44% 8.0 mph NNE12.9 kmh NNE 13.0 mph20.9 kmh 30.19 in1022.4 mb 0.00 in0.0 mm 0.00 in0.0 mm 0.17 in4.3 mm
03:52 PM 34.7°F1.5°C 14.9°F-9.5°C 44% 8.0 mph NNE12.9 kmh NNE 13.0 mph20.9 kmh 30.19 in1022.4 mb 0.00 in0.0 mm 0.00 in0.0 mm 0.17 in4.3 mm
03:53 PM 34.7°F1.5°C 14.9°F-9.5°C 44% 8.0 mph 12.9 kmh 13.0 mph20.9 kmh 30.19 in1022.4 mb 0.00 in0.0 mm 0.00 in0.0 mm 0.17 in4.3 mm
03:54 PM 34.7°F1.5°C 14.9°F-9.5°C 44% 10.0 mph NNE16.1 kmh NNE 13.0 mph20.9 kmh 30.19 in1022.4 mb 0.00 in0.0 mm 0.00 in0.0 mm 0.17 in4.3 mm
03:55 PM 34.5°F1.4°C 14.7°F-9.6°C 44% 10.0 mph NNE16.1 kmh NNE 13.0 mph20.9 kmh 30.20 in1022.7 mb 0.00 in0.0 mm 0.00 in0.0 mm 0.17 in4.3 mm
03:56 PM 34.7°F1.5°C 14.9°F-9.5°C 44% 6.0 mph NW9.7 kmh NW 13.0 mph20.9 kmh 30.20 in1022.7 mb 0.00 in0.0 mm 0.00 in0.0 mm 0.17 in4.3 mm
03:57 PM 34.7°F1.5°C 14.9°F-9.5°C 44% 6.0 mph 9.7 kmh 13.0 mph20.9 kmh 30.20 in1022.7 mb 0.00 in0.0 mm 0.00 in0.0 mm 0.17 in4.3 mm
03:58 PM 34.7°F1.5°C 14.9°F-9.5°C 44% 7.0 mph 11.3 kmh 13.0 mph20.9 kmh 30.20 in1022.7 mb 0.00 in0.0 mm 0.00 in0.0 mm 0.17 in4.3 mm
03:59 PM 34.5°F1.4°C 14.7°F-9.6°C 44% 9.0 mph 14.5 kmh 10.0 mph16.1 kmh 30.20 in1022.7 mb 0.00 in0.0 mm 0.00 in0.0 mm 0.17 in4.3 mm
04:00 PM 34.5°F1.4°C 14.7°F-9.6°C 44% 7.0 mph NNE11.3 kmh NNE 10.0 mph16.1 kmh 30.20 in1022.7 mb 0.00 in0.0 mm 0.00 in0.0 mm 0.17 in4.3 mm
04:01 PM 34.5°F1.4°C 14.7°F-9.6°C 44% 8.0 mph NNE12.9 kmh NNE 10.0 mph16.1 kmh 30.20 in1022.7 mb 0.00 in0.0 mm 0.00 in0.0 mm 0.17 in4.3 mm
04:02 PM 34.5°F1.4°C 14.7°F-9.6°C 44% 7.0 mph NNE11.3 kmh NNE 10.0 mph16.1 kmh 30.20 in1022.7 mb 0.00 in0.0 mm 0.00 in0.0 mm 0.17 in4.3 mm
04:03 PM 34.3°F1.3°C 14.5°F-9.7°C 44% 7.0 mph 11.3 kmh 10.0 mph16.1 kmh 30.20 in1022.7 mb 0.00 in0.0 mm 0.00 in0.0 mm 0.17 in4.3 mm
04:04 PM 34.3°F1.3°C 14.5°F-9.7°C 44% 6.0 mph 9.7 kmh 11.0 mph17.7 kmh 30.20 in1022.7 mb 0.00 in0.0 mm 0.00 in0.0 mm 0.17 in4.3 mm
04:05 PM 34.3°F1.3°C 14.5°F-9.7°C 44% 6.0 mph NNE9.7 kmh NNE 11.0 mph17.7 kmh 30.20 in1022.7 mb 0.00 in0.0 mm 0.00 in0.0 mm 0.17 in4.3 mm
04:06 PM 34.3°F1.3°C 14.5°F-9.7°C 44% 8.0 mph NNW12.9 kmh NNW 11.0 mph17.7 kmh 30.20 in1022.7 mb 0.00 in0.0 mm 0.00 in0.0 mm 0.17 in4.3 mm
04:07 PM 34.1°F1.2°C 14.8°F-9.6°C 45% 6.0 mph 9.7 kmh 11.0 mph17.7 kmh 30.20 in1022.7 mb 0.00 in0.0 mm 0.00 in0.0 mm 0.17 in4.3 mm
04:08 PM 34.1°F1.2°C 14.8°F-9.6°C 45% 8.0 mph NNE12.9 kmh NNE 11.0 mph17.7 kmh 30.20 in1022.7 mb 0.00 in0.0 mm 0.00 in0.0 mm 0.17 in4.3 mm
04:09 PM 33.9°F1.1°C 14.1°F-9.9°C 44% 8.0 mph NNE12.9 kmh NNE 11.0 mph17.7 kmh 30.21 in1023.0 mb 0.00 in0.0 mm 0.00 in0.0 mm 0.17 in4.3 mm
04:10 PM 33.9°F1.1°C 14.1°F-9.9°C 44% 7.0 mph NNE11.3 kmh NNE 11.0 mph17.7 kmh 30.21 in1023.0 mb 0.00 in0.0 mm 0.00 in0.0 mm 0.17 in4.3 mm
04:11 PM 33.8°F1.0°C 14.0°F-10.0°C 44% 6.0 mph NNE9.7 kmh NNE 11.0 mph17.7 kmh 30.21 in1023.0 mb 0.00 in0.0 mm 0.00 in0.0 mm 0.17 in4.3 mm
04:12 PM 33.8°F1.0°C 14.0°F-10.0°C 44% 5.0 mph NNE8.0 kmh NNE 11.0 mph17.7 kmh 30.21 in1023.0 mb 0.00 in0.0 mm 0.00 in0.0 mm 0.17 in4.3 mm
04:13 PM 33.8°F1.0°C 13.5°F-10.3°C 43% 12.0 mph NE19.3 kmh NE 12.0 mph19.3 kmh 30.21 in1023.0 mb 0.00 in0.0 mm 0.00 in0.0 mm 0.17 in4.3 mm
04:14 PM 33.8°F1.0°C 13.5°F-10.3°C 43% 12.0 mph NNE19.3 kmh NNE 13.0 mph20.9 kmh 30.21 in1023.0 mb 0.00 in0.0 mm 0.00 in0.0 mm 0.17 in4.3 mm
04:15 PM 33.8°F1.0°C 13.5°F-10.3°C 43% 5.0 mph NNE8.0 kmh NNE 13.0 mph20.9 kmh 30.21 in1023.0 mb 0.00 in0.0 mm 0.00 in0.0 mm 0.17 in4.3 mm
04:16 PM 33.6°F0.9°C 13.8°F-10.1°C 44% 4.0 mph NNW6.4 kmh NNW 13.0 mph20.9 kmh 30.21 in1023.0 mb 0.00 in0.0 mm 0.00 in0.0 mm 0.17 in4.3 mm
04:17 PM 33.6°F0.9°C 13.8°F-10.1°C 44% 8.0 mph NNW12.9 kmh NNW 13.0 mph20.9 kmh 30.21 in1023.0 mb 0.00 in0.0 mm 0.00 in0.0 mm 0.17 in4.3 mm
04:18 PM 33.6°F0.9°C 13.8°F-10.1°C 44% 11.0 mph 17.7 kmh 13.0 mph20.9 kmh 30.21 in1023.0 mb 0.00 in0.0 mm 0.00 in0.0 mm 0.17 in4.3 mm
04:19 PM 33.6°F0.9°C 13.8°F-10.1°C 44% 8.0 mph NNW12.9 kmh NNW 13.0 mph20.9 kmh 30.21 in1023.0 mb 0.00 in0.0 mm 0.00 in0.0 mm 0.17 in4.3 mm
04:20 PM 33.4°F0.8°C 13.7°F-10.2°C 44% 11.0 mph NNW17.7 kmh NNW 13.0 mph20.9 kmh 30.21 in1023.0 mb 0.00 in0.0 mm 0.00 in0.0 mm 0.17 in4.3 mm
04:21 PM 33.4°F0.8°C 13.7°F-10.2°C 44% 8.0 mph NNW12.9 kmh NNW 13.0 mph20.9 kmh 30.21 in1023.0 mb 0.00 in0.0 mm 0.00 in0.0 mm 0.17 in4.3 mm
04:22 PM 33.4°F0.8°C 13.7°F-10.2°C 44% 11.0 mph NNW17.7 kmh NNW 13.0 mph20.9 kmh 30.21 in1023.0 mb 0.00 in0.0 mm 0.00 in0.0 mm 0.17 in4.3 mm
04:23 PM 33.4°F0.8°C 13.7°F-10.2°C 44% 6.0 mph WNW9.7 kmh WNW 13.0 mph20.9 kmh 30.21 in1023.0 mb 0.00 in0.0 mm 0.00 in0.0 mm 0.17 in4.3 mm
04:24 PM 33.4°F0.8°C 13.1°F-10.5°C 43% 8.0 mph WNW12.9 kmh WNW 13.0 mph20.9 kmh 30.21 in1023.0 mb 0.00 in0.0 mm 0.00 in0.0 mm 0.17 in4.3 mm
04:25 PM 33.4°F0.8°C 13.1°F-10.5°C 43% 8.0 mph WNW12.9 kmh WNW 11.0 mph17.7 kmh 30.21 in1023.0 mb 0.00 in0.0 mm 0.00 in0.0 mm 0.17 in4.3 mm
04:26 PM 33.4°F0.8°C 13.7°F-10.2°C 44% 9.0 mph NNE14.5 kmh NNE 11.0 mph17.7 kmh 30.21 in1023.0 mb 0.00 in0.0 mm 0.00 in0.0 mm 0.17 in4.3 mm
04:27 PM 33.4°F0.8°C 13.7°F-10.2°C 44% 7.0 mph ENE11.3 kmh ENE 11.0 mph17.7 kmh 30.21 in1023.0 mb 0.00 in0.0 mm 0.00 in0.0 mm 0.17 in4.3 mm
04:28 PM 33.4°F0.8°C 13.7°F-10.2°C 44% 9.0 mph NNW14.5 kmh NNW 11.0 mph17.7 kmh 30.21 in1023.0 mb 0.00 in0.0 mm 0.00 in0.0 mm 0.17 in4.3 mm
04:29 PM 33.4°F0.8°C 13.7°F-10.2°C 44% 8.0 mph WNW12.9 kmh WNW 11.0 mph17.7 kmh 30.21 in1023.0 mb 0.00 in0.0 mm 0.00 in0.0 mm 0.17 in4.3 mm
04:30 PM 33.4°F0.8°C 13.7°F-10.2°C 44% 6.0 mph 9.7 kmh 11.0 mph17.7 kmh 30.21 in1023.0 mb 0.00 in0.0 mm 0.00 in0.0 mm 0.17 in4.3 mm
04:31 PM 33.4°F0.8°C 14.2°F-9.9°C 45% 6.0 mph 9.7 kmh 11.0 mph17.7 kmh 30.21 in1023.0 mb 0.00 in0.0 mm 0.00 in0.0 mm 0.17 in4.3 mm
04:32 PM 33.6°F0.9°C 14.4°F-9.8°C 45% 8.0 mph NNE12.9 kmh NNE 10.0 mph16.1 kmh 30.21 in1023.0 mb 0.00 in0.0 mm 0.00 in0.0 mm 0.17 in4.3 mm
04:33 PM 33.6°F0.9°C 14.4°F-9.8°C 45% 7.0 mph NNE11.3 kmh NNE 10.0 mph16.1 kmh 30.21 in1023.0 mb 0.00 in0.0 mm 0.00 in0.0 mm 0.17 in4.3 mm
04:34 PM 33.6°F0.9°C 13.8°F-10.1°C 44% 7.0 mph NNE11.3 kmh NNE 10.0 mph16.1 kmh 30.21 in1023.0 mb 0.00 in0.0 mm 0.00 in0.0 mm 0.17 in4.3 mm
04:35 PM 33.4°F0.8°C 13.7°F-10.2°C 44% 14.0 mph NNW22.5 kmh NNW 14.0 mph22.5 kmh 30.21 in1023.0 mb 0.00 in0.0 mm 0.00 in0.0 mm 0.17 in4.3 mm
04:36 PM 33.4°F0.8°C 13.7°F-10.2°C 44% 14.0 mph NNW22.5 kmh NNW 14.0 mph22.5 kmh 30.21 in1023.0 mb 0.00 in0.0 mm 0.00 in0.0 mm 0.17 in4.3 mm
04:37 PM 33.6°F0.9°C 14.4°F-9.8°C 45% 6.0 mph NNW9.7 kmh NNW 14.0 mph22.5 kmh 30.21 in1023.0 mb 0.00 in0.0 mm 0.00 in0.0 mm 0.17 in4.3 mm
04:38 PM 33.6°F0.9°C 14.4°F-9.8°C 45% 10.0 mph 16.1 kmh 14.0 mph22.5 kmh 30.21 in1023.0 mb 0.00 in0.0 mm 0.00 in0.0 mm 0.17 in4.3 mm
04:39 PM 33.6°F0.9°C 14.4°F-9.8°C 45% 8.0 mph NNE12.9 kmh NNE 14.0 mph22.5 kmh 30.21 in1023.0 mb 0.00 in0.0 mm 0.00 in0.0 mm 0.17 in4.3 mm
04:40 PM 33.6°F0.9°C 13.8°F-10.1°C 44% 8.0 mph NNE12.9 kmh NNE 14.0 mph22.5 kmh 30.21 in1023.0 mb 0.00 in0.0 mm 0.00 in0.0 mm 0.17 in4.3 mm
04:41 PM 33.6°F0.9°C 14.4°F-9.8°C 45% 12.0 mph NNE19.3 kmh NNE 14.0 mph22.5 kmh 30.21 in1023.0 mb 0.00 in0.0 mm 0.00 in0.0 mm 0.17 in4.3 mm
04:42 PM 33.6°F0.9°C 13.8°F-10.1°C 44% 7.0 mph NNW11.3 kmh NNW 14.0 mph22.5 kmh 30.21 in1023.0 mb 0.00 in0.0 mm 0.00 in0.0 mm 0.17 in4.3 mm
04:43 PM 33.6°F0.9°C 13.8°F-10.1°C 44% 9.0 mph 14.5 kmh 14.0 mph22.5 kmh 30.21 in1023.0 mb 0.00 in0.0 mm 0.00 in0.0 mm 0.17 in4.3 mm
04:44 PM 33.6°F0.9°C 14.4°F-9.8°C 45% 8.0 mph NNE12.9 kmh NNE 14.0 mph22.5 kmh 30.21 in1023.0 mb 0.00 in0.0 mm 0.00 in0.0 mm 0.17 in4.3 mm
04:45 PM 33.6°F0.9°C 14.4°F-9.8°C 45% 6.0 mph NNW9.7 kmh NNW 12.0 mph19.3 kmh 30.21 in1023.0 mb 0.00 in0.0 mm 0.00 in0.0 mm 0.17 in4.3 mm
04:46 PM 33.8°F1.0°C 14.0°F-10.0°C 44% 11.0 mph 17.7 kmh 12.0 mph19.3 kmh 30.21 in1023.0 mb 0.00 in0.0 mm 0.00 in0.0 mm 0.17 in4.3 mm
04:47 PM 33.8°F1.0°C 14.0°F-10.0°C 44% 11.0 mph NNE17.7 kmh NNE 12.0 mph19.3 kmh 30.21 in1023.0 mb 0.00 in0.0 mm 0.00 in0.0 mm 0.17 in4.3 mm
04:48 PM 33.8°F1.0°C 14.0°F-10.0°C 44% 8.0 mph NNW12.9 kmh NNW 12.0 mph19.3 kmh 30.21 in1023.0 mb 0.00 in0.0 mm 0.00 in0.0 mm 0.17 in4.3 mm
04:49 PM 33.6°F0.9°C 14.4°F-9.8°C 45% 10.0 mph 16.1 kmh 12.0 mph19.3 kmh 30.21 in1023.0 mb 0.00 in0.0 mm 0.00 in0.0 mm 0.17 in4.3 mm
04:50 PM 33.6°F0.9°C 14.4°F-9.8°C 45% 9.0 mph NNW14.5 kmh NNW 12.0 mph19.3 kmh 30.21 in1023.0 mb 0.00 in0.0 mm 0.00 in0.0 mm 0.17 in4.3 mm
04:51 PM 33.6°F0.9°C 14.4°F-9.8°C 45% 6.0 mph 9.7 kmh 11.0 mph17.7 kmh 30.21 in1023.0 mb 0.00 in0.0 mm 0.00 in0.0 mm 0.17 in4.3 mm
04:52 PM 33.8°F1.0°C 14.6°F-9.7°C 45% 5.0 mph 8.0 kmh 11.0 mph17.7 kmh 30.21 in1023.0 mb 0.00 in0.0 mm 0.00 in0.0 mm 0.17 in4.3 mm
04:53 PM 33.8°F1.0°C 14.6°F-9.7°C 45% 9.0 mph 14.5 kmh 11.0 mph17.7 kmh 30.21 in1023.0 mb 0.00 in0.0 mm 0.00 in0.0 mm 0.17 in4.3 mm
04:54 PM 33.8°F1.0°C 14.6°F-9.7°C 45% 9.0 mph 14.5 kmh 11.0 mph17.7 kmh 30.21 in1023.0 mb 0.00 in0.0 mm 0.00 in0.0 mm 0.17 in4.3 mm
04:55 PM 33.8°F1.0°C 14.6°F-9.7°C 45% 10.0 mph 16.1 kmh 11.0 mph17.7 kmh 30.21 in1023.0 mb 0.00 in0.0 mm 0.00 in0.0 mm 0.17 in4.3 mm
04:56 PM 33.8°F1.0°C 14.6°F-9.7°C 45% 10.0 mph 16.1 kmh 11.0 mph17.7 kmh 30.21 in1023.0 mb 0.00 in0.0 mm 0.00 in0.0 mm 0.17 in4.3 mm
04:57 PM 33.8°F1.0°C 14.6°F-9.7°C 45% 9.0 mph 14.5 kmh 10.0 mph16.1 kmh 30.21 in1023.0 mb 0.00 in0.0 mm 0.00 in0.0 mm 0.17 in4.3 mm
04:58 PM 33.8°F1.0°C 14.6°F-9.7°C 45% 11.0 mph NNW17.7 kmh NNW 11.0 mph17.7 kmh 30.21 in1023.0 mb 0.00 in0.0 mm 0.00 in0.0 mm 0.17 in4.3 mm
04:59 PM 33.8°F1.0°C 14.6°F-9.7°C 45% 6.0 mph NE9.7 kmh NE 11.0 mph17.7 kmh 30.21 in1023.0 mb 0.00 in0.0 mm 0.00 in0.0 mm 0.17 in4.3 mm
05:00 PM 33.8°F1.0°C 14.6°F-9.7°C 45% 7.0 mph NE11.3 kmh NE 11.0 mph17.7 kmh 30.21 in1023.0 mb 0.00 in0.0 mm 0.00 in0.0 mm 0.17 in4.3 mm
05:01 PM 33.8°F1.0°C 14.6°F-9.7°C 45% 12.0 mph 19.3 kmh 12.0 mph19.3 kmh 30.22 in1023.4 mb 0.00 in0.0 mm 0.00 in0.0 mm 0.17 in4.3 mm
05:02 PM 33.8°F1.0°C 14.6°F-9.7°C 45% 8.0 mph NW12.9 kmh NW 12.0 mph19.3 kmh 30.22 in1023.4 mb 0.00 in0.0 mm 0.00 in0.0 mm 0.17 in4.3 mm
05:03 PM 33.8°F1.0°C 14.6°F-9.7°C 45% 7.0 mph NNW11.3 kmh NNW 12.0 mph19.3 kmh 30.22 in1023.4 mb 0.00 in0.0 mm 0.00 in0.0 mm 0.17 in4.3 mm
05:04 PM 33.8°F1.0°C 14.6°F-9.7°C 45% 7.0 mph NW11.3 kmh NW 12.0 mph19.3 kmh 30.22 in1023.4 mb 0.00 in0.0 mm 0.00 in0.0 mm 0.17 in4.3 mm
05:05 PM 33.8°F1.0°C 14.6°F-9.7°C 45% 7.0 mph NW11.3 kmh NW 12.0 mph19.3 kmh 30.22 in1023.4 mb 0.00 in0.0 mm 0.00 in0.0 mm 0.17 in4.3 mm
05:06 PM 33.8°F1.0°C 14.6°F-9.7°C 45% 9.0 mph NE14.5 kmh NE 12.0 mph19.3 kmh 30.21 in1023.0 mb 0.00 in0.0 mm 0.00 in0.0 mm 0.17 in4.3 mm
05:07 PM 33.8°F1.0°C 14.6°F-9.7°C 45% 6.0 mph WNW9.7 kmh WNW 12.0 mph19.3 kmh 30.21 in1023.0 mb 0.00 in0.0 mm 0.00 in0.0 mm 0.17 in4.3 mm
05:08 PM 33.8°F1.0°C 14.0°F-10.0°C 44% 8.0 mph NNE12.9 kmh NNE 13.0 mph20.9 kmh 30.22 in1023.4 mb 0.00 in0.0 mm 0.00 in0.0 mm 0.17 in4.3 mm
05:09 PM 33.8°F1.0°C 14.6°F-9.7°C 45% 6.0 mph NNE9.7 kmh NNE 13.0 mph20.9 kmh 30.22 in1023.4 mb 0.00 in0.0 mm 0.00 in0.0 mm 0.17 in4.3 mm
05:10 PM 33.8°F1.0°C 14.6°F-9.7°C 45% 5.0 mph 8.0 kmh 13.0 mph20.9 kmh 30.22 in1023.4 mb 0.00 in0.0 mm 0.00 in0.0 mm 0.17 in4.3 mm
05:11 PM 33.8°F1.0°C 14.6°F-9.7°C 45% 12.0 mph 19.3 kmh 13.0 mph20.9 kmh 30.22 in1023.4 mb 0.00 in0.0 mm 0.00 in0.0 mm 0.17 in4.3 mm
05:12 PM 33.6°F0.9°C 14.4°F-9.8°C 45% 8.0 mph NW12.9 kmh NW 13.0 mph20.9 kmh 30.22 in1023.4 mb 0.00 in0.0 mm 0.00 in0.0 mm 0.17 in4.3 mm
05:13 PM 33.6°F0.9°C 14.4°F-9.8°C 45% 7.0 mph NW11.3 kmh NW 13.0 mph20.9 kmh 30.22 in1023.4 mb 0.00 in0.0 mm 0.00 in0.0 mm 0.17 in4.3 mm
05:14 PM 33.6°F0.9°C 14.4°F-9.8°C 45% 7.0 mph WNW11.3 kmh WNW 13.0 mph20.9 kmh 30.22 in1023.4 mb 0.00 in0.0 mm 0.00 in0.0 mm 0.17 in4.3 mm
05:15 PM 33.6°F0.9°C 14.4°F-9.8°C 45% 4.0 mph WNW6.4 kmh WNW 13.0 mph20.9 kmh 30.22 in1023.4 mb 0.00 in0.0 mm 0.00 in0.0 mm 0.17 in4.3 mm
05:16 PM 33.6°F0.9°C 14.4°F-9.8°C 45% 8.0 mph 12.9 kmh 13.0 mph20.9 kmh 30.22 in1023.4 mb 0.00 in0.0 mm 0.00 in0.0 mm 0.17 in4.3 mm
05:17 PM 33.6°F0.9°C 14.4°F-9.8°C 45% 8.0 mph NNW12.9 kmh NNW 13.0 mph20.9 kmh 30.22 in1023.4 mb 0.00 in0.0 mm 0.00 in0.0 mm 0.17 in4.3 mm
05:18 PM 33.4°F0.8°C 14.2°F-9.9°C 45% 4.0 mph NNE6.4 kmh NNE 12.0 mph19.3 kmh 30.22 in1023.4 mb 0.00 in0.0 mm 0.00 in0.0 mm 0.17 in4.3 mm
05:19 PM 33.4°F0.8°C 14.2°F-9.9°C 45% 11.0 mph NNE17.7 kmh NNE 12.0 mph19.3 kmh 30.22 in1023.4 mb 0.00 in0.0 mm 0.00 in0.0 mm 0.17 in4.3 mm
05:20 PM 33.4°F0.8°C 14.2°F-9.9°C 45% 8.0 mph NNE12.9 kmh NNE 12.0 mph19.3 kmh 30.23 in1023.7 mb 0.00 in0.0 mm 0.00 in0.0 mm 0.17 in4.3 mm
05:21 PM 33.2°F0.7°C 14.0°F-10.0°C 45% 6.0 mph NNW9.7 kmh NNW 12.0 mph19.3 kmh 30.23 in1023.7 mb 0.00 in0.0 mm 0.00 in0.0 mm 0.17 in4.3 mm
05:22 PM 33.2°F0.7°C 14.0°F-10.0°C 45% 6.0 mph NNW9.7 kmh NNW 11.0 mph17.7 kmh 30.22 in1023.4 mb 0.00 in0.0 mm 0.00 in0.0 mm 0.17 in4.3 mm
05:23 PM 33.2°F0.7°C 14.0°F-10.0°C 45% 7.0 mph 11.3 kmh 11.0 mph17.7 kmh 30.23 in1023.7 mb 0.00 in0.0 mm 0.00 in0.0 mm 0.17 in4.3 mm
05:24 PM 33.0°F0.6°C 13.8°F-10.1°C 45% 3.0 mph 4.8 kmh 11.0 mph17.7 kmh 30.23 in1023.7 mb 0.00 in0.0 mm 0.00 in0.0 mm 0.17 in4.3 mm
05:25 PM 33.0°F0.6°C 13.8°F-10.1°C 45% 5.0 mph NW8.0 kmh NW 11.0 mph17.7 kmh 30.23 in1023.7 mb 0.00 in0.0 mm 0.00 in0.0 mm 0.17 in4.3 mm
05:26 PM 33.0°F0.6°C 13.8°F-10.1°C 45% 4.0 mph NNW6.4 kmh NNW 11.0 mph17.7 kmh 30.23 in1023.7 mb 0.00 in0.0 mm 0.00 in0.0 mm 0.17 in4.3 mm
05:27 PM 33.2°F0.7°C 14.5°F-9.7°C 46% 4.0 mph ENE6.4 kmh ENE 11.0 mph17.7 kmh 30.23 in1023.7 mb 0.00 in0.0 mm 0.00 in0.0 mm 0.17 in4.3 mm
05:28 PM 33.2°F0.7°C 14.5°F-9.7°C 46% 4.0 mph NNW6.4 kmh NNW 11.0 mph17.7 kmh 30.23 in1023.7 mb 0.00 in0.0 mm 0.00 in0.0 mm 0.17 in4.3 mm
05:29 PM 33.2°F0.7°C 14.5°F-9.7°C 46% 4.0 mph NNW6.4 kmh NNW 11.0 mph17.7 kmh 30.23 in1023.7 mb 0.00 in0.0 mm 0.00 in0.0 mm 0.17 in4.3 mm
05:30 PM 33.2°F0.7°C 14.5°F-9.7°C 46% 8.0 mph NNW12.9 kmh NNW 9.0 mph14.5 kmh 30.23 in1023.7 mb 0.00 in0.0 mm 0.00 in0.0 mm 0.17 in4.3 mm
05:31 PM 33.2°F0.7°C 14.0°F-10.0°C 45% 6.0 mph NNW9.7 kmh NNW 9.0 mph14.5 kmh 30.23 in1023.7 mb 0.00 in0.0 mm 0.00 in0.0 mm 0.17 in4.3 mm
05:32 PM 33.2°F0.7°C 14.0°F-10.0°C 45% 11.0 mph 17.7 kmh 11.0 mph17.7 kmh 30.23 in1023.7 mb 0.00 in0.0 mm 0.00 in0.0 mm 0.17 in4.3 mm
05:33 PM 33.2°F0.7°C 14.0°F-10.0°C 45% 7.0 mph NNE11.3 kmh NNE 11.0 mph17.7 kmh 30.23 in1023.7 mb 0.00 in0.0 mm 0.00 in0.0 mm 0.17 in4.3 mm
05:34 PM 33.2°F0.7°C 14.5°F-9.7°C 46% 6.0 mph NW9.7 kmh NW 11.0 mph17.7 kmh 30.23 in1023.7 mb 0.00 in0.0 mm 0.00 in0.0 mm 0.17 in4.3 mm
05:35 PM 33.2°F0.7°C 14.5°F-9.7°C 46% 7.0 mph NNW11.3 kmh NNW 11.0 mph17.7 kmh 30.23 in1023.7 mb 0.00 in0.0 mm 0.00 in0.0 mm 0.17 in4.3 mm
05:36 PM 33.2°F0.7°C 14.0°F-10.0°C 45% 10.0 mph NNW16.1 kmh NNW 11.0 mph17.7 kmh 30.23 in1023.7 mb 0.00 in0.0 mm 0.00 in0.0 mm 0.17 in4.3 mm
05:37 PM 33.2°F0.7°C 14.0°F-10.0°C 45% 3.0 mph SSW4.8 kmh SSW 11.0 mph17.7 kmh 30.24 in1024.0 mb 0.00 in0.0 mm 0.00 in0.0 mm 0.17 in4.3 mm
05:38 PM 33.0°F0.6°C 13.8°F-10.1°C 45% 9.0 mph NNW14.5 kmh NNW 11.0 mph17.7 kmh 30.24 in1024.0 mb 0.00 in0.0 mm 0.00 in0.0 mm 0.17 in4.3 mm
05:39 PM 33.0°F0.6°C 13.8°F-10.1°C 45% 4.0 mph 6.4 kmh 11.0 mph17.7 kmh 30.24 in1024.0 mb 0.00 in0.0 mm 0.00 in0.0 mm 0.17 in4.3 mm
05:40 PM 33.0°F0.6°C 14.3°F-9.8°C 46% 4.0 mph NNW6.4 kmh NNW 11.0 mph17.7 kmh 30.24 in1024.0 mb 0.00 in0.0 mm 0.00 in0.0 mm 0.17 in4.3 mm
05:41 PM 33.0°F0.6°C 14.3°F-9.8°C 46% 7.0 mph NNW11.3 kmh NNW 11.0 mph17.7 kmh 30.24 in1024.0 mb 0.00 in0.0 mm 0.00 in0.0 mm 0.17 in4.3 mm
05:42 PM 33.0°F0.6°C 14.3°F-9.8°C 46% 6.0 mph NNE9.7 kmh NNE 10.0 mph16.1 kmh 30.24 in1024.0 mb 0.00 in0.0 mm 0.00 in0.0 mm 0.17 in4.3 mm
05:43 PM 33.0°F0.6°C 14.3°F-9.8°C 46% 8.0 mph NNE12.9 kmh NNE 10.0 mph16.1 kmh 30.24 in1024.0 mb 0.00 in0.0 mm 0.00 in0.0 mm 0.17 in4.3 mm
05:44 PM 33.0°F0.6°C 14.3°F-9.8°C 46% 5.0 mph NNE8.0 kmh NNE 10.0 mph16.1 kmh 30.24 in1024.0 mb 0.00 in0.0 mm 0.00 in0.0 mm 0.17 in4.3 mm
05:45 PM 33.0°F0.6°C 14.3°F-9.8°C 46% 4.0 mph WNW6.4 kmh WNW 10.0 mph16.1 kmh 30.24 in1024.0 mb 0.00 in0.0 mm 0.00 in0.0 mm 0.17 in4.3 mm
05:46 PM 33.0°F0.6°C 14.3°F-9.8°C 46% 3.0 mph NNW4.8 kmh NNW 10.0 mph16.1 kmh 30.24 in1024.0 mb 0.00 in0.0 mm 0.00 in0.0 mm 0.17 in4.3 mm
05:47 PM 33.0°F0.6°C 14.3°F-9.8°C 46% 3.0 mph NNW4.8 kmh NNW 10.0 mph16.1 kmh 30.23 in1023.7 mb 0.00 in0.0 mm 0.00 in0.0 mm 0.17 in4.3 mm
05:48 PM 33.0°F0.6°C 14.3°F-9.8°C 46% 5.0 mph NNW8.0 kmh NNW 9.0 mph14.5 kmh 30.23 in1023.7 mb 0.00 in0.0 mm 0.00 in0.0 mm 0.17 in4.3 mm
05:49 PM 32.9°F0.5°C 14.2°F-9.9°C 46% 8.0 mph NNW12.9 kmh NNW 8.0 mph12.9 kmh 30.24 in1024.0 mb 0.00 in0.0 mm 0.00 in0.0 mm 0.17 in4.3 mm
05:50 PM 32.9°F0.5°C 14.2°F-9.9°C 46% 5.0 mph NNW8.0 kmh NNW 8.0 mph12.9 kmh 30.24 in1024.0 mb 0.00 in0.0 mm 0.00 in0.0 mm 0.17 in4.3 mm
05:51 PM 32.9°F0.5°C 14.2°F-9.9°C 46% 4.0 mph WSW6.4 kmh WSW 8.0 mph12.9 kmh 30.24 in1024.0 mb 0.00 in0.0 mm 0.00 in0.0 mm 0.17 in4.3 mm
05:52 PM 32.9°F0.5°C 14.2°F-9.9°C 46% 6.0 mph 9.7 kmh 8.0 mph12.9 kmh 30.24 in1024.0 mb 0.00 in0.0 mm 0.00 in0.0 mm 0.17 in4.3 mm
05:53 PM 32.9°F0.5°C 14.2°F-9.9°C 46% 4.0 mph NNE6.4 kmh NNE 8.0 mph12.9 kmh 30.24 in1024.0 mb 0.00 in0.0 mm 0.00 in0.0 mm 0.17 in4.3 mm
05:54 PM 32.9°F0.5°C 14.2°F-9.9°C 46% 8.0 mph 12.9 kmh 8.0 mph12.9 kmh 30.24 in1024.0 mb 0.00 in0.0 mm 0.00 in0.0 mm 0.17 in4.3 mm
05:55 PM 32.9°F0.5°C 15.3°F-9.3°C 48% 6.0 mph 9.7 kmh 8.0 mph12.9 kmh 30.24 in1024.0 mb 0.00 in0.0 mm 0.00 in0.0 mm 0.17 in4.3 mm
05:56 PM 32.9°F0.5°C 15.3°F-9.3°C 48% 5.0 mph NW8.0 kmh NW 8.0 mph12.9 kmh 30.24 in1024.0 mb 0.00 in0.0 mm 0.00 in0.0 mm 0.17 in4.3 mm
05:57 PM 32.9°F0.5°C 15.3°F-9.3°C 48% 6.0 mph NW9.7 kmh NW 8.0 mph12.9 kmh 30.24 in1024.0 mb 0.00 in0.0 mm 0.00 in0.0 mm 0.17 in4.3 mm
05:58 PM 32.9°F0.5°C 15.3°F-9.3°C 48% 8.0 mph NNE12.9 kmh NNE 9.0 mph14.5 kmh 30.24 in1024.0 mb 0.00 in0.0 mm 0.00 in0.0 mm 0.17 in4.3 mm
05:59 PM 32.9°F0.5°C 15.3°F-9.3°C 48% 10.0 mph NNW16.1 kmh NNW 10.0 mph16.1 kmh 30.24 in1024.0 mb 0.00 in0.0 mm 0.00 in0.0 mm 0.17 in4.3 mm
06:00 PM 32.7°F0.4°C 15.1°F-9.4°C 48% 7.0 mph NNW11.3 kmh NNW 10.0 mph16.1 kmh 30.24 in1024.0 mb 0.00 in0.0 mm 0.00 in0.0 mm 0.17 in4.3 mm
06:01 PM 32.7°F0.4°C 15.1°F-9.4°C 48% 5.0 mph NNW8.0 kmh NNW 10.0 mph16.1 kmh 30.24 in1024.0 mb 0.00 in0.0 mm 0.00 in0.0 mm 0.17 in4.3 mm
06:02 PM 32.7°F0.4°C 15.1°F-9.4°C 48% 7.0 mph NNE11.3 kmh NNE 10.0 mph16.1 kmh 30.24 in1024.0 mb 0.00 in0.0 mm 0.00 in0.0 mm 0.17 in4.3 mm
06:03 PM 32.5°F0.3°C 14.9°F-9.5°C 48% 6.0 mph NW9.7 kmh NW 10.0 mph16.1 kmh 30.24 in1024.0 mb 0.00 in0.0 mm 0.00 in0.0 mm 0.17 in4.3 mm
06:04 PM 32.5°F0.3°C 14.9°F-9.5°C 48% 5.0 mph WNW8.0 kmh WNW 10.0 mph16.1 kmh 30.24 in1024.0 mb 0.00 in0.0 mm 0.00 in0.0 mm 0.17 in4.3 mm
06:05 PM 32.5°F0.3°C 14.9°F-9.5°C 48% 5.0 mph 8.0 kmh 10.0 mph16.1 kmh 30.24 in1024.0 mb 0.00 in0.0 mm 0.00 in0.0 mm 0.17 in4.3 mm
06:06 PM 32.5°F0.3°C 14.9°F-9.5°C 48% 5.0 mph NNE8.0 kmh NNE 10.0 mph16.1 kmh 30.25 in1024.4 mb 0.00 in0.0 mm 0.00 in0.0 mm 0.17 in4.3 mm
06:07 PM 32.3°F0.2°C 14.7°F-9.6°C 48% 9.0 mph NNE14.5 kmh NNE 10.0 mph16.1 kmh 30.25 in1024.4 mb 0.00 in0.0 mm 0.00 in0.0 mm 0.17 in4.3 mm
06:08 PM 32.3°F0.2°C 14.7°F-9.6°C 48% 9.0 mph NNE14.5 kmh NNE 10.0 mph16.1 kmh 30.25 in1024.4 mb 0.00 in0.0 mm 0.00 in0.0 mm 0.17 in4.3 mm
06:09 PM 32.3°F0.2°C 14.7°F-9.6°C 48% 5.0 mph NNE8.0 kmh NNE 9.0 mph14.5 kmh 30.24 in1024.0 mb 0.00 in0.0 mm 0.00 in0.0 mm 0.17 in4.3 mm
06:10 PM 32.3°F0.2°C 14.7°F-9.6°C 48% 5.0 mph NNE8.0 kmh NNE 9.0 mph14.5 kmh 30.24 in1024.0 mb 0.00 in0.0 mm 0.00 in0.0 mm 0.17 in4.3 mm
06:11 PM 32.3°F0.2°C 14.7°F-9.6°C 48% 5.0 mph NNE8.0 kmh NNE 9.0 mph14.5 kmh 30.25 in1024.4 mb 0.00 in0.0 mm 0.00 in0.0 mm 0.17 in4.3 mm
06:12 PM 32.1°F0.1°C 14.5°F-9.7°C 48% 9.0 mph NNE14.5 kmh NNE 9.0 mph14.5 kmh 30.25 in1024.4 mb 0.00 in0.0 mm 0.00 in0.0 mm 0.17 in4.3 mm
06:13 PM 32.1°F0.1°C 14.5°F-9.7°C 48% 9.0 mph NNE14.5 kmh NNE 9.0 mph14.5 kmh 30.25 in1024.4 mb 0.00 in0.0 mm 0.00 in0.0 mm 0.17 in4.3 mm
06:14 PM 32.1°F0.1°C 14.5°F-9.7°C 48% 4.0 mph NE6.4 kmh NE 9.0 mph14.5 kmh 30.25 in1024.4 mb 0.00 in0.0 mm 0.00 in0.0 mm 0.17 in4.3 mm
06:15 PM 31.9°F-0.1°C 14.3°F-9.8°C 48% 6.0 mph NNW9.7 kmh NNW 9.0 mph14.5 kmh 30.25 in1024.4 mb 0.00 in0.0 mm 0.00 in0.0 mm 0.17 in4.3 mm
06:16 PM 31.9°F-0.1°C 14.3°F-9.8°C 48% 9.0 mph NNE14.5 kmh NNE 9.0 mph14.5 kmh 30.25 in1024.4 mb 0.00 in0.0 mm 0.00 in0.0 mm 0.17 in4.3 mm
06:17 PM 31.9°F-0.1°C 14.3°F-9.8°C 48% 8.0 mph NNE12.9 kmh NNE 9.0 mph14.5 kmh 30.25 in1024.4 mb 0.00 in0.0 mm 0.00 in0.0 mm 0.17 in4.3 mm
06:18 PM 31.9°F-0.1°C 14.3°F-9.8°C 48% 8.0 mph NNE12.9 kmh NNE 9.0 mph14.5 kmh 30.25 in1024.4 mb 0.00 in0.0 mm 0.00 in0.0 mm 0.17 in4.3 mm
06:19 PM 31.9°F-0.1°C 14.8°F-9.6°C 49% 6.0 mph NNE9.7 kmh NNE 9.0 mph14.5 kmh 30.25 in1024.4 mb 0.00 in0.0 mm 0.00 in0.0 mm 0.17 in4.3 mm
06:20 PM 31.9°F-0.1°C 14.8°F-9.6°C 49% 6.0 mph NNE9.7 kmh NNE 9.0 mph14.5 kmh 30.25 in1024.4 mb 0.00 in0.0 mm 0.00 in0.0 mm 0.17 in4.3 mm
06:21 PM 31.9°F-0.1°C 14.8°F-9.6°C 49% 3.0 mph NW4.8 kmh NW 9.0 mph14.5 kmh 30.25 in1024.4 mb 0.00 in0.0 mm 0.00 in0.0 mm 0.17 in4.3 mm
06:22 PM 31.9°F-0.1°C 14.8°F-9.6°C 49% 3.0 mph NW4.8 kmh NW 9.0 mph14.5 kmh 30.25 in1024.4 mb 0.00 in0.0 mm 0.00 in0.0 mm 0.17 in4.3 mm
06:23 PM 31.8°F-0.1°C 15.2°F-9.3°C 50% 3.0 mph NW4.8 kmh NW 9.0 mph14.5 kmh 30.25 in1024.4 mb 0.00 in0.0 mm 0.00 in0.0 mm 0.17 in4.3 mm
06:24 PM 31.8°F-0.1°C 15.2°F-9.3°C 50% 6.0 mph NW9.7 kmh NW 9.0 mph14.5 kmh 30.25 in1024.4 mb 0.00 in0.0 mm 0.00 in0.0 mm 0.17 in4.3 mm
06:25 PM 31.8°F-0.1°C 15.2°F-9.3°C 50% 5.0 mph NE8.0 kmh NE 9.0 mph14.5 kmh 30.26 in1024.7 mb 0.00 in0.0 mm 0.00 in0.0 mm 0.17 in4.3 mm
06:26 PM 31.8°F-0.1°C 15.2°F-9.3°C 50% 5.0 mph NE8.0 kmh NE 9.0 mph14.5 kmh 30.26 in1024.7 mb 0.00 in0.0 mm 0.00 in0.0 mm 0.17 in4.3 mm
06:27 PM 31.8°F-0.1°C 15.2°F-9.3°C 50% 6.0 mph NNW9.7 kmh NNW 8.0 mph12.9 kmh 30.26 in1024.7 mb 0.00 in0.0 mm 0.00 in0.0 mm 0.17 in4.3 mm
06:28 PM 31.8°F-0.1°C 15.2°F-9.3°C 50% 6.0 mph 9.7 kmh 8.0 mph12.9 kmh 30.26 in1024.7 mb 0.00 in0.0 mm 0.00 in0.0 mm 0.17 in4.3 mm
06:29 PM 31.6°F-0.2°C 15.0°F-9.4°C 50% 7.0 mph 11.3 kmh 8.0 mph12.9 kmh 30.25 in1024.4 mb 0.00 in0.0 mm 0.00 in0.0 mm 0.17 in4.3 mm
06:30 PM 31.6°F-0.2°C 15.0°F-9.4°C 50% 5.0 mph 8.0 kmh 8.0 mph12.9 kmh 30.25 in1024.4 mb 0.00 in0.0 mm 0.00 in0.0 mm 0.17 in4.3 mm
06:31 PM 31.6°F-0.2°C 15.0°F-9.4°C 50% 6.0 mph NNE9.7 kmh NNE 8.0 mph12.9 kmh 30.26 in1024.7 mb 0.00 in0.0 mm 0.00 in0.0 mm 0.17 in4.3 mm
06:32 PM 31.6°F-0.2°C 15.0°F-9.4°C 50% 7.0 mph NNW11.3 kmh NNW 8.0 mph12.9 kmh 30.26 in1024.7 mb 0.00 in0.0 mm 0.00 in0.0 mm 0.17 in4.3 mm
06:33 PM 31.6°F-0.2°C 15.0°F-9.4°C 50% 6.0 mph NNE9.7 kmh NNE 9.0 mph14.5 kmh 30.26 in1024.7 mb 0.00 in0.0 mm 0.00 in0.0 mm 0.17 in4.3 mm
06:34 PM 31.6°F-0.2°C 15.0°F-9.4°C 50% 4.0 mph NNW6.4 kmh NNW 9.0 mph14.5 kmh 30.26 in1024.7 mb 0.00 in0.0 mm 0.00 in0.0 mm 0.17 in4.3 mm
06:35 PM 31.4°F-0.3°C 14.8°F-9.6°C 50% 2.0 mph WNW3.2 kmh WNW 9.0 mph14.5 kmh 30.26 in1024.7 mb 0.00 in0.0 mm 0.00 in0.0 mm 0.17 in4.3 mm
06:36 PM 31.4°F-0.3°C 14.8°F-9.6°C 50% 6.0 mph NNW9.7 kmh NNW 9.0 mph14.5 kmh 30.26 in1024.7 mb 0.00 in0.0 mm 0.00 in0.0 mm 0.17 in4.3 mm
06:37 PM 31.4°F-0.3°C 14.8°F-9.6°C 50% 4.0 mph NW6.4 kmh NW 9.0 mph14.5 kmh 30.25 in1024.4 mb 0.00 in0.0 mm 0.00 in0.0 mm 0.17 in4.3 mm
06:38 PM 31.4°F-0.3°C 14.8°F-9.6°C 50% 7.0 mph 11.3 kmh 9.0 mph14.5 kmh 30.25 in1024.4 mb 0.00 in0.0 mm 0.00 in0.0 mm 0.17 in4.3 mm
06:39 PM 31.4°F-0.3°C 14.8°F-9.6°C 50% 6.0 mph WNW9.7 kmh WNW 9.0 mph14.5 kmh 30.25 in1024.4 mb 0.00 in0.0 mm 0.00 in0.0 mm 0.17 in4.3 mm
06:40 PM 31.4°F-0.3°C 14.8°F-9.6°C 50% 5.0 mph 8.0 kmh 9.0 mph14.5 kmh 30.25 in1024.4 mb 0.00 in0.0 mm 0.00 in0.0 mm 0.17 in4.3 mm
06:41 PM 31.4°F-0.3°C 14.8°F-9.6°C 50% 4.0 mph NNE6.4 kmh NNE 9.0 mph14.5 kmh 30.26 in1024.7 mb 0.00 in0.0 mm 0.00 in0.0 mm 0.17 in4.3 mm
06:42 PM 31.2°F-0.4°C 14.6°F-9.7°C 50% 6.0 mph NNE9.7 kmh NNE 9.0 mph14.5 kmh 30.25 in1024.4 mb 0.00 in0.0 mm 0.00 in0.0 mm 0.17 in4.3 mm
06:43 PM 31.2°F-0.4°C 14.6°F-9.7°C 50% 2.0 mph 3.2 kmh 8.0 mph12.9 kmh 30.26 in1024.7 mb 0.00 in0.0 mm 0.00 in0.0 mm 0.17 in4.3 mm
06:44 PM 31.2°F-0.4°C 14.6°F-9.7°C 50% 5.0 mph W8.0 kmh W 8.0 mph12.9 kmh 30.26 in1024.7 mb 0.00 in0.0 mm 0.00 in0.0 mm 0.17 in4.3 mm
06:45 PM 31.1°F-0.5°C 14.6°F-9.7°C 50% 3.0 mph NE4.8 kmh NE 8.0 mph12.9 kmh 30.26 in1024.7 mb 0.00 in0.0 mm 0.00 in0.0 mm 0.17 in4.3 mm
06:46 PM 31.1°F-0.5°C 14.6°F-9.7°C 50% 4.0 mph NNW6.4 kmh NNW 8.0 mph12.9 kmh 30.26 in1024.7 mb 0.00 in0.0 mm 0.00 in0.0 mm 0.17 in4.3 mm
06:47 PM 31.1°F-0.5°C 14.6°F-9.7°C 50% 3.0 mph 4.8 kmh 8.0 mph12.9 kmh 30.26 in1024.7 mb 0.00 in0.0 mm 0.00 in0.0 mm 0.17 in4.3 mm
06:48 PM 31.1°F-0.5°C 14.6°F-9.7°C 50% 3.0 mph NNE4.8 kmh NNE 7.0 mph11.3 kmh 30.26 in1024.7 mb 0.00 in0.0 mm 0.00 in0.0 mm 0.17 in4.3 mm
06:49 PM 31.1°F-0.5°C 14.6°F-9.7°C 50% 4.0 mph NNE6.4 kmh NNE 7.0 mph11.3 kmh 30.26 in1024.7 mb 0.00 in0.0 mm 0.00 in0.0 mm 0.17 in4.3 mm
06:50 PM 31.1°F-0.5°C 14.6°F-9.7°C 50% 3.0 mph NNE4.8 kmh NNE 7.0 mph11.3 kmh 30.26 in1024.7 mb 0.00 in0.0 mm 0.00 in0.0 mm 0.17 in4.3 mm
06:51 PM 30.9°F-0.6°C 14.4°F-9.8°C 50% 4.0 mph NNW6.4 kmh NNW 7.0 mph11.3 kmh 30.27 in1025.1 mb 0.00 in0.0 mm 0.00 in0.0 mm 0.17 in4.3 mm
06:52 PM 30.9°F-0.6°C 14.4°F-9.8°C 50% 4.0 mph NNE6.4 kmh NNE 7.0 mph11.3 kmh 30.27 in1025.1 mb 0.00 in0.0 mm 0.00 in0.0 mm 0.17 in4.3 mm
06:53 PM 30.9°F-0.6°C 14.4°F-9.8°C 50% 4.0 mph NNE6.4 kmh NNE 7.0 mph11.3 kmh 30.26 in1024.7 mb 0.00 in0.0 mm 0.00 in0.0 mm 0.17 in4.3 mm
06:54 PM 30.9°F-0.6°C 14.4°F-9.8°C 50% 4.0 mph NNW6.4 kmh NNW 7.0 mph11.3 kmh 30.26 in1024.7 mb 0.00 in0.0 mm 0.00 in0.0 mm 0.17 in4.3 mm
06:55 PM 30.9°F-0.6°C 14.4°F-9.8°C 50% 3.0 mph NNW4.8 kmh NNW 4.0 mph6.4 kmh 30.26 in1024.7 mb 0.00 in0.0 mm 0.00 in0.0 mm 0.17 in4.3 mm
06:56 PM 30.7°F-0.7°C 14.2°F-9.9°C 50% 3.0 mph NNW4.8 kmh NNW 4.0 mph6.4 kmh 30.26 in1024.7 mb 0.00 in0.0 mm 0.00 in0.0 mm 0.17 in4.3 mm
06:57 PM 30.7°F-0.7°C 14.2°F-9.9°C 50% 3.0 mph NNW4.8 kmh NNW 4.0 mph6.4 kmh 30.26 in1024.7 mb 0.00 in0.0 mm 0.00 in0.0 mm 0.17 in4.3 mm
06:58 PM 30.7°F-0.7°C 14.2°F-9.9°C 50% 4.0 mph NNW6.4 kmh NNW 4.0 mph6.4 kmh 30.26 in1024.7 mb 0.00 in0.0 mm 0.00 in0.0 mm 0.17 in4.3 mm
06:59 PM 30.7°F-0.7°C 14.2°F-9.9°C 50% 4.0 mph NNW6.4 kmh NNW 4.0 mph6.4 kmh 30.26 in1024.7 mb 0.00 in0.0 mm 0.00 in0.0 mm 0.17 in4.3 mm
07:00 PM 30.7°F-0.7°C 14.2°F-9.9°C 50% 3.0 mph NNW4.8 kmh NNW 4.0 mph6.4 kmh 30.26 in1024.7 mb 0.00 in0.0 mm 0.00 in0.0 mm 0.17 in4.3 mm
07:01 PM 30.7°F-0.7°C 14.2°F-9.9°C 50% 6.0 mph NNE9.7 kmh NNE 6.0 mph9.7 kmh 30.26 in1024.7 mb 0.00 in0.0 mm 0.00 in0.0 mm 0.17 in4.3 mm
07:02 PM 30.7°F-0.7°C 14.2°F-9.9°C 50% 6.0 mph NNW9.7 kmh NNW 6.0 mph9.7 kmh 30.26 in1024.7 mb 0.00 in0.0 mm 0.00 in0.0 mm 0.17 in4.3 mm
07:03 PM 30.7°F-0.7°C 14.2°F-9.9°C 50% 4.0 mph NNE6.4 kmh NNE 6.0 mph9.7 kmh 30.26 in1024.7 mb 0.00 in0.0 mm 0.00 in0.0 mm 0.17 in4.3 mm
07:04 PM 30.7°F-0.7°C 14.2°F-9.9°C 50% 5.0 mph NNE8.0 kmh NNE 6.0 mph9.7 kmh 30.26 in1024.7 mb 0.00 in0.0 mm 0.00 in0.0 mm 0.17 in4.3 mm
07:05 PM 30.7°F-0.7°C 14.2°F-9.9°C 50% 5.0 mph NE8.0 kmh NE 6.0 mph9.7 kmh 30.26 in1024.7 mb 0.00 in0.0 mm 0.00 in0.0 mm 0.17 in4.3 mm
07:06 PM 30.7°F-0.7°C 14.2°F-9.9°C 50% 6.0 mph NNE9.7 kmh NNE 6.0 mph9.7 kmh 30.26 in1024.7 mb 0.00 in0.0 mm 0.00 in0.0 mm 0.17 in4.3 mm
07:07 PM 30.5°F-0.8°C 14.0°F-10.0°C 50% 6.0 mph NNE9.7 kmh NNE 6.0 mph9.7 kmh 30.26 in1024.7 mb 0.00 in0.0 mm 0.00 in0.0 mm 0.17 in4.3 mm
07:08 PM 30.5°F-0.8°C 14.0°F-10.0°C 50% 5.0 mph NE8.0 kmh NE 6.0 mph9.7 kmh 30.27 in1025.1 mb 0.00 in0.0 mm 0.00 in0.0 mm 0.17 in4.3 mm
07:09 PM 30.5°F-0.8°C 14.0°F-10.0°C 50% 5.0 mph NE8.0 kmh NE 6.0 mph9.7 kmh 30.26 in1024.7 mb 0.00 in0.0 mm 0.00 in0.0 mm 0.17 in4.3 mm
07:10 PM 30.5°F-0.8°C 14.0°F-10.0°C 50% 5.0 mph NNE8.0 kmh NNE 6.0 mph9.7 kmh 30.26 in1024.7 mb 0.00 in0.0 mm 0.00 in0.0 mm 0.17 in4.3 mm
07:11 PM 30.5°F-0.8°C 14.0°F-10.0°C 50% 5.0 mph NNE8.0 kmh NNE 6.0 mph9.7 kmh 30.26 in1024.7 mb 0.00 in0.0 mm 0.00 in0.0 mm 0.17 in4.3 mm
07:12 PM 30.5°F-0.8°C 14.0°F-10.0°C 50% 3.0 mph 4.8 kmh 6.0 mph9.7 kmh 30.27 in1025.1 mb 0.00 in0.0 mm 0.00 in0.0 mm 0.17 in4.3 mm
07:13 PM 30.3°F-0.9°C 13.8°F-10.1°C 50% 3.0 mph 4.8 kmh 6.0 mph9.7 kmh 30.26 in1024.7 mb 0.00 in0.0 mm 0.00 in0.0 mm 0.17 in4.3 mm
07:14 PM 30.3°F-0.9°C 13.8°F-10.1°C 50% 3.0 mph 4.8 kmh 6.0 mph9.7 kmh 30.26 in1024.7 mb 0.00 in0.0 mm 0.00 in0.0 mm 0.17 in4.3 mm
07:15 PM 30.3°F-0.9°C 13.8°F-10.1°C 50% 5.0 mph NNW8.0 kmh NNW 6.0 mph9.7 kmh 30.26 in1024.7 mb 0.00 in0.0 mm 0.00 in0.0 mm 0.17 in4.3 mm
07:16 PM 30.3°F-0.9°C 13.8°F-10.1°C 50% 5.0 mph NE8.0 kmh NE 6.0 mph9.7 kmh 30.27 in1025.1 mb 0.00 in0.0 mm 0.00 in0.0 mm 0.17 in4.3 mm
07:17 PM 30.3°F-0.9°C 13.8°F-10.1°C 50% 4.0 mph 6.4 kmh 6.0 mph9.7 kmh 30.26 in1024.7 mb 0.00 in0.0 mm 0.00 in0.0 mm 0.17 in4.3 mm
07:18 PM 30.3°F-0.9°C 13.8°F-10.1°C 50% 3.0 mph NNE4.8 kmh NNE 5.0 mph8.0 kmh 30.26 in1024.7 mb 0.00 in0.0 mm 0.00 in0.0 mm 0.17 in4.3 mm
07:19 PM 30.1°F-1.1°C 13.6°F-10.2°C 50% 3.0 mph NNE4.8 kmh NNE 5.0 mph8.0 kmh 30.26 in1024.7 mb 0.00 in0.0 mm 0.00 in0.0 mm 0.17 in4.3 mm
07:20 PM 30.1°F-1.1°C 13.6°F-10.2°C 50% 3.0 mph NNE4.8 kmh NNE 5.0 mph8.0 kmh 30.27 in1025.1 mb 0.00 in0.0 mm 0.00 in0.0 mm 0.17 in4.3 mm
07:21 PM 30.1°F-1.1°C 13.6°F-10.2°C 50% 4.0 mph NNW6.4 kmh NNW 5.0 mph8.0 kmh 30.26 in1024.7 mb 0.00 in0.0 mm 0.00 in0.0 mm 0.17 in4.3 mm
07:22 PM 30.1°F-1.1°C 13.6°F-10.2°C 50% 3.0 mph NW4.8 kmh NW 5.0 mph8.0 kmh 30.27 in1025.1 mb 0.00 in0.0 mm 0.00 in0.0 mm 0.17 in4.3 mm
07:23 PM 30.1°F-1.1°C 13.6°F-10.2°C 50% 3.0 mph NNE4.8 kmh NNE 5.0 mph8.0 kmh 30.25 in1024.4 mb 0.00 in0.0 mm 0.00 in0.0 mm 0.17 in4.3 mm
07:24 PM 30.1°F-1.1°C 14.1°F-9.9°C 51% 3.0 mph NNE4.8 kmh NNE 5.0 mph8.0 kmh 30.26 in1024.7 mb 0.00 in0.0 mm 0.00 in0.0 mm 0.17 in4.3 mm
07:25 PM 30.1°F-1.1°C 14.1°F-9.9°C 51% 4.0 mph 6.4 kmh 5.0 mph8.0 kmh 30.25 in1024.4 mb 0.00 in0.0 mm 0.00 in0.0 mm 0.17 in4.3 mm
07:26 PM 30.1°F-1.1°C 14.1°F-9.9°C 51% 3.0 mph 4.8 kmh 5.0 mph8.0 kmh 30.26 in1024.7 mb 0.00 in0.0 mm 0.00 in0.0 mm 0.17 in4.3 mm
07:27 PM 30.1°F-1.1°C 14.1°F-9.9°C 51% 3.0 mph 4.8 kmh 5.0 mph8.0 kmh 30.26 in1024.7 mb 0.00 in0.0 mm 0.00 in0.0 mm 0.17 in4.3 mm
07:28 PM 30.1°F-1.1°C 14.1°F-9.9°C 51% 3.0 mph NNW4.8 kmh NNW 5.0 mph8.0 kmh 30.26 in1024.7 mb 0.00 in0.0 mm 0.00 in0.0 mm 0.17 in4.3 mm
07:29 PM 30.1°F-1.1°C 14.1°F-9.9°C 51% 2.0 mph WNW3.2 kmh WNW 5.0 mph8.0 kmh 30.26 in1024.7 mb 0.00 in0.0 mm 0.00 in0.0 mm 0.17 in4.3 mm
07:30 PM 30.1°F-1.1°C 14.1°F-9.9°C 51% 2.0 mph WNW3.2 kmh WNW 5.0 mph8.0 kmh 30.26 in1024.7 mb 0.00 in0.0 mm 0.00 in0.0 mm 0.17 in4.3 mm
07:31 PM 30.1°F-1.1°C 14.1°F-9.9°C 51% 2.0 mph NNW3.2 kmh NNW 4.0 mph6.4 kmh 30.25 in1024.4 mb 0.00 in0.0 mm 0.00 in0.0 mm 0.17 in4.3 mm
07:32 PM 30.0°F-1.1°C 14.9°F-9.5°C 53% 2.0 mph NNW3.2 kmh NNW 4.0 mph6.4 kmh 30.25 in1024.4 mb 0.00 in0.0 mm 0.00 in0.0 mm